<?xml version="1.0"?>
<gpx xmlns="http://www.topografix.com/GPX/1/1" xmlns:xsi="http://www.w3.org/2001/XMLSchema-instance" version="1.1" creator="GPX RubyGem 1.0.0 -- http://dougfales.github.io/gpx/" xsi:schemaLocation="http://www.topografix.com/GPX/1/1 http://www.topografix.com/GPX/1/1/gpx.xsd">
  <metadata>
    <name/>
    <time>2026-05-08T19:15:24+00:00</time>
    <bound minlat="90.0" minlon="180.0" maxlat="-90.0" maxlon="-180.0"/>
  </metadata>
  <trk>
    <name/>
    <trkseg>
      <trkpt lat="44.672371773049235" lon="5.761303659528494">
        <time>2022-12-20T09:40:25+00:00</time>
        <ele>1222.0</ele>
      </trkpt>
      <trkpt lat="44.67237051576376" lon="5.761303156614304">
        <time>2022-12-20T09:40:26+00:00</time>
        <ele>1222.0</ele>
      </trkpt>
      <trkpt lat="44.672373784706" lon="5.761315142735839">
        <time>2022-12-20T09:40:30+00:00</time>
        <ele>1222.0</ele>
      </trkpt>
      <trkpt lat="44.67237730510533" lon="5.761318244040012">
        <time>2022-12-20T09:40:31+00:00</time>
        <ele>1222.0</ele>
      </trkpt>
      <trkpt lat="44.67238426208496" lon="5.761335091665387">
        <time>2022-12-20T09:40:33+00:00</time>
        <ele>1223.0</ele>
      </trkpt>
      <trkpt lat="44.672406390309334" lon="5.761359399184585">
        <time>2022-12-20T09:40:35+00:00</time>
        <ele>1223.0</ele>
      </trkpt>
      <trkpt lat="44.6724237408489" lon="5.761394435539842">
        <time>2022-12-20T09:40:38+00:00</time>
        <ele>1223.0</ele>
      </trkpt>
      <trkpt lat="44.672464057803154" lon="5.761429639533162">
        <time>2022-12-20T09:40:42+00:00</time>
        <ele>1224.0</ele>
      </trkpt>
      <trkpt lat="44.672533543780446" lon="5.761499293148518">
        <time>2022-12-20T09:40:49+00:00</time>
        <ele>1225.0</ele>
      </trkpt>
      <trkpt lat="44.67254318296909" lon="5.761513290926814">
        <time>2022-12-20T09:40:50+00:00</time>
        <ele>1225.0</ele>
      </trkpt>
      <trkpt lat="44.67255441471934" lon="5.761536508798599">
        <time>2022-12-20T09:40:51+00:00</time>
        <ele>1225.0</ele>
      </trkpt>
      <trkpt lat="44.67257587239146" lon="5.761604737490416">
        <time>2022-12-20T09:40:54+00:00</time>
        <ele>1226.0</ele>
      </trkpt>
      <trkpt lat="44.67283118516207" lon="5.76195920817554">
        <time>2022-12-20T09:41:20+00:00</time>
        <ele>1229.0</ele>
      </trkpt>
      <trkpt lat="44.67285616323352" lon="5.76207160949707">
        <time>2022-12-20T09:41:28+00:00</time>
        <ele>1231.0</ele>
      </trkpt>
      <trkpt lat="44.672825150191784" lon="5.762166157364845">
        <time>2022-12-20T09:41:34+00:00</time>
        <ele>1232.0</ele>
      </trkpt>
      <trkpt lat="44.67261208221316" lon="5.762289287522435">
        <time>2022-12-20T09:41:51+00:00</time>
        <ele>1235.0</ele>
      </trkpt>
      <trkpt lat="44.6724684163928" lon="5.762393809854984">
        <time>2022-12-20T09:42:04+00:00</time>
        <ele>1237.0</ele>
      </trkpt>
      <trkpt lat="44.6724168676883" lon="5.762418368831277">
        <time>2022-12-20T09:42:08+00:00</time>
        <ele>1237.0</ele>
      </trkpt>
      <trkpt lat="44.672370264306664" lon="5.762445107102394">
        <time>2022-12-20T09:42:12+00:00</time>
        <ele>1238.0</ele>
      </trkpt>
      <trkpt lat="44.67231536284089" lon="5.762486597523093">
        <time>2022-12-20T09:42:17+00:00</time>
        <ele>1238.0</ele>
      </trkpt>
      <trkpt lat="44.67217697761953" lon="5.762568153440952">
        <time>2022-12-20T09:42:29+00:00</time>
        <ele>1239.0</ele>
      </trkpt>
      <trkpt lat="44.67208410613239" lon="5.76260126195848">
        <time>2022-12-20T09:42:36+00:00</time>
        <ele>1240.0</ele>
      </trkpt>
      <trkpt lat="44.67191269621253" lon="5.762683153152466">
        <time>2022-12-20T09:42:52+00:00</time>
        <ele>1241.0</ele>
      </trkpt>
      <trkpt lat="44.67169585637748" lon="5.762889599427581">
        <time>2022-12-20T09:43:12+00:00</time>
        <ele>1243.0</ele>
      </trkpt>
      <trkpt lat="44.671495193615556" lon="5.763171734288335">
        <time>2022-12-20T09:43:33+00:00</time>
        <ele>1246.0</ele>
      </trkpt>
      <trkpt lat="44.67129067517817" lon="5.76339527964592">
        <time>2022-12-20T09:43:54+00:00</time>
        <ele>1249.0</ele>
      </trkpt>
      <trkpt lat="44.67103804461658" lon="5.763617567718029">
        <time>2022-12-20T09:44:15+00:00</time>
        <ele>1251.0</ele>
      </trkpt>
      <trkpt lat="44.67084660194814" lon="5.763735249638557">
        <time>2022-12-20T09:44:30+00:00</time>
        <ele>1252.0</ele>
      </trkpt>
      <trkpt lat="44.6708055306226" lon="5.763757796958089">
        <time>2022-12-20T09:44:33+00:00</time>
        <ele>1252.0</ele>
      </trkpt>
      <trkpt lat="44.67076035216451" lon="5.763843627646565">
        <time>2022-12-20T09:44:38+00:00</time>
        <ele>1253.0</ele>
      </trkpt>
      <trkpt lat="44.67071450315416" lon="5.764012606814504">
        <time>2022-12-20T09:44:48+00:00</time>
        <ele>1255.0</ele>
      </trkpt>
      <trkpt lat="44.67071492224932" lon="5.764139508828521">
        <time>2022-12-20T09:44:55+00:00</time>
        <ele>1256.0</ele>
      </trkpt>
      <trkpt lat="44.67070201411843" lon="5.764194997027516">
        <time>2022-12-20T09:44:57+00:00</time>
        <ele>1256.0</ele>
      </trkpt>
      <trkpt lat="44.67066823504865" lon="5.764305721968412">
        <time>2022-12-20T09:45:02+00:00</time>
        <ele>1257.0</ele>
      </trkpt>
      <trkpt lat="44.670636635273695" lon="5.764391636475921">
        <time>2022-12-20T09:45:06+00:00</time>
        <ele>1257.0</ele>
      </trkpt>
      <trkpt lat="44.67058030888438" lon="5.764521220698953">
        <time>2022-12-20T09:45:15+00:00</time>
        <ele>1258.0</ele>
      </trkpt>
      <trkpt lat="44.670509565621614" lon="5.764766726642847">
        <time>2022-12-20T09:45:29+00:00</time>
        <ele>1260.0</ele>
      </trkpt>
      <trkpt lat="44.670475870370865" lon="5.764992954209447">
        <time>2022-12-20T09:45:43+00:00</time>
        <ele>1261.0</ele>
      </trkpt>
      <trkpt lat="44.67036237940192" lon="5.765194455161691">
        <time>2022-12-20T09:45:59+00:00</time>
        <ele>1261.0</ele>
      </trkpt>
      <trkpt lat="44.67024318873882" lon="5.765474997460842">
        <time>2022-12-20T09:46:17+00:00</time>
        <ele>1262.0</ele>
      </trkpt>
      <trkpt lat="44.67029188759625" lon="5.765776913613081">
        <time>2022-12-20T09:46:37+00:00</time>
        <ele>1265.0</ele>
      </trkpt>
      <trkpt lat="44.67033287510276" lon="5.765990233048797">
        <time>2022-12-20T09:46:51+00:00</time>
        <ele>1267.0</ele>
      </trkpt>
      <trkpt lat="44.670264311134815" lon="5.766278905794025">
        <time>2022-12-20T09:47:11+00:00</time>
        <ele>1270.0</ele>
      </trkpt>
      <trkpt lat="44.67018543742597" lon="5.766408070921898">
        <time>2022-12-20T09:47:20+00:00</time>
        <ele>1271.0</ele>
      </trkpt>
      <trkpt lat="44.670131374150515" lon="5.7666099909693">
        <time>2022-12-20T09:47:36+00:00</time>
        <ele>1274.0</ele>
      </trkpt>
      <trkpt lat="44.6701649017632" lon="5.766767654567957">
        <time>2022-12-20T09:47:53+00:00</time>
        <ele>1275.0</ele>
      </trkpt>
      <trkpt lat="44.67029247432947" lon="5.766988517716527">
        <time>2022-12-20T09:48:09+00:00</time>
        <ele>1277.0</ele>
      </trkpt>
      <trkpt lat="44.67035885900259" lon="5.767099913209677">
        <time>2022-12-20T09:48:19+00:00</time>
        <ele>1278.0</ele>
      </trkpt>
      <trkpt lat="44.67042909935117" lon="5.767283644527197">
        <time>2022-12-20T09:48:34+00:00</time>
        <ele>1280.0</ele>
      </trkpt>
      <trkpt lat="44.67048886232078" lon="5.767504591494799">
        <time>2022-12-20T09:48:54+00:00</time>
        <ele>1282.0</ele>
      </trkpt>
      <trkpt lat="44.67053638771176" lon="5.767716486006975">
        <time>2022-12-20T09:49:13+00:00</time>
        <ele>1285.0</ele>
      </trkpt>
      <trkpt lat="44.670594055205584" lon="5.7680035661906">
        <time>2022-12-20T09:49:35+00:00</time>
        <ele>1289.0</ele>
      </trkpt>
      <trkpt lat="44.670601934194565" lon="5.76828008517623">
        <time>2022-12-20T09:49:53+00:00</time>
        <ele>1293.0</ele>
      </trkpt>
      <trkpt lat="44.67060319148004" lon="5.768317300826311">
        <time>2022-12-20T09:49:55+00:00</time>
        <ele>1293.0</ele>
      </trkpt>
      <trkpt lat="44.670606879517436" lon="5.768584432080388">
        <time>2022-12-20T09:50:13+00:00</time>
        <ele>1297.0</ele>
      </trkpt>
      <trkpt lat="44.67058056034148" lon="5.768928173929453">
        <time>2022-12-20T09:50:33+00:00</time>
        <ele>1302.0</ele>
      </trkpt>
      <trkpt lat="44.6705277543515" lon="5.769201759248972">
        <time>2022-12-20T09:50:53+00:00</time>
        <ele>1304.0</ele>
      </trkpt>
      <trkpt lat="44.670486683025956" lon="5.769451791420579">
        <time>2022-12-20T09:51:09+00:00</time>
        <ele>1306.0</ele>
      </trkpt>
      <trkpt lat="44.670502692461014" lon="5.769649436697364">
        <time>2022-12-20T09:51:24+00:00</time>
        <ele>1308.0</ele>
      </trkpt>
      <trkpt lat="44.670523311942816" lon="5.769868958741427">
        <time>2022-12-20T09:51:43+00:00</time>
        <ele>1310.0</ele>
      </trkpt>
      <trkpt lat="44.67045885510743" lon="5.770140532404184">
        <time>2022-12-20T09:52:03+00:00</time>
        <ele>1314.0</ele>
      </trkpt>
      <trkpt lat="44.670471511781216" lon="5.770352426916361">
        <time>2022-12-20T09:52:22+00:00</time>
        <ele>1318.0</ele>
      </trkpt>
      <trkpt lat="44.670483246445656" lon="5.770551413297653">
        <time>2022-12-20T09:52:42+00:00</time>
        <ele>1321.0</ele>
      </trkpt>
      <trkpt lat="44.67047855257988" lon="5.770556023344398">
        <time>2022-12-20T09:52:43+00:00</time>
        <ele>1321.0</ele>
      </trkpt>
      <trkpt lat="44.670437229797244" lon="5.770755345001817">
        <time>2022-12-20T09:53:05+00:00</time>
        <ele>1323.0</ele>
      </trkpt>
      <trkpt lat="44.670336060225964" lon="5.771034546196461">
        <time>2022-12-20T09:53:25+00:00</time>
        <ele>1326.0</ele>
      </trkpt>
      <trkpt lat="44.67029104940593" lon="5.771115683019161">
        <time>2022-12-20T09:53:31+00:00</time>
        <ele>1327.0</ele>
      </trkpt>
      <trkpt lat="44.67024050652981" lon="5.771347694098949">
        <time>2022-12-20T09:53:50+00:00</time>
        <ele>1330.0</ele>
      </trkpt>
      <trkpt lat="44.670169930905104" lon="5.771509381011128">
        <time>2022-12-20T09:54:05+00:00</time>
        <ele>1332.0</ele>
      </trkpt>
      <trkpt lat="44.67017278075218" lon="5.771718341857195">
        <time>2022-12-20T09:54:21+00:00</time>
        <ele>1335.0</ele>
      </trkpt>
      <trkpt lat="44.67015610076487" lon="5.771923195570707">
        <time>2022-12-20T09:54:40+00:00</time>
        <ele>1338.0</ele>
      </trkpt>
      <trkpt lat="44.67021334916353" lon="5.772137772291899">
        <time>2022-12-20T09:55:01+00:00</time>
        <ele>1342.0</ele>
      </trkpt>
      <trkpt lat="44.6702531632036" lon="5.772411860525608">
        <time>2022-12-20T09:55:18+00:00</time>
        <ele>1345.0</ele>
      </trkpt>
      <trkpt lat="44.670279482379556" lon="5.772654265165329">
        <time>2022-12-20T09:55:38+00:00</time>
        <ele>1348.0</ele>
      </trkpt>
      <trkpt lat="44.6702893730253" lon="5.772821567952633">
        <time>2022-12-20T09:55:58+00:00</time>
        <ele>1350.0</ele>
      </trkpt>
      <trkpt lat="44.670284343883395" lon="5.772961294278503">
        <time>2022-12-20T09:56:13+00:00</time>
        <ele>1352.0</ele>
      </trkpt>
      <trkpt lat="44.67031200416386" lon="5.773159526288509">
        <time>2022-12-20T09:56:31+00:00</time>
        <ele>1354.0</ele>
      </trkpt>
      <trkpt lat="44.670341508463025" lon="5.773394890129566">
        <time>2022-12-20T09:56:49+00:00</time>
        <ele>1356.0</ele>
      </trkpt>
      <trkpt lat="44.67040479183197" lon="5.773614831268787">
        <time>2022-12-20T09:57:08+00:00</time>
        <ele>1359.0</ele>
      </trkpt>
      <trkpt lat="44.67046975158155" lon="5.77382848598063">
        <time>2022-12-20T09:57:27+00:00</time>
        <ele>1361.0</ele>
      </trkpt>
      <trkpt lat="44.67047503218055" lon="5.774064855650067">
        <time>2022-12-20T09:57:47+00:00</time>
        <ele>1363.0</ele>
      </trkpt>
      <trkpt lat="44.67052649706602" lon="5.77423308044672">
        <time>2022-12-20T09:58:01+00:00</time>
        <ele>1365.0</ele>
      </trkpt>
      <trkpt lat="44.67057620175183" lon="5.774449585005641">
        <time>2022-12-20T09:58:21+00:00</time>
        <ele>1367.0</ele>
      </trkpt>
      <trkpt lat="44.670589696615934" lon="5.774655696004629">
        <time>2022-12-20T09:58:41+00:00</time>
        <ele>1369.0</ele>
      </trkpt>
      <trkpt lat="44.670616183429956" lon="5.774889970198274">
        <time>2022-12-20T09:59:00+00:00</time>
        <ele>1372.0</ele>
      </trkpt>
      <trkpt lat="44.67059103772044" lon="5.775111587718129">
        <time>2022-12-20T09:59:20+00:00</time>
        <ele>1373.0</ele>
      </trkpt>
      <trkpt lat="44.670675694942474" lon="5.775328846648336">
        <time>2022-12-20T09:59:40+00:00</time>
        <ele>1376.0</ele>
      </trkpt>
      <trkpt lat="44.67071115039289" lon="5.775481732562184">
        <time>2022-12-20T09:59:57+00:00</time>
        <ele>1377.0</ele>
      </trkpt>
      <trkpt lat="44.67072665691376" lon="5.77551425434649">
        <time>2022-12-20T10:00:04+00:00</time>
        <ele>1377.0</ele>
      </trkpt>
      <trkpt lat="44.67078063637018" lon="5.775522887706757">
        <time>2022-12-20T10:00:12+00:00</time>
        <ele>1378.0</ele>
      </trkpt>
      <trkpt lat="44.67077719978988" lon="5.775579130277038">
        <time>2022-12-20T10:00:15+00:00</time>
        <ele>1378.0</ele>
      </trkpt>
      <trkpt lat="44.670763621106744" lon="5.775652220472693">
        <time>2022-12-20T10:00:20+00:00</time>
        <ele>1378.0</ele>
      </trkpt>
      <trkpt lat="44.67072833329439" lon="5.775754814967513">
        <time>2022-12-20T10:00:27+00:00</time>
        <ele>1379.0</ele>
      </trkpt>
      <trkpt lat="44.67067510820925" lon="5.775907700881362">
        <time>2022-12-20T10:00:37+00:00</time>
        <ele>1382.0</ele>
      </trkpt>
      <trkpt lat="44.670602856203914" lon="5.776018174365163">
        <time>2022-12-20T10:00:47+00:00</time>
        <ele>1385.0</ele>
      </trkpt>
      <trkpt lat="44.67057393863797" lon="5.776059916242957">
        <time>2022-12-20T10:02:01+00:00</time>
        <ele>1387.0</ele>
      </trkpt>
      <trkpt lat="44.67053320258856" lon="5.776103418320417">
        <time>2022-12-20T10:02:25+00:00</time>
        <ele>1388.0</ele>
      </trkpt>
      <trkpt lat="44.67050629667938" lon="5.776103669777513">
        <time>2022-12-20T10:02:58+00:00</time>
        <ele>1389.0</ele>
      </trkpt>
      <trkpt lat="44.67040588147938" lon="5.776215316727758">
        <time>2022-12-20T10:03:12+00:00</time>
        <ele>1392.0</ele>
      </trkpt>
      <trkpt lat="44.670320553705096" lon="5.776305506005883">
        <time>2022-12-20T10:03:23+00:00</time>
        <ele>1395.0</ele>
      </trkpt>
      <trkpt lat="44.67029431834817" lon="5.77634490095079">
        <time>2022-12-20T10:03:27+00:00</time>
        <ele>1396.0</ele>
      </trkpt>
      <trkpt lat="44.67026397585869" lon="5.776511114090681">
        <time>2022-12-20T10:03:38+00:00</time>
        <ele>1399.0</ele>
      </trkpt>
      <trkpt lat="44.670278476551175" lon="5.776703646406531">
        <time>2022-12-20T10:03:51+00:00</time>
        <ele>1401.0</ele>
      </trkpt>
      <trkpt lat="44.67032943852246" lon="5.777060212567449">
        <time>2022-12-20T10:04:14+00:00</time>
        <ele>1405.0</ele>
      </trkpt>
      <trkpt lat="44.67037729918957" lon="5.777296917513013">
        <time>2022-12-20T10:04:33+00:00</time>
        <ele>1409.0</ele>
      </trkpt>
      <trkpt lat="44.6703826636076" lon="5.777455419301987">
        <time>2022-12-20T10:04:46+00:00</time>
        <ele>1412.0</ele>
      </trkpt>
      <trkpt lat="44.67038526199758" lon="5.777546362951398">
        <time>2022-12-20T10:04:52+00:00</time>
        <ele>1414.0</ele>
      </trkpt>
      <trkpt lat="44.67039850540459" lon="5.777670163661242">
        <time>2022-12-20T10:05:03+00:00</time>
        <ele>1416.0</ele>
      </trkpt>
      <trkpt lat="44.67039414681494" lon="5.77777317725122">
        <time>2022-12-20T10:05:12+00:00</time>
        <ele>1418.0</ele>
      </trkpt>
      <trkpt lat="44.67038903385401" lon="5.77779128216207">
        <time>2022-12-20T10:05:14+00:00</time>
        <ele>1418.0</ele>
      </trkpt>
      <trkpt lat="44.67038190923631" lon="5.777840232476592">
        <time>2022-12-20T10:05:18+00:00</time>
        <ele>1419.0</ele>
      </trkpt>
      <trkpt lat="44.67039213515818" lon="5.777990184724331">
        <time>2022-12-20T10:05:32+00:00</time>
        <ele>1422.0</ele>
      </trkpt>
      <trkpt lat="44.67043588869274" lon="5.778147932142019">
        <time>2022-12-20T10:05:46+00:00</time>
        <ele>1424.0</ele>
      </trkpt>
      <trkpt lat="44.67049481347203" lon="5.778315737843514">
        <time>2022-12-20T10:06:01+00:00</time>
        <ele>1427.0</ele>
      </trkpt>
      <trkpt lat="44.670549212023616" lon="5.778535092249513">
        <time>2022-12-20T10:06:16+00:00</time>
        <ele>1430.0</ele>
      </trkpt>
      <trkpt lat="44.67058064416051" lon="5.778628885746002">
        <time>2022-12-20T10:06:23+00:00</time>
        <ele>1431.0</ele>
      </trkpt>
      <trkpt lat="44.670636132359505" lon="5.778785962611437">
        <time>2022-12-20T10:06:38+00:00</time>
        <ele>1433.0</ele>
      </trkpt>
      <trkpt lat="44.67066178098321" lon="5.778818903490901">
        <time>2022-12-20T10:06:42+00:00</time>
        <ele>1433.0</ele>
      </trkpt>
      <trkpt lat="44.670691872015595" lon="5.779042532667518">
        <time>2022-12-20T10:07:00+00:00</time>
        <ele>1436.0</ele>
      </trkpt>
      <trkpt lat="44.670766554772854" lon="5.779127860441804">
        <time>2022-12-20T10:07:11+00:00</time>
        <ele>1437.0</ele>
      </trkpt>
      <trkpt lat="44.67085774987936" lon="5.779235819354653">
        <time>2022-12-20T10:07:28+00:00</time>
        <ele>1438.0</ele>
      </trkpt>
      <trkpt lat="44.67086001299322" lon="5.779326427727938">
        <time>2022-12-20T10:07:39+00:00</time>
        <ele>1440.0</ele>
      </trkpt>
      <trkpt lat="44.670875519514084" lon="5.779545027762651">
        <time>2022-12-20T10:07:57+00:00</time>
        <ele>1443.0</ele>
      </trkpt>
      <trkpt lat="44.670877531170845" lon="5.779595570638776">
        <time>2022-12-20T10:08:02+00:00</time>
        <ele>1444.0</ele>
      </trkpt>
      <trkpt lat="44.67090158723295" lon="5.779788857325912">
        <time>2022-12-20T10:08:17+00:00</time>
        <ele>1446.0</ele>
      </trkpt>
      <trkpt lat="44.67088264413178" lon="5.779846692457795">
        <time>2022-12-20T10:08:28+00:00</time>
        <ele>1447.0</ele>
      </trkpt>
      <trkpt lat="44.670881470665336" lon="5.779874520376325">
        <time>2022-12-20T10:08:57+00:00</time>
        <ele>1448.0</ele>
      </trkpt>
      <trkpt lat="44.67088993638754" lon="5.779907209798694">
        <time>2022-12-20T10:09:23+00:00</time>
        <ele>1448.0</ele>
      </trkpt>
      <trkpt lat="44.670879459008574" lon="5.77997200191021">
        <time>2022-12-20T10:09:29+00:00</time>
        <ele>1449.0</ele>
      </trkpt>
      <trkpt lat="44.67087275348604" lon="5.780006116256118">
        <time>2022-12-20T10:09:31+00:00</time>
        <ele>1449.0</ele>
      </trkpt>
      <trkpt lat="44.67083369381726" lon="5.780222956091166">
        <time>2022-12-20T10:09:47+00:00</time>
        <ele>1452.0</ele>
      </trkpt>
      <trkpt lat="44.6708073746413" lon="5.78035706654191">
        <time>2022-12-20T10:09:58+00:00</time>
        <ele>1454.0</ele>
      </trkpt>
      <trkpt lat="44.67078390531242" lon="5.780487572774291">
        <time>2022-12-20T10:10:08+00:00</time>
        <ele>1456.0</ele>
      </trkpt>
      <trkpt lat="44.670745600014925" lon="5.780644901096821">
        <time>2022-12-20T10:10:22+00:00</time>
        <ele>1459.0</ele>
      </trkpt>
      <trkpt lat="44.670700170099735" lon="5.780803821980953">
        <time>2022-12-20T10:10:36+00:00</time>
        <ele>1462.0</ele>
      </trkpt>
      <trkpt lat="44.670654740184546" lon="5.780961737036705">
        <time>2022-12-20T10:10:49+00:00</time>
        <ele>1465.0</ele>
      </trkpt>
      <trkpt lat="44.670599000528455" lon="5.781084951013327">
        <time>2022-12-20T10:11:01+00:00</time>
        <ele>1467.0</ele>
      </trkpt>
      <trkpt lat="44.67054686509073" lon="5.781234987080097">
        <time>2022-12-20T10:11:15+00:00</time>
        <ele>1469.0</ele>
      </trkpt>
      <trkpt lat="44.67045952565968" lon="5.781438667327166">
        <time>2022-12-20T10:11:35+00:00</time>
        <ele>1474.0</ele>
      </trkpt>
      <trkpt lat="44.670388447120786" lon="5.781643185764551">
        <time>2022-12-20T10:11:52+00:00</time>
        <ele>1479.0</ele>
      </trkpt>
      <trkpt lat="44.67032608576119" lon="5.781803783029318">
        <time>2022-12-20T10:12:07+00:00</time>
        <ele>1482.0</ele>
      </trkpt>
      <trkpt lat="44.67027931474149" lon="5.781938815489411">
        <time>2022-12-20T10:12:19+00:00</time>
        <ele>1485.0</ele>
      </trkpt>
      <trkpt lat="44.670229107141495" lon="5.782105699181557">
        <time>2022-12-20T10:12:33+00:00</time>
        <ele>1488.0</ele>
      </trkpt>
      <trkpt lat="44.67015224508941" lon="5.782211981713772">
        <time>2022-12-20T10:12:47+00:00</time>
        <ele>1491.0</ele>
      </trkpt>
      <trkpt lat="44.6700977627188" lon="5.782311139628291">
        <time>2022-12-20T10:12:59+00:00</time>
        <ele>1494.0</ele>
      </trkpt>
      <trkpt lat="44.670038586482406" lon="5.782439801841974">
        <time>2022-12-20T10:13:15+00:00</time>
        <ele>1497.0</ele>
      </trkpt>
      <trkpt lat="44.66999877244234" lon="5.782564524561167">
        <time>2022-12-20T10:13:26+00:00</time>
        <ele>1499.0</ele>
      </trkpt>
      <trkpt lat="44.66997630894184" lon="5.782691007480025">
        <time>2022-12-20T10:13:37+00:00</time>
        <ele>1502.0</ele>
      </trkpt>
      <trkpt lat="44.66996205970645" lon="5.782855628058314">
        <time>2022-12-20T10:13:51+00:00</time>
        <ele>1506.0</ele>
      </trkpt>
      <trkpt lat="44.669930124655366" lon="5.783041035756469">
        <time>2022-12-20T10:14:07+00:00</time>
        <ele>1509.0</ele>
      </trkpt>
      <trkpt lat="44.66991076245904" lon="5.783157963305712">
        <time>2022-12-20T10:14:19+00:00</time>
        <ele>1511.0</ele>
      </trkpt>
      <trkpt lat="44.669887041673064" lon="5.783302132040262">
        <time>2022-12-20T10:14:32+00:00</time>
        <ele>1512.0</ele>
      </trkpt>
      <trkpt lat="44.66982669197023" lon="5.783352507278323">
        <time>2022-12-20T10:14:43+00:00</time>
        <ele>1514.0</ele>
      </trkpt>
      <trkpt lat="44.66978025622666" lon="5.783329205587506">
        <time>2022-12-20T10:14:49+00:00</time>
        <ele>1515.0</ele>
      </trkpt>
      <trkpt lat="44.669689731672406" lon="5.783275058493018">
        <time>2022-12-20T10:15:00+00:00</time>
        <ele>1515.0</ele>
      </trkpt>
      <trkpt lat="44.66958889737725" lon="5.783370360732079">
        <time>2022-12-20T10:15:11+00:00</time>
        <ele>1516.0</ele>
      </trkpt>
      <trkpt lat="44.66948579996824" lon="5.783483516424894">
        <time>2022-12-20T10:15:22+00:00</time>
        <ele>1519.0</ele>
      </trkpt>
      <trkpt lat="44.669373566284776" lon="5.783579908311367">
        <time>2022-12-20T10:15:35+00:00</time>
        <ele>1522.0</ele>
      </trkpt>
      <trkpt lat="44.669255213811994" lon="5.783746372908354">
        <time>2022-12-20T10:15:51+00:00</time>
        <ele>1527.0</ele>
      </trkpt>
      <trkpt lat="44.669168796390295" lon="5.783873358741403">
        <time>2022-12-20T10:16:02+00:00</time>
        <ele>1532.0</ele>
      </trkpt>
      <trkpt lat="44.66909444890916" lon="5.783878052607179">
        <time>2022-12-20T10:16:08+00:00</time>
        <ele>1536.0</ele>
      </trkpt>
      <trkpt lat="44.669011468067765" lon="5.783762549981475">
        <time>2022-12-20T10:16:18+00:00</time>
        <ele>1538.0</ele>
      </trkpt>
      <trkpt lat="44.66900618746877" lon="5.783722149208188">
        <time>2022-12-20T10:16:21+00:00</time>
        <ele>1537.0</ele>
      </trkpt>
      <trkpt lat="44.668951788917184" lon="5.78342467546463">
        <time>2022-12-20T10:16:42+00:00</time>
        <ele>1535.0</ele>
      </trkpt>
      <trkpt lat="44.66895799152553" lon="5.783291906118393">
        <time>2022-12-20T10:16:52+00:00</time>
        <ele>1533.0</ele>
      </trkpt>
      <trkpt lat="44.66894097626209" lon="5.783142875880003">
        <time>2022-12-20T10:17:04+00:00</time>
        <ele>1532.0</ele>
      </trkpt>
      <trkpt lat="44.66888775117695" lon="5.783061906695366">
        <time>2022-12-20T10:17:11+00:00</time>
        <ele>1534.0</ele>
      </trkpt>
      <trkpt lat="44.66875481419265" lon="5.782968616113067">
        <time>2022-12-20T10:17:25+00:00</time>
        <ele>1541.0</ele>
      </trkpt>
      <trkpt lat="44.66859262436628" lon="5.782827213406563">
        <time>2022-12-20T10:17:43+00:00</time>
        <ele>1553.0</ele>
      </trkpt>
      <trkpt lat="44.668510649353266" lon="5.782598555088043">
        <time>2022-12-20T10:18:02+00:00</time>
        <ele>1560.0</ele>
      </trkpt>
      <trkpt lat="44.6684399060905" lon="5.782404765486717">
        <time>2022-12-20T10:18:17+00:00</time>
        <ele>1561.0</ele>
      </trkpt>
      <trkpt lat="44.66835390776396" lon="5.782346343621612">
        <time>2022-12-20T10:18:27+00:00</time>
        <ele>1565.0</ele>
      </trkpt>
      <trkpt lat="44.668136313557625" lon="5.782212819904089">
        <time>2022-12-20T10:18:47+00:00</time>
        <ele>1571.0</ele>
      </trkpt>
      <trkpt lat="44.66805651783943" lon="5.781974270939827">
        <time>2022-12-20T10:19:06+00:00</time>
        <ele>1566.0</ele>
      </trkpt>
      <trkpt lat="44.66805609874427" lon="5.781806716695428">
        <time>2022-12-20T10:19:21+00:00</time>
        <ele>1563.0</ele>
      </trkpt>
      <trkpt lat="44.667969178408384" lon="5.781677635386586">
        <time>2022-12-20T10:19:35+00:00</time>
        <ele>1561.0</ele>
      </trkpt>
      <trkpt lat="44.667807491496205" lon="5.781504129990935">
        <time>2022-12-20T10:19:55+00:00</time>
        <ele>1558.0</ele>
      </trkpt>
      <trkpt lat="44.66770313680172" lon="5.781484935432673">
        <time>2022-12-20T10:20:06+00:00</time>
        <ele>1556.0</ele>
      </trkpt>
      <trkpt lat="44.667559722438455" lon="5.781559031456709">
        <time>2022-12-20T10:20:23+00:00</time>
        <ele>1556.0</ele>
      </trkpt>
      <trkpt lat="44.66744111850858" lon="5.781710827723146">
        <time>2022-12-20T10:20:40+00:00</time>
        <ele>1558.0</ele>
      </trkpt>
      <trkpt lat="44.6673795953393" lon="5.781866312026978">
        <time>2022-12-20T10:20:53+00:00</time>
        <ele>1561.0</ele>
      </trkpt>
      <trkpt lat="44.66737104579806" lon="5.781906126067042">
        <time>2022-12-20T10:20:56+00:00</time>
        <ele>1562.0</ele>
      </trkpt>
      <trkpt lat="44.66729602776468" lon="5.782146938145161">
        <time>2022-12-20T10:21:14+00:00</time>
        <ele>1567.0</ele>
      </trkpt>
      <trkpt lat="44.66726442798972" lon="5.782217513769865">
        <time>2022-12-20T10:21:20+00:00</time>
        <ele>1569.0</ele>
      </trkpt>
      <trkpt lat="44.66723014600575" lon="5.782322119921446">
        <time>2022-12-20T10:21:29+00:00</time>
        <ele>1572.0</ele>
      </trkpt>
      <trkpt lat="44.667139453813434" lon="5.782513143494725">
        <time>2022-12-20T10:21:43+00:00</time>
        <ele>1577.0</ele>
      </trkpt>
      <trkpt lat="44.667027555406094" lon="5.782599644735456">
        <time>2022-12-20T10:21:55+00:00</time>
        <ele>1577.0</ele>
      </trkpt>
      <trkpt lat="44.66689336113632" lon="5.782606769353151">
        <time>2022-12-20T10:22:07+00:00</time>
        <ele>1575.0</ele>
      </trkpt>
      <trkpt lat="44.66686704196036" lon="5.782623030245304">
        <time>2022-12-20T10:22:10+00:00</time>
        <ele>1575.0</ele>
      </trkpt>
      <trkpt lat="44.66670501977205" lon="5.782752279192209">
        <time>2022-12-20T10:22:26+00:00</time>
        <ele>1577.0</ele>
      </trkpt>
      <trkpt lat="44.66659152880311" lon="5.782852107658982">
        <time>2022-12-20T10:22:41+00:00</time>
        <ele>1581.0</ele>
      </trkpt>
      <trkpt lat="44.66641743667424" lon="5.782944476231933">
        <time>2022-12-20T10:23:02+00:00</time>
        <ele>1586.0</ele>
      </trkpt>
      <trkpt lat="44.66627016663551" lon="5.783012369647622">
        <time>2022-12-20T10:23:15+00:00</time>
        <ele>1591.0</ele>
      </trkpt>
      <trkpt lat="44.666107473894954" lon="5.783034078776836">
        <time>2022-12-20T10:23:30+00:00</time>
        <ele>1593.0</ele>
      </trkpt>
      <trkpt lat="44.665907230228186" lon="5.782928802073002">
        <time>2022-12-20T10:23:50+00:00</time>
        <ele>1590.0</ele>
      </trkpt>
      <trkpt lat="44.665717128664255" lon="5.78280751593411">
        <time>2022-12-20T10:24:10+00:00</time>
        <ele>1585.0</ele>
      </trkpt>
      <trkpt lat="44.66553851030767" lon="5.782804582268">
        <time>2022-12-20T10:24:25+00:00</time>
        <ele>1587.0</ele>
      </trkpt>
      <trkpt lat="44.66545787639916" lon="5.782816484570503">
        <time>2022-12-20T10:24:32+00:00</time>
        <ele>1588.0</ele>
      </trkpt>
      <trkpt lat="44.665291495621204" lon="5.782817825675011">
        <time>2022-12-20T10:24:46+00:00</time>
        <ele>1589.0</ele>
      </trkpt>
      <trkpt lat="44.66509334743023" lon="5.782867362722755">
        <time>2022-12-20T10:25:04+00:00</time>
        <ele>1592.0</ele>
      </trkpt>
      <trkpt lat="44.6649360191077" lon="5.782901477068663">
        <time>2022-12-20T10:25:22+00:00</time>
        <ele>1594.0</ele>
      </trkpt>
      <trkpt lat="44.6647737454623" lon="5.782983116805553">
        <time>2022-12-20T10:25:38+00:00</time>
        <ele>1598.0</ele>
      </trkpt>
      <trkpt lat="44.66465991921723" lon="5.783004155382514">
        <time>2022-12-20T10:25:50+00:00</time>
        <ele>1601.0</ele>
      </trkpt>
      <trkpt lat="44.664502423256636" lon="5.782970627769828">
        <time>2022-12-20T10:26:06+00:00</time>
        <ele>1603.0</ele>
      </trkpt>
      <trkpt lat="44.664372839033604" lon="5.782915055751801">
        <time>2022-12-20T10:26:19+00:00</time>
        <ele>1604.0</ele>
      </trkpt>
      <trkpt lat="44.66427041217685" lon="5.782894436269999">
        <time>2022-12-20T10:26:30+00:00</time>
        <ele>1605.0</ele>
      </trkpt>
      <trkpt lat="44.664144767448306" lon="5.782860238105059">
        <time>2022-12-20T10:26:42+00:00</time>
        <ele>1607.0</ele>
      </trkpt>
      <trkpt lat="44.66400948353112" lon="5.782811623066664">
        <time>2022-12-20T10:26:55+00:00</time>
        <ele>1609.0</ele>
      </trkpt>
      <trkpt lat="44.66388015076518" lon="5.782803827896714">
        <time>2022-12-20T10:27:08+00:00</time>
        <ele>1611.0</ele>
      </trkpt>
      <trkpt lat="44.66376825235784" lon="5.782761080190539">
        <time>2022-12-20T10:27:22+00:00</time>
        <ele>1612.0</ele>
      </trkpt>
      <trkpt lat="44.663645289838314" lon="5.782717997208238">
        <time>2022-12-20T10:27:44+00:00</time>
        <ele>1613.0</ele>
      </trkpt>
      <trkpt lat="44.66355996206403" lon="5.782721433788538">
        <time>2022-12-20T10:27:53+00:00</time>
        <ele>1614.0</ele>
      </trkpt>
      <trkpt lat="44.66341587714851" lon="5.782751273363829">
        <time>2022-12-20T10:28:07+00:00</time>
        <ele>1616.0</ele>
      </trkpt>
      <trkpt lat="44.66333348304033" lon="5.782739035785198">
        <time>2022-12-20T10:28:14+00:00</time>
        <ele>1617.0</ele>
      </trkpt>
      <trkpt lat="44.66325578279793" lon="5.782710369676352">
        <time>2022-12-20T10:28:20+00:00</time>
        <ele>1618.0</ele>
      </trkpt>
      <trkpt lat="44.66319962404668" lon="5.782719757407904">
        <time>2022-12-20T10:28:25+00:00</time>
        <ele>1619.0</ele>
      </trkpt>
      <trkpt lat="44.66301128268242" lon="5.782703831791878">
        <time>2022-12-20T10:28:42+00:00</time>
        <ele>1621.0</ele>
      </trkpt>
      <trkpt lat="44.66282235458493" lon="5.782540300861001">
        <time>2022-12-20T10:29:01+00:00</time>
        <ele>1620.0</ele>
      </trkpt>
      <trkpt lat="44.662691093981266" lon="5.782397473230958">
        <time>2022-12-20T10:29:15+00:00</time>
        <ele>1621.0</ele>
      </trkpt>
      <trkpt lat="44.66259210370481" lon="5.782278450205922">
        <time>2022-12-20T10:29:28+00:00</time>
        <ele>1622.0</ele>
      </trkpt>
      <trkpt lat="44.66251230798662" lon="5.782155655324459">
        <time>2022-12-20T10:29:40+00:00</time>
        <ele>1623.0</ele>
      </trkpt>
      <trkpt lat="44.66238431632519" lon="5.78204576857388">
        <time>2022-12-20T10:29:53+00:00</time>
        <ele>1625.0</ele>
      </trkpt>
      <trkpt lat="44.66227878816426" lon="5.781953316181898">
        <time>2022-12-20T10:30:06+00:00</time>
        <ele>1627.0</ele>
      </trkpt>
      <trkpt lat="44.66215079650283" lon="5.78182247467339">
        <time>2022-12-20T10:30:21+00:00</time>
        <ele>1628.0</ele>
      </trkpt>
      <trkpt lat="44.66213185340166" lon="5.781818367540836">
        <time>2022-12-20T10:30:23+00:00</time>
        <ele>1628.0</ele>
      </trkpt>
      <trkpt lat="44.66204761527479" lon="5.781794227659702">
        <time>2022-12-20T10:30:35+00:00</time>
        <ele>1629.0</ele>
      </trkpt>
      <trkpt lat="44.66203370131552" lon="5.781791713088751">
        <time>2022-12-20T10:30:37+00:00</time>
        <ele>1629.0</ele>
      </trkpt>
      <trkpt lat="44.66195943765342" lon="5.781758856028318">
        <time>2022-12-20T10:30:44+00:00</time>
        <ele>1629.0</ele>
      </trkpt>
      <trkpt lat="44.66180454008281" lon="5.781831108033657">
        <time>2022-12-20T10:30:59+00:00</time>
        <ele>1633.0</ele>
      </trkpt>
      <trkpt lat="44.66179724782705" lon="5.781834796071053">
        <time>2022-12-20T10:31:00+00:00</time>
        <ele>1633.0</ele>
      </trkpt>
      <trkpt lat="44.66172876767814" lon="5.781768830493093">
        <time>2022-12-20T10:31:15+00:00</time>
        <ele>1634.0</ele>
      </trkpt>
      <trkpt lat="44.66171024367213" lon="5.781694063916802">
        <time>2022-12-20T10:31:28+00:00</time>
        <ele>1634.0</ele>
      </trkpt>
      <trkpt lat="44.66165282763541" lon="5.781617872416973">
        <time>2022-12-20T10:31:41+00:00</time>
        <ele>1637.0</ele>
      </trkpt>
      <trkpt lat="44.661597423255444" lon="5.781648634001613">
        <time>2022-12-20T10:31:50+00:00</time>
        <ele>1641.0</ele>
      </trkpt>
      <trkpt lat="44.661477729678154" lon="5.781675204634666">
        <time>2022-12-20T10:32:05+00:00</time>
        <ele>1649.0</ele>
      </trkpt>
      <trkpt lat="44.66136616654694" lon="5.781707894057035">
        <time>2022-12-20T10:32:24+00:00</time>
        <ele>1658.0</ele>
      </trkpt>
      <trkpt lat="44.661384942010045" lon="5.781875615939498">
        <time>2022-12-20T10:33:07+00:00</time>
        <ele>1657.0</ele>
      </trkpt>
      <trkpt lat="44.66133934445679" lon="5.781814930960536">
        <time>2022-12-20T10:33:55+00:00</time>
        <ele>1660.0</ele>
      </trkpt>
      <trkpt lat="44.6612682659179" lon="5.781850470229983">
        <time>2022-12-20T10:34:09+00:00</time>
        <ele>1667.0</ele>
      </trkpt>
      <trkpt lat="44.661269690841436" lon="5.781973348930478">
        <time>2022-12-20T10:34:20+00:00</time>
        <ele>1667.0</ele>
      </trkpt>
      <trkpt lat="44.66125275939703" lon="5.782053731381893">
        <time>2022-12-20T10:34:34+00:00</time>
        <ele>1669.0</ele>
      </trkpt>
      <trkpt lat="44.66117011383176" lon="5.781914256513119">
        <time>2022-12-20T10:34:53+00:00</time>
        <ele>1676.0</ele>
      </trkpt>
      <trkpt lat="44.66115343384445" lon="5.781985502690077">
        <time>2022-12-20T10:35:08+00:00</time>
        <ele>1678.0</ele>
      </trkpt>
      <trkpt lat="44.6610972750932" lon="5.782091030851007">
        <time>2022-12-20T10:35:31+00:00</time>
        <ele>1684.0</ele>
      </trkpt>
      <trkpt lat="44.66107732616365" lon="5.781992292031646">
        <time>2022-12-20T10:35:48+00:00</time>
        <ele>1684.0</ele>
      </trkpt>
      <trkpt lat="44.66102452017367" lon="5.781885841861367">
        <time>2022-12-20T10:36:08+00:00</time>
        <ele>1687.0</ele>
      </trkpt>
      <trkpt lat="44.66101521626115" lon="5.781944682821631">
        <time>2022-12-20T10:36:23+00:00</time>
        <ele>1689.0</ele>
      </trkpt>
      <trkpt lat="44.66095771640539" lon="5.781801100820303">
        <time>2022-12-20T10:36:40+00:00</time>
        <ele>1691.0</ele>
      </trkpt>
      <trkpt lat="44.66093768365681" lon="5.781700937077403">
        <time>2022-12-20T10:36:49+00:00</time>
        <ele>1693.0</ele>
      </trkpt>
      <trkpt lat="44.66085738502443" lon="5.781535059213638">
        <time>2022-12-20T10:37:05+00:00</time>
        <ele>1699.0</ele>
      </trkpt>
      <trkpt lat="44.66085830703378" lon="5.781377898529172">
        <time>2022-12-20T10:37:22+00:00</time>
        <ele>1699.0</ele>
      </trkpt>
      <trkpt lat="44.66085461899638" lon="5.781253091990948">
        <time>2022-12-20T10:37:40+00:00</time>
        <ele>1700.0</ele>
      </trkpt>
      <trkpt lat="44.660859648138285" lon="5.781079586595297">
        <time>2022-12-20T10:37:57+00:00</time>
        <ele>1702.0</ele>
      </trkpt>
      <trkpt lat="44.660851350054145" lon="5.780969616025686">
        <time>2022-12-20T10:38:11+00:00</time>
        <ele>1703.0</ele>
      </trkpt>
      <trkpt lat="44.660864509642124" lon="5.780836846679449">
        <time>2022-12-20T10:38:23+00:00</time>
        <ele>1705.0</ele>
      </trkpt>
      <trkpt lat="44.66093089431524" lon="5.780773563310504">
        <time>2022-12-20T10:38:36+00:00</time>
        <ele>1702.0</ele>
      </trkpt>
      <trkpt lat="44.660962242633104" lon="5.780696533620358">
        <time>2022-12-20T10:39:01+00:00</time>
        <ele>1702.0</ele>
      </trkpt>
      <trkpt lat="44.660881608724594" lon="5.780515819787979">
        <time>2022-12-20T10:39:23+00:00</time>
        <ele>1710.0</ele>
      </trkpt>
      <trkpt lat="44.66083601117134" lon="5.780378524214029">
        <time>2022-12-20T10:39:46+00:00</time>
        <ele>1716.0</ele>
      </trkpt>
      <trkpt lat="44.66083684936166" lon="5.780311720445752">
        <time>2022-12-20T10:40:06+00:00</time>
        <ele>1716.0</ele>
      </trkpt>
      <trkpt lat="44.66079116798937" lon="5.78041372820735">
        <time>2022-12-20T10:40:33+00:00</time>
        <ele>1718.0</ele>
      </trkpt>
      <trkpt lat="44.660751186311245" lon="5.780513305217028">
        <time>2022-12-20T10:40:48+00:00</time>
        <ele>1719.0</ele>
      </trkpt>
      <trkpt lat="44.66070860624313" lon="5.780611960217357">
        <time>2022-12-20T10:41:01+00:00</time>
        <ele>1720.0</ele>
      </trkpt>
      <trkpt lat="44.660687232390046" lon="5.780568961054087">
        <time>2022-12-20T10:41:20+00:00</time>
        <ele>1722.0</ele>
      </trkpt>
      <trkpt lat="44.660629983991385" lon="5.780422948300839">
        <time>2022-12-20T10:41:40+00:00</time>
        <ele>1729.0</ele>
      </trkpt>
      <trkpt lat="44.660609448328614" lon="5.780292190611363">
        <time>2022-12-20T10:41:55+00:00</time>
        <ele>1731.0</ele>
      </trkpt>
      <trkpt lat="44.660611376166344" lon="5.780193284153938">
        <time>2022-12-20T10:42:18+00:00</time>
        <ele>1732.0</ele>
      </trkpt>
      <trkpt lat="44.66052898205817" lon="5.780321611091495">
        <time>2022-12-20T10:42:39+00:00</time>
        <ele>1735.0</ele>
      </trkpt>
      <trkpt lat="44.66048715636134" lon="5.780457062646747">
        <time>2022-12-20T10:42:55+00:00</time>
        <ele>1736.0</ele>
      </trkpt>
      <trkpt lat="44.6604600828141" lon="5.780535014346242">
        <time>2022-12-20T10:43:03+00:00</time>
        <ele>1736.0</ele>
      </trkpt>
      <trkpt lat="44.66044600121677" lon="5.780596118420363">
        <time>2022-12-20T10:43:19+00:00</time>
        <ele>1736.0</ele>
      </trkpt>
      <trkpt lat="44.66039294376969" lon="5.780506264418364">
        <time>2022-12-20T10:43:42+00:00</time>
        <ele>1740.0</ele>
      </trkpt>
      <trkpt lat="44.66036603786051" lon="5.780376764014363">
        <time>2022-12-20T10:43:57+00:00</time>
        <ele>1742.0</ele>
      </trkpt>
      <trkpt lat="44.66038456186652" lon="5.780210131779313">
        <time>2022-12-20T10:44:15+00:00</time>
        <ele>1741.0</ele>
      </trkpt>
      <trkpt lat="44.66030669398606" lon="5.780171658843756">
        <time>2022-12-20T10:44:32+00:00</time>
        <ele>1742.0</ele>
      </trkpt>
      <trkpt lat="44.660242069512606" lon="5.780221614986658">
        <time>2022-12-20T10:44:43+00:00</time>
        <ele>1744.0</ele>
      </trkpt>
      <trkpt lat="44.66023402288556" lon="5.780223291367292">
        <time>2022-12-20T10:44:44+00:00</time>
        <ele>1744.0</ele>
      </trkpt>
      <trkpt lat="44.66019638814032" lon="5.78030820004642">
        <time>2022-12-20T10:44:55+00:00</time>
        <ele>1746.0</ele>
      </trkpt>
      <trkpt lat="44.66015179641545" lon="5.780479442328215">
        <time>2022-12-20T10:46:57+00:00</time>
        <ele>1750.0</ele>
      </trkpt>
      <trkpt lat="44.66012363322079" lon="5.780507940798998">
        <time>2022-12-20T10:47:02+00:00</time>
        <ele>1751.0</ele>
      </trkpt>
      <trkpt lat="44.66004375368357" lon="5.780604248866439">
        <time>2022-12-20T10:47:16+00:00</time>
        <ele>1755.0</ele>
      </trkpt>
      <trkpt lat="44.65997309423983" lon="5.780675914138556">
        <time>2022-12-20T10:47:29+00:00</time>
        <ele>1759.0</ele>
      </trkpt>
      <trkpt lat="44.65989941731095" lon="5.780722601339221">
        <time>2022-12-20T10:47:42+00:00</time>
        <ele>1761.0</ele>
      </trkpt>
      <trkpt lat="44.65986119583249" lon="5.780759649351239">
        <time>2022-12-20T10:48:00+00:00</time>
        <ele>1762.0</ele>
      </trkpt>
      <trkpt lat="44.65984292328358" lon="5.780784795060754">
        <time>2022-12-20T10:48:08+00:00</time>
        <ele>1763.0</ele>
      </trkpt>
      <trkpt lat="44.65976991690695" lon="5.780921336263418">
        <time>2022-12-20T10:48:25+00:00</time>
        <ele>1769.0</ele>
      </trkpt>
      <trkpt lat="44.65972130186856" lon="5.781051507219672">
        <time>2022-12-20T10:48:40+00:00</time>
        <ele>1773.0</ele>
      </trkpt>
      <trkpt lat="44.65970462188125" lon="5.781139265745878">
        <time>2022-12-20T10:48:52+00:00</time>
        <ele>1776.0</ele>
      </trkpt>
      <trkpt lat="44.6596709266305" lon="5.78114571981132">
        <time>2022-12-20T10:48:59+00:00</time>
        <ele>1777.0</ele>
      </trkpt>
      <trkpt lat="44.65959616005421" lon="5.781272873282433">
        <time>2022-12-20T10:49:32+00:00</time>
        <ele>1783.0</ele>
      </trkpt>
      <trkpt lat="44.65955022722483" lon="5.781380916014314">
        <time>2022-12-20T10:49:51+00:00</time>
        <ele>1786.0</ele>
      </trkpt>
      <trkpt lat="44.6595118381083" lon="5.781435398384929">
        <time>2022-12-20T10:50:00+00:00</time>
        <ele>1787.0</ele>
      </trkpt>
      <trkpt lat="44.65948350727558" lon="5.78148040920496">
        <time>2022-12-20T10:50:08+00:00</time>
        <ele>1789.0</ele>
      </trkpt>
      <trkpt lat="44.659451991319656" lon="5.781562132760882">
        <time>2022-12-20T10:50:18+00:00</time>
        <ele>1791.0</ele>
      </trkpt>
      <trkpt lat="44.6594063937664" lon="5.781696746125817">
        <time>2022-12-20T10:50:34+00:00</time>
        <ele>1794.0</ele>
      </trkpt>
      <trkpt lat="44.65940102934837" lon="5.781703200191259">
        <time>2022-12-20T10:50:35+00:00</time>
        <ele>1794.0</ele>
      </trkpt>
      <trkpt lat="44.65932995080948" lon="5.781800262629986">
        <time>2022-12-20T10:50:47+00:00</time>
        <ele>1795.0</ele>
      </trkpt>
      <trkpt lat="44.659233978018165" lon="5.781950131058693">
        <time>2022-12-20T10:51:02+00:00</time>
        <ele>1797.0</ele>
      </trkpt>
      <trkpt lat="44.65915619395673" lon="5.782062951475382">
        <time>2022-12-20T10:51:13+00:00</time>
        <ele>1798.0</ele>
      </trkpt>
      <trkpt lat="44.65907547622919" lon="5.782217010855675">
        <time>2022-12-20T10:51:30+00:00</time>
        <ele>1799.0</ele>
      </trkpt>
      <trkpt lat="44.659007331356406" lon="5.782264536246657">
        <time>2022-12-20T10:51:39+00:00</time>
        <ele>1799.0</ele>
      </trkpt>
      <trkpt lat="44.658997021615505" lon="5.78226612880826">
        <time>2022-12-20T10:51:40+00:00</time>
        <ele>1799.0</ele>
      </trkpt>
      <trkpt lat="44.658911107108" lon="5.782286832109094">
        <time>2022-12-20T10:51:48+00:00</time>
        <ele>1799.0</ele>
      </trkpt>
      <trkpt lat="44.65888185426593" lon="5.782312229275703">
        <time>2022-12-20T10:51:55+00:00</time>
        <ele>1800.0</ele>
      </trkpt>
      <trkpt lat="44.658868946135044" lon="5.782341649755836">
        <time>2022-12-20T10:52:00+00:00</time>
        <ele>1800.0</ele>
      </trkpt>
      <trkpt lat="44.658864587545395" lon="5.78237752430141">
        <time>2022-12-20T10:52:02+00:00</time>
        <ele>1800.0</ele>
      </trkpt>
      <trkpt lat="44.65880633331835" lon="5.782542061060667">
        <time>2022-12-20T10:52:16+00:00</time>
        <ele>1802.0</ele>
      </trkpt>
      <trkpt lat="44.65878386981785" lon="5.782695533707738">
        <time>2022-12-20T10:52:30+00:00</time>
        <ele>1804.0</ele>
      </trkpt>
      <trkpt lat="44.658747324720025" lon="5.782865351065993">
        <time>2022-12-20T10:52:44+00:00</time>
        <ele>1806.0</ele>
      </trkpt>
      <trkpt lat="44.65868454426527" lon="5.783085962757468">
        <time>2022-12-20T10:53:05+00:00</time>
        <ele>1810.0</ele>
      </trkpt>
      <trkpt lat="44.658630564808846" lon="5.78321160748601">
        <time>2022-12-20T10:53:20+00:00</time>
        <ele>1812.0</ele>
      </trkpt>
      <trkpt lat="44.658616315573454" lon="5.783245218917728">
        <time>2022-12-20T10:53:24+00:00</time>
        <ele>1813.0</ele>
      </trkpt>
      <trkpt lat="44.65857666917145" lon="5.783391147851944">
        <time>2022-12-20T10:53:39+00:00</time>
        <ele>1815.0</ele>
      </trkpt>
      <trkpt lat="44.65852662920952" lon="5.783493490889669">
        <time>2022-12-20T10:53:55+00:00</time>
        <ele>1817.0</ele>
      </trkpt>
      <trkpt lat="44.65850022621453" lon="5.783587452024221">
        <time>2022-12-20T10:55:51+00:00</time>
        <ele>1819.0</ele>
      </trkpt>
      <trkpt lat="44.65846644714475" lon="5.783766405656934">
        <time>2022-12-20T10:56:13+00:00</time>
        <ele>1823.0</ele>
      </trkpt>
      <trkpt lat="44.65841967612505" lon="5.783937564119697">
        <time>2022-12-20T10:56:32+00:00</time>
        <ele>1827.0</ele>
      </trkpt>
      <trkpt lat="44.65839025564492" lon="5.784103190526366">
        <time>2022-12-20T10:56:50+00:00</time>
        <ele>1831.0</ele>
      </trkpt>
      <trkpt lat="44.65835513547063" lon="5.784212574362755">
        <time>2022-12-20T10:57:02+00:00</time>
        <ele>1834.0</ele>
      </trkpt>
      <trkpt lat="44.65832328423858" lon="5.784304440021515">
        <time>2022-12-20T10:57:13+00:00</time>
        <ele>1836.0</ele>
      </trkpt>
      <trkpt lat="44.65827223844826" lon="5.784456571564078">
        <time>2022-12-20T10:57:32+00:00</time>
        <ele>1840.0</ele>
      </trkpt>
      <trkpt lat="44.65822722762823" lon="5.784547934308648">
        <time>2022-12-20T10:57:44+00:00</time>
        <ele>1843.0</ele>
      </trkpt>
      <trkpt lat="44.65818422846496" lon="5.784575678408146">
        <time>2022-12-20T10:58:04+00:00</time>
        <ele>1843.0</ele>
      </trkpt>
      <trkpt lat="44.65811541303992" lon="5.784682212397456">
        <time>2022-12-20T10:58:23+00:00</time>
        <ele>1846.0</ele>
      </trkpt>
      <trkpt lat="44.65802891179919" lon="5.784775502979755">
        <time>2022-12-20T10:58:40+00:00</time>
        <ele>1849.0</ele>
      </trkpt>
      <trkpt lat="44.65795288793743" lon="5.784835014492273">
        <time>2022-12-20T10:58:54+00:00</time>
        <ele>1852.0</ele>
      </trkpt>
      <trkpt lat="44.65785104781389" lon="5.784854711964726">
        <time>2022-12-20T10:59:10+00:00</time>
        <ele>1854.0</ele>
      </trkpt>
      <trkpt lat="44.657706543803215" lon="5.784862339496613">
        <time>2022-12-20T10:59:32+00:00</time>
        <ele>1858.0</ele>
      </trkpt>
      <trkpt lat="44.657634710893035" lon="5.784906260669231">
        <time>2022-12-20T10:59:46+00:00</time>
        <ele>1861.0</ele>
      </trkpt>
      <trkpt lat="44.657515017315745" lon="5.785013884305954">
        <time>2022-12-20T11:00:09+00:00</time>
        <ele>1866.0</ele>
      </trkpt>
      <trkpt lat="44.65742440894246" lon="5.785056799650192">
        <time>2022-12-20T11:01:46+00:00</time>
        <ele>1869.0</ele>
      </trkpt>
      <trkpt lat="44.65742868371308" lon="5.785093428567052">
        <time>2022-12-20T11:02:11+00:00</time>
        <ele>1870.0</ele>
      </trkpt>
      <trkpt lat="44.65745726600289" lon="5.785118574276567">
        <time>2022-12-20T11:02:37+00:00</time>
        <ele>1870.0</ele>
      </trkpt>
      <trkpt lat="44.65753328986466" lon="5.785263832658529">
        <time>2022-12-20T11:02:56+00:00</time>
        <ele>1873.0</ele>
      </trkpt>
      <trkpt lat="44.65760042890906" lon="5.785377323627472">
        <time>2022-12-20T11:03:11+00:00</time>
        <ele>1875.0</ele>
      </trkpt>
      <trkpt lat="44.65762129984796" lon="5.785534149035811">
        <time>2022-12-20T11:03:31+00:00</time>
        <ele>1879.0</ele>
      </trkpt>
      <trkpt lat="44.65756606310606" lon="5.785574717447162">
        <time>2022-12-20T11:03:43+00:00</time>
        <ele>1881.0</ele>
      </trkpt>
      <trkpt lat="44.65751459822059" lon="5.7855917327106">
        <time>2022-12-20T11:04:04+00:00</time>
        <ele>1882.0</ele>
      </trkpt>
      <trkpt lat="44.65741418302059" lon="5.785673623904586">
        <time>2022-12-20T11:04:27+00:00</time>
        <ele>1887.0</ele>
      </trkpt>
      <trkpt lat="44.65729180723429" lon="5.785720897838473">
        <time>2022-12-20T11:04:47+00:00</time>
        <ele>1891.0</ele>
      </trkpt>
      <trkpt lat="44.657235061749816" lon="5.785735733807087">
        <time>2022-12-20T11:04:57+00:00</time>
        <ele>1893.0</ele>
      </trkpt>
      <trkpt lat="44.65711645781994" lon="5.785759035497904">
        <time>2022-12-20T11:05:16+00:00</time>
        <ele>1897.0</ele>
      </trkpt>
      <trkpt lat="44.657051749527454" lon="5.785741852596402">
        <time>2022-12-20T11:05:30+00:00</time>
        <ele>1899.0</ele>
      </trkpt>
      <trkpt lat="44.65707806870341" lon="5.785844530910254">
        <time>2022-12-20T11:05:48+00:00</time>
        <ele>1900.0</ele>
      </trkpt>
      <trkpt lat="44.65709986165166" lon="5.785964811220765">
        <time>2022-12-20T11:06:02+00:00</time>
        <ele>1901.0</ele>
      </trkpt>
      <trkpt lat="44.65710137039423" lon="5.786012755706906">
        <time>2022-12-20T11:06:11+00:00</time>
        <ele>1902.0</ele>
      </trkpt>
      <trkpt lat="44.65710522606969" lon="5.786153739318252">
        <time>2022-12-20T11:06:29+00:00</time>
        <ele>1905.0</ele>
      </trkpt>
      <trkpt lat="44.65717110782862" lon="5.786311905831099">
        <time>2022-12-20T11:06:48+00:00</time>
        <ele>1909.0</ele>
      </trkpt>
      <trkpt lat="44.65726003982127" lon="5.786407375708222">
        <time>2022-12-20T11:07:06+00:00</time>
        <ele>1909.0</ele>
      </trkpt>
      <trkpt lat="44.657314103096724" lon="5.786475269123912">
        <time>2022-12-20T11:07:23+00:00</time>
        <ele>1910.0</ele>
      </trkpt>
      <trkpt lat="44.657369842752814" lon="5.786581635475159">
        <time>2022-12-20T11:07:38+00:00</time>
        <ele>1913.0</ele>
      </trkpt>
      <trkpt lat="44.65745869092643" lon="5.786719685420394">
        <time>2022-12-20T11:07:58+00:00</time>
        <ele>1917.0</ele>
      </trkpt>
      <trkpt lat="44.6575328707695" lon="5.786796463653445">
        <time>2022-12-20T11:08:14+00:00</time>
        <ele>1919.0</ele>
      </trkpt>
      <trkpt lat="44.65760663151741" lon="5.786862513050437">
        <time>2022-12-20T11:08:27+00:00</time>
        <ele>1921.0</ele>
      </trkpt>
      <trkpt lat="44.65771375223994" lon="5.786940632387996">
        <time>2022-12-20T11:08:47+00:00</time>
        <ele>1925.0</ele>
      </trkpt>
      <trkpt lat="44.65764803811908" lon="5.787016237154603">
        <time>2022-12-20T11:09:03+00:00</time>
        <ele>1928.0</ele>
      </trkpt>
      <trkpt lat="44.65760604478419" lon="5.787066780030727">
        <time>2022-12-20T11:09:14+00:00</time>
        <ele>1930.0</ele>
      </trkpt>
      <trkpt lat="44.65753982774913" lon="5.787144731730223">
        <time>2022-12-20T11:09:39+00:00</time>
        <ele>1932.0</ele>
      </trkpt>
      <trkpt lat="44.657491967082024" lon="5.787226287648082">
        <time>2022-12-20T11:10:00+00:00</time>
        <ele>1935.0</ele>
      </trkpt>
      <trkpt lat="44.65739130042493" lon="5.787273477762938">
        <time>2022-12-20T11:10:20+00:00</time>
        <ele>1936.0</ele>
      </trkpt>
      <trkpt lat="44.657288705930114" lon="5.787334581837058">
        <time>2022-12-20T11:10:39+00:00</time>
        <ele>1938.0</ele>
      </trkpt>
      <trkpt lat="44.657214442268014" lon="5.787410270422697">
        <time>2022-12-20T11:11:01+00:00</time>
        <ele>1941.0</ele>
      </trkpt>
      <trkpt lat="44.6571081597358" lon="5.787459472194314">
        <time>2022-12-20T11:11:18+00:00</time>
        <ele>1944.0</ele>
      </trkpt>
      <trkpt lat="44.657005816698074" lon="5.787488808855414">
        <time>2022-12-20T11:11:34+00:00</time>
        <ele>1947.0</ele>
      </trkpt>
      <trkpt lat="44.656924679875374" lon="5.787505991756916">
        <time>2022-12-20T11:11:57+00:00</time>
        <ele>1950.0</ele>
      </trkpt>
      <trkpt lat="44.65694664046168" lon="5.787568939849734">
        <time>2022-12-20T11:12:18+00:00</time>
        <ele>1951.0</ele>
      </trkpt>
      <trkpt lat="44.65703691355884" lon="5.787693075835705">
        <time>2022-12-20T11:12:36+00:00</time>
        <ele>1952.0</ele>
      </trkpt>
      <trkpt lat="44.657139675691724" lon="5.78781352378428">
        <time>2022-12-20T11:12:55+00:00</time>
        <ele>1956.0</ele>
      </trkpt>
      <trkpt lat="44.65721955522895" lon="5.787902791053057">
        <time>2022-12-20T11:13:11+00:00</time>
        <ele>1960.0</ele>
      </trkpt>
      <trkpt lat="44.65729524381459" lon="5.787967164069414">
        <time>2022-12-20T11:13:26+00:00</time>
        <ele>1963.0</ele>
      </trkpt>
      <trkpt lat="44.65737294405699" lon="5.78800555318594">
        <time>2022-12-20T11:13:41+00:00</time>
        <ele>1965.0</ele>
      </trkpt>
      <trkpt lat="44.65732131153345" lon="5.788103537634015">
        <time>2022-12-20T11:13:58+00:00</time>
        <ele>1969.0</ele>
      </trkpt>
      <trkpt lat="44.65724201872945" lon="5.788175286725164">
        <time>2022-12-20T11:14:20+00:00</time>
        <ele>1972.0</ele>
      </trkpt>
      <trkpt lat="44.65712836012244" lon="5.788259189575911">
        <time>2022-12-20T11:14:41+00:00</time>
        <ele>1976.0</ele>
      </trkpt>
      <trkpt lat="44.65704085305333" lon="5.788324400782585">
        <time>2022-12-20T11:15:06+00:00</time>
        <ele>1979.0</ele>
      </trkpt>
      <trkpt lat="44.6569614764303" lon="5.788388354703784">
        <time>2022-12-20T11:15:21+00:00</time>
        <ele>1982.0</ele>
      </trkpt>
      <trkpt lat="44.656921746209264" lon="5.788394222036004">
        <time>2022-12-20T11:15:27+00:00</time>
        <ele>1983.0</ele>
      </trkpt>
      <trkpt lat="44.656844129785895" lon="5.788402017205954">
        <time>2022-12-20T11:15:39+00:00</time>
        <ele>1985.0</ele>
      </trkpt>
      <trkpt lat="44.65672594495118" lon="5.788482567295432">
        <time>2022-12-20T11:15:59+00:00</time>
        <ele>1991.0</ele>
      </trkpt>
      <trkpt lat="44.656668696552515" lon="5.7885015103966">
        <time>2022-12-20T11:16:18+00:00</time>
        <ele>1993.0</ele>
      </trkpt>
      <trkpt lat="44.65668814256787" lon="5.788589185103774">
        <time>2022-12-20T11:16:37+00:00</time>
        <ele>1996.0</ele>
      </trkpt>
      <trkpt lat="44.656633073464036" lon="5.788643918931484">
        <time>2022-12-20T11:16:58+00:00</time>
        <ele>1999.0</ele>
      </trkpt>
      <trkpt lat="44.6566004678607" lon="5.788648864254355">
        <time>2022-12-20T11:17:15+00:00</time>
        <ele>2000.0</ele>
      </trkpt>
      <trkpt lat="44.656609604135156" lon="5.788727570325136">
        <time>2022-12-20T11:17:37+00:00</time>
        <ele>2002.0</ele>
      </trkpt>
      <trkpt lat="44.656662829220295" lon="5.788833014667034">
        <time>2022-12-20T11:17:58+00:00</time>
        <ele>2004.0</ele>
      </trkpt>
      <trkpt lat="44.65657993219793" lon="5.78890610486269">
        <time>2022-12-20T11:18:13+00:00</time>
        <ele>2007.0</ele>
      </trkpt>
      <trkpt lat="44.65651949867606" lon="5.788924796506763">
        <time>2022-12-20T11:18:31+00:00</time>
        <ele>2009.0</ele>
      </trkpt>
      <trkpt lat="44.65655176900327" lon="5.789009034633637">
        <time>2022-12-20T11:18:53+00:00</time>
        <ele>2010.0</ele>
      </trkpt>
      <trkpt lat="44.656648160889745" lon="5.789058655500412">
        <time>2022-12-20T11:19:08+00:00</time>
        <ele>2011.0</ele>
      </trkpt>
      <trkpt lat="44.65669434517622" lon="5.789111377671361">
        <time>2022-12-20T11:19:17+00:00</time>
        <ele>2012.0</ele>
      </trkpt>
      <trkpt lat="44.65662016533315" lon="5.789216905832291">
        <time>2022-12-20T11:19:32+00:00</time>
        <ele>2016.0</ele>
      </trkpt>
      <trkpt lat="44.65653399936855" lon="5.78931069932878">
        <time>2022-12-20T11:19:49+00:00</time>
        <ele>2020.0</ele>
      </trkpt>
      <trkpt lat="44.656502064317465" lon="5.789371803402901">
        <time>2022-12-20T11:20:03+00:00</time>
        <ele>2022.0</ele>
      </trkpt>
      <trkpt lat="44.65652469545603" lon="5.789430057629943">
        <time>2022-12-20T11:20:28+00:00</time>
        <ele>2023.0</ele>
      </trkpt>
      <trkpt lat="44.656555876135826" lon="5.789511697366834">
        <time>2022-12-20T11:20:36+00:00</time>
        <ele>2025.0</ele>
      </trkpt>
      <trkpt lat="44.65661111287773" lon="5.789624350145459">
        <time>2022-12-20T11:20:48+00:00</time>
        <ele>2028.0</ele>
      </trkpt>
      <trkpt lat="44.65666408650577" lon="5.78968008980155">
        <time>2022-12-20T11:22:47+00:00</time>
        <ele>2030.0</ele>
      </trkpt>
      <trkpt lat="44.656678922474384" lon="5.789694422855973">
        <time>2022-12-20T11:23:14+00:00</time>
        <ele>2030.0</ele>
      </trkpt>
      <trkpt lat="44.656742457300425" lon="5.789692746475339">
        <time>2022-12-20T11:23:41+00:00</time>
        <ele>2029.0</ele>
      </trkpt>
      <trkpt lat="44.656683783978224" lon="5.789763405919075">
        <time>2022-12-20T11:24:07+00:00</time>
        <ele>2032.0</ele>
      </trkpt>
      <trkpt lat="44.65671814978123" lon="5.78984278254211">
        <time>2022-12-20T11:24:26+00:00</time>
        <ele>2033.0</ele>
      </trkpt>
      <trkpt lat="44.65682292357087" lon="5.789892990142107">
        <time>2022-12-20T11:24:48+00:00</time>
        <ele>2036.0</ele>
      </trkpt>
      <trkpt lat="44.65689861215651" lon="5.789943616837263">
        <time>2022-12-20T11:25:05+00:00</time>
        <ele>2040.0</ele>
      </trkpt>
      <trkpt lat="44.65698016807437" lon="5.789943365380168">
        <time>2022-12-20T11:25:25+00:00</time>
        <ele>2041.0</ele>
      </trkpt>
      <trkpt lat="44.65703490190208" lon="5.789975970983505">
        <time>2022-12-20T11:25:38+00:00</time>
        <ele>2043.0</ele>
      </trkpt>
      <trkpt lat="44.657060131430626" lon="5.790052078664303">
        <time>2022-12-20T11:25:54+00:00</time>
        <ele>2047.0</ele>
      </trkpt>
      <trkpt lat="44.65702383778989" lon="5.79022197984159">
        <time>2022-12-20T11:26:16+00:00</time>
        <ele>2052.0</ele>
      </trkpt>
      <trkpt lat="44.65703557245433" lon="5.790315270423889">
        <time>2022-12-20T11:26:35+00:00</time>
        <ele>2054.0</ele>
      </trkpt>
      <trkpt lat="44.657047390937805" lon="5.790359023958445">
        <time>2022-12-20T11:27:31+00:00</time>
        <ele>2056.0</ele>
      </trkpt>
      <trkpt lat="44.65704697184265" lon="5.790357012301683">
        <time>2022-12-20T11:27:36+00:00</time>
        <ele>2056.0</ele>
      </trkpt>
      <trkpt lat="44.65706675313413" lon="5.790440244600177">
        <time>2022-12-20T11:27:52+00:00</time>
        <ele>2058.0</ele>
      </trkpt>
      <trkpt lat="44.65703456662595" lon="5.790622970089316">
        <time>2022-12-20T11:28:10+00:00</time>
        <ele>2063.0</ele>
      </trkpt>
      <trkpt lat="44.65699684806168" lon="5.790754063054919">
        <time>2022-12-20T11:28:28+00:00</time>
        <ele>2068.0</ele>
      </trkpt>
      <trkpt lat="44.65701294131577" lon="5.790876774117351">
        <time>2022-12-20T11:28:47+00:00</time>
        <ele>2072.0</ele>
      </trkpt>
      <trkpt lat="44.656992405653" lon="5.790980542078614">
        <time>2022-12-20T11:28:59+00:00</time>
        <ele>2076.0</ele>
      </trkpt>
      <trkpt lat="44.657019060105085" lon="5.791020607575774">
        <time>2022-12-20T11:29:15+00:00</time>
        <ele>2077.0</ele>
      </trkpt>
      <trkpt lat="44.656983437016606" lon="5.791144408285618">
        <time>2022-12-20T11:29:37+00:00</time>
        <ele>2081.0</ele>
      </trkpt>
      <trkpt lat="44.65696751140058" lon="5.791245829313994">
        <time>2022-12-20T11:29:50+00:00</time>
        <ele>2083.0</ele>
      </trkpt>
      <trkpt lat="44.6569577883929" lon="5.791381280869246">
        <time>2022-12-20T11:30:05+00:00</time>
        <ele>2087.0</ele>
      </trkpt>
      <trkpt lat="44.656944796442986" lon="5.791502986103296">
        <time>2022-12-20T11:30:21+00:00</time>
        <ele>2090.0</ele>
      </trkpt>
      <trkpt lat="44.65695871040225" lon="5.791488233953714">
        <time>2022-12-20T11:30:34+00:00</time>
        <ele>2090.0</ele>
      </trkpt>
      <trkpt lat="44.656975558027625" lon="5.791667271405459">
        <time>2022-12-20T11:30:57+00:00</time>
        <ele>2095.0</ele>
      </trkpt>
      <trkpt lat="44.656978910788894" lon="5.791754946112633">
        <time>2022-12-20T11:31:07+00:00</time>
        <ele>2097.0</ele>
      </trkpt>
      <trkpt lat="44.65699567459524" lon="5.791823258623481">
        <time>2022-12-20T11:31:17+00:00</time>
        <ele>2098.0</ele>
      </trkpt>
      <trkpt lat="44.65699299238622" lon="5.791824767366052">
        <time>2022-12-20T11:31:42+00:00</time>
        <ele>2099.0</ele>
      </trkpt>
      <trkpt lat="44.65697974897921" lon="5.791907915845513">
        <time>2022-12-20T11:31:59+00:00</time>
        <ele>2100.0</ele>
      </trkpt>
      <trkpt lat="44.65698444284499" lon="5.791962649673224">
        <time>2022-12-20T11:32:21+00:00</time>
        <ele>2101.0</ele>
      </trkpt>
      <trkpt lat="44.6569630689919" lon="5.792007492855191">
        <time>2022-12-20T11:32:38+00:00</time>
        <ele>2102.0</ele>
      </trkpt>
      <trkpt lat="44.65695544146001" lon="5.792065495625138">
        <time>2022-12-20T11:32:56+00:00</time>
        <ele>2099.0</ele>
      </trkpt>
      <trkpt lat="44.656956531107426" lon="5.792121235281229">
        <time>2022-12-20T11:33:07+00:00</time>
        <ele>2097.0</ele>
      </trkpt>
      <trkpt lat="44.65696977451444" lon="5.792109165340662">
        <time>2022-12-20T11:34:19+00:00</time>
        <ele>2097.0</ele>
      </trkpt>
      <trkpt lat="44.65701688081026" lon="5.792117631062865">
        <time>2022-12-20T11:34:52+00:00</time>
        <ele>2096.0</ele>
      </trkpt>
      <trkpt lat="44.65705594047904" lon="5.792209748178721">
        <time>2022-12-20T11:35:11+00:00</time>
        <ele>2091.0</ele>
      </trkpt>
      <trkpt lat="44.65708628296852" lon="5.792206060141325">
        <time>2022-12-20T11:35:20+00:00</time>
        <ele>2091.0</ele>
      </trkpt>
      <trkpt lat="44.65708712115884" lon="5.792209664359689">
        <time>2022-12-20T11:35:24+00:00</time>
        <ele>2090.0</ele>
      </trkpt>
      <trkpt lat="44.657119642943144" lon="5.79219943843782">
        <time>2022-12-20T11:35:45+00:00</time>
        <ele>2090.0</ele>
      </trkpt>
      <trkpt lat="44.65709340758622" lon="5.792346121743321">
        <time>2022-12-20T11:43:28+00:00</time>
        <ele>2082.0</ele>
      </trkpt>
      <trkpt lat="44.65708284638822" lon="5.79237587749958">
        <time>2022-12-20T11:43:38+00:00</time>
        <ele>2080.0</ele>
      </trkpt>
      <trkpt lat="44.65706122107804" lon="5.792432958260179">
        <time>2022-12-20T11:43:52+00:00</time>
        <ele>2076.0</ele>
      </trkpt>
      <trkpt lat="44.65705317445099" lon="5.792470676824451">
        <time>2022-12-20T11:44:01+00:00</time>
        <ele>2073.0</ele>
      </trkpt>
      <trkpt lat="44.65704470872879" lon="5.792509904131293">
        <time>2022-12-20T11:44:14+00:00</time>
        <ele>2070.0</ele>
      </trkpt>
      <trkpt lat="44.657019479200244" lon="5.792568912729621">
        <time>2022-12-20T11:44:39+00:00</time>
        <ele>2066.0</ele>
      </trkpt>
      <trkpt lat="44.656991651281714" lon="5.792629010975361">
        <time>2022-12-20T11:44:48+00:00</time>
        <ele>2063.0</ele>
      </trkpt>
      <trkpt lat="44.65696784667671" lon="5.792685588821769">
        <time>2022-12-20T11:44:55+00:00</time>
        <ele>2060.0</ele>
      </trkpt>
      <trkpt lat="44.656935492530465" lon="5.792768318206072">
        <time>2022-12-20T11:45:02+00:00</time>
        <ele>2055.0</ele>
      </trkpt>
      <trkpt lat="44.656914034858346" lon="5.792838726192713">
        <time>2022-12-20T11:45:08+00:00</time>
        <ele>2052.0</ele>
      </trkpt>
      <trkpt lat="44.65690531767905" lon="5.792907290160656">
        <time>2022-12-20T11:45:15+00:00</time>
        <ele>2049.0</ele>
      </trkpt>
      <trkpt lat="44.65689827688038" lon="5.79295925796032">
        <time>2022-12-20T11:45:22+00:00</time>
        <ele>2046.0</ele>
      </trkpt>
      <trkpt lat="44.656884698197246" lon="5.793046178296208">
        <time>2022-12-20T11:45:30+00:00</time>
        <ele>2043.0</ele>
      </trkpt>
      <trkpt lat="44.65688235126436" lon="5.793062690645456">
        <time>2022-12-20T11:45:36+00:00</time>
        <ele>2042.0</ele>
      </trkpt>
      <trkpt lat="44.65690749697387" lon="5.793090183287859">
        <time>2022-12-20T11:45:46+00:00</time>
        <ele>2039.0</ele>
      </trkpt>
      <trkpt lat="44.65688989497721" lon="5.793174337595701">
        <time>2022-12-20T11:45:57+00:00</time>
        <ele>2036.0</ele>
      </trkpt>
      <trkpt lat="44.656933480873704" lon="5.793235106393695">
        <time>2022-12-20T11:46:06+00:00</time>
        <ele>2030.0</ele>
      </trkpt>
      <trkpt lat="44.656975977122784" lon="5.793267209082842">
        <time>2022-12-20T11:46:14+00:00</time>
        <ele>2028.0</ele>
      </trkpt>
      <trkpt lat="44.65701688081026" lon="5.793336946517229">
        <time>2022-12-20T11:46:23+00:00</time>
        <ele>2023.0</ele>
      </trkpt>
      <trkpt lat="44.657065412029624" lon="5.793392015621066">
        <time>2022-12-20T11:46:31+00:00</time>
        <ele>2020.0</ele>
      </trkpt>
      <trkpt lat="44.65707806870341" lon="5.79345379024744">
        <time>2022-12-20T11:46:36+00:00</time>
        <ele>2017.0</ele>
      </trkpt>
      <trkpt lat="44.657114781439304" lon="5.793769955635071">
        <time>2022-12-20T11:46:58+00:00</time>
        <ele>2002.0</ele>
      </trkpt>
      <trkpt lat="44.65711788274348" lon="5.793806165456772">
        <time>2022-12-20T11:47:14+00:00</time>
        <ele>2000.0</ele>
      </trkpt>
      <trkpt lat="44.65715719386935" lon="5.793754030019045">
        <time>2022-12-20T11:47:43+00:00</time>
        <ele>2004.0</ele>
      </trkpt>
      <trkpt lat="44.65725274756551" lon="5.793770710006356">
        <time>2022-12-20T11:57:57+00:00</time>
        <ele>2005.0</ele>
      </trkpt>
      <trkpt lat="44.65724646113813" lon="5.793891828507185">
        <time>2022-12-20T11:58:01+00:00</time>
        <ele>1998.0</ele>
      </trkpt>
      <trkpt lat="44.65718694962561" lon="5.794021999463439">
        <time>2022-12-20T11:58:06+00:00</time>
        <ele>1985.0</ele>
      </trkpt>
      <trkpt lat="44.65714587830007" lon="5.794083438813686">
        <time>2022-12-20T11:58:10+00:00</time>
        <ele>1978.0</ele>
      </trkpt>
      <trkpt lat="44.657127941027284" lon="5.79411881044507">
        <time>2022-12-20T11:58:13+00:00</time>
        <ele>1975.0</ele>
      </trkpt>
      <trkpt lat="44.65715174563229" lon="5.79414420761168">
        <time>2022-12-20T11:58:17+00:00</time>
        <ele>1973.0</ele>
      </trkpt>
      <trkpt lat="44.65719893574715" lon="5.794149739667773">
        <time>2022-12-20T11:58:24+00:00</time>
        <ele>1973.0</ele>
      </trkpt>
      <trkpt lat="44.65725685469806" lon="5.794213945046067">
        <time>2022-12-20T11:58:34+00:00</time>
        <ele>1969.0</ele>
      </trkpt>
      <trkpt lat="44.65731343254447" lon="5.794288963079453">
        <time>2022-12-20T11:58:40+00:00</time>
        <ele>1964.0</ele>
      </trkpt>
      <trkpt lat="44.657404627650976" lon="5.794431371614337">
        <time>2022-12-20T11:58:46+00:00</time>
        <ele>1957.0</ele>
      </trkpt>
      <trkpt lat="44.6574292704463" lon="5.794492810964584">
        <time>2022-12-20T11:58:48+00:00</time>
        <ele>1954.0</ele>
      </trkpt>
      <trkpt lat="44.65744963847101" lon="5.794546036049724">
        <time>2022-12-20T11:58:50+00:00</time>
        <ele>1952.0</ele>
      </trkpt>
      <trkpt lat="44.6574638877064" lon="5.794622646644712">
        <time>2022-12-20T11:58:54+00:00</time>
        <ele>1948.0</ele>
      </trkpt>
      <trkpt lat="44.65749364346266" lon="5.794655503705144">
        <time>2022-12-20T11:58:59+00:00</time>
        <ele>1948.0</ele>
      </trkpt>
      <trkpt lat="44.65749179944396" lon="5.794662125408649">
        <time>2022-12-20T11:59:02+00:00</time>
        <ele>1948.0</ele>
      </trkpt>
      <trkpt lat="44.6575053781271" lon="5.794885251671076">
        <time>2022-12-20T11:59:10+00:00</time>
        <ele>1940.0</ele>
      </trkpt>
      <trkpt lat="44.65750118717551" lon="5.794936465099454">
        <time>2022-12-20T11:59:13+00:00</time>
        <ele>1938.0</ele>
      </trkpt>
      <trkpt lat="44.657484171912074" lon="5.794988935813308">
        <time>2022-12-20T11:59:17+00:00</time>
        <ele>1935.0</ele>
      </trkpt>
      <trkpt lat="44.65747805312276" lon="5.795028582215309">
        <time>2022-12-20T11:59:20+00:00</time>
        <ele>1933.0</ele>
      </trkpt>
      <trkpt lat="44.65746824629605" lon="5.795058589428663">
        <time>2022-12-20T11:59:22+00:00</time>
        <ele>1931.0</ele>
      </trkpt>
      <trkpt lat="44.657464139163494" lon="5.795104522258043">
        <time>2022-12-20T11:59:28+00:00</time>
        <ele>1929.0</ele>
      </trkpt>
      <trkpt lat="44.657450057566166" lon="5.795150119811297">
        <time>2022-12-20T11:59:32+00:00</time>
        <ele>1927.0</ele>
      </trkpt>
      <trkpt lat="44.65743522159755" lon="5.795156322419643">
        <time>2022-12-20T11:59:39+00:00</time>
        <ele>1926.0</ele>
      </trkpt>
      <trkpt lat="44.6573930606246" lon="5.795110557228327">
        <time>2022-12-20T11:59:56+00:00</time>
        <ele>1925.0</ele>
      </trkpt>
      <trkpt lat="44.65736967511475" lon="5.795117011293769">
        <time>2022-12-20T11:59:59+00:00</time>
        <ele>1924.0</ele>
      </trkpt>
      <trkpt lat="44.65731971897185" lon="5.795090859755874">
        <time>2022-12-20T12:00:03+00:00</time>
        <ele>1921.0</ele>
      </trkpt>
      <trkpt lat="44.657284431159496" lon="5.795062445104122">
        <time>2022-12-20T12:00:08+00:00</time>
        <ele>1919.0</ele>
      </trkpt>
      <trkpt lat="44.65726708061993" lon="5.795018607750535">
        <time>2022-12-20T12:00:12+00:00</time>
        <ele>1919.0</ele>
      </trkpt>
      <trkpt lat="44.65712324716151" lon="5.795000586658716">
        <time>2022-12-20T12:09:25+00:00</time>
        <ele>1911.0</ele>
      </trkpt>
      <trkpt lat="44.657072369009256" lon="5.795326558873057">
        <time>2022-12-20T12:09:33+00:00</time>
        <ele>1902.0</ele>
      </trkpt>
      <trkpt lat="44.65706432238221" lon="5.795387411490083">
        <time>2022-12-20T12:09:34+00:00</time>
        <ele>1900.0</ele>
      </trkpt>
      <trkpt lat="44.65701436623931" lon="5.795602910220623">
        <time>2022-12-20T12:09:38+00:00</time>
        <ele>1891.0</ele>
      </trkpt>
      <trkpt lat="44.656968768686056" lon="5.795719753950834">
        <time>2022-12-20T12:09:41+00:00</time>
        <ele>1885.0</ele>
      </trkpt>
      <trkpt lat="44.656944712623954" lon="5.795773649588227">
        <time>2022-12-20T12:09:44+00:00</time>
        <ele>1882.0</ele>
      </trkpt>
      <trkpt lat="44.656939348205924" lon="5.795811703428626">
        <time>2022-12-20T12:09:48+00:00</time>
        <ele>1880.0</ele>
      </trkpt>
      <trkpt lat="44.65693859383464" lon="5.795828718692064">
        <time>2022-12-20T12:09:55+00:00</time>
        <ele>1880.0</ele>
      </trkpt>
      <trkpt lat="44.65693021193147" lon="5.795815391466022">
        <time>2022-12-20T12:10:08+00:00</time>
        <ele>1880.0</ele>
      </trkpt>
      <trkpt lat="44.65679098851979" lon="5.795708941295743">
        <time>2022-12-20T12:10:15+00:00</time>
        <ele>1878.0</ele>
      </trkpt>
      <trkpt lat="44.6567194070667" lon="5.795809524133802">
        <time>2022-12-20T12:10:22+00:00</time>
        <ele>1872.0</ele>
      </trkpt>
      <trkpt lat="44.65663374401629" lon="5.795891163870692">
        <time>2022-12-20T12:10:28+00:00</time>
        <ele>1865.0</ele>
      </trkpt>
      <trkpt lat="44.656595941632986" lon="5.796030471101403">
        <time>2022-12-20T12:10:33+00:00</time>
        <ele>1859.0</ele>
      </trkpt>
      <trkpt lat="44.65659418143332" lon="5.796211855486035">
        <time>2022-12-20T12:10:37+00:00</time>
        <ele>1848.0</ele>
      </trkpt>
      <trkpt lat="44.65658965520561" lon="5.796221662312746">
        <time>2022-12-20T12:10:38+00:00</time>
        <ele>1848.0</ele>
      </trkpt>
      <trkpt lat="44.6565814409405" lon="5.796247310936451">
        <time>2022-12-20T12:10:39+00:00</time>
        <ele>1846.0</ele>
      </trkpt>
      <trkpt lat="44.65650323778391" lon="5.796176986768842">
        <time>2022-12-20T12:10:43+00:00</time>
        <ele>1848.0</ele>
      </trkpt>
      <trkpt lat="44.65644414536655" lon="5.796171789988875">
        <time>2022-12-20T12:10:55+00:00</time>
        <ele>1846.0</ele>
      </trkpt>
      <trkpt lat="44.656380359083414" lon="5.796228619292378">
        <time>2022-12-20T12:10:59+00:00</time>
        <ele>1842.0</ele>
      </trkpt>
      <trkpt lat="44.65637532994151" lon="5.796233732253313">
        <time>2022-12-20T12:11:05+00:00</time>
        <ele>1842.0</ele>
      </trkpt>
      <trkpt lat="44.656375581398606" lon="5.796237839385867">
        <time>2022-12-20T12:11:07+00:00</time>
        <ele>1842.0</ele>
      </trkpt>
      <trkpt lat="44.65637683868408" lon="5.796279665082693">
        <time>2022-12-20T12:11:23+00:00</time>
        <ele>1840.0</ele>
      </trkpt>
      <trkpt lat="44.65646266937256" lon="5.796537408605218">
        <time>2022-12-20T12:11:29+00:00</time>
        <ele>1830.0</ele>
      </trkpt>
      <trkpt lat="44.65648412704468" lon="5.796543527394533">
        <time>2022-12-20T12:11:33+00:00</time>
        <ele>1829.0</ele>
      </trkpt>
      <trkpt lat="44.65649024583399" lon="5.796552496030927">
        <time>2022-12-20T12:11:39+00:00</time>
        <ele>1829.0</ele>
      </trkpt>
      <trkpt lat="44.656403912231326" lon="5.796677218750119">
        <time>2022-12-20T12:11:46+00:00</time>
        <ele>1827.0</ele>
      </trkpt>
      <trkpt lat="44.65638320893049" lon="5.796688366681337">
        <time>2022-12-20T12:11:47+00:00</time>
        <ele>1827.0</ele>
      </trkpt>
      <trkpt lat="44.656350184232" lon="5.796698424965143">
        <time>2022-12-20T12:11:49+00:00</time>
        <ele>1828.0</ele>
      </trkpt>
      <trkpt lat="44.6563086938113" lon="5.796681242063642">
        <time>2022-12-20T12:11:52+00:00</time>
        <ele>1831.0</ele>
      </trkpt>
      <trkpt lat="44.65634104795754" lon="5.796791044995189">
        <time>2022-12-20T12:12:07+00:00</time>
        <ele>1828.0</ele>
      </trkpt>
      <trkpt lat="44.65633920393884" lon="5.796876708045602">
        <time>2022-12-20T12:12:14+00:00</time>
        <ele>1827.0</ele>
      </trkpt>
      <trkpt lat="44.65633191168308" lon="5.796894729137421">
        <time>2022-12-20T12:12:21+00:00</time>
        <ele>1827.0</ele>
      </trkpt>
      <trkpt lat="44.65632948093116" lon="5.796907218173146">
        <time>2022-12-20T12:12:24+00:00</time>
        <ele>1827.0</ele>
      </trkpt>
      <trkpt lat="44.656386813148856" lon="5.797011740505695">
        <time>2022-12-20T12:12:28+00:00</time>
        <ele>1823.0</ele>
      </trkpt>
      <trkpt lat="44.65648144483566" lon="5.797135960310698">
        <time>2022-12-20T12:12:36+00:00</time>
        <ele>1814.0</ele>
      </trkpt>
      <trkpt lat="44.65647356584668" lon="5.79715515486896">
        <time>2022-12-20T12:12:43+00:00</time>
        <ele>1815.0</ele>
      </trkpt>
      <trkpt lat="44.65645361691713" lon="5.797172421589494">
        <time>2022-12-20T12:12:46+00:00</time>
        <ele>1815.0</ele>
      </trkpt>
      <trkpt lat="44.65641765855253" lon="5.797204021364451">
        <time>2022-12-20T12:12:53+00:00</time>
        <ele>1817.0</ele>
      </trkpt>
      <trkpt lat="44.6564863063395" lon="5.797257078811526">
        <time>2022-12-20T12:12:58+00:00</time>
        <ele>1812.0</ele>
      </trkpt>
      <trkpt lat="44.656503573060036" lon="5.797310722991824">
        <time>2022-12-20T12:13:03+00:00</time>
        <ele>1809.0</ele>
      </trkpt>
      <trkpt lat="44.65659610927105" lon="5.7975606713444">
        <time>2022-12-20T12:13:09+00:00</time>
        <ele>1801.0</ele>
      </trkpt>
      <trkpt lat="44.65664212591946" lon="5.797683214768767">
        <time>2022-12-20T12:13:11+00:00</time>
        <ele>1798.0</ele>
      </trkpt>
      <trkpt lat="44.65668881312013" lon="5.797818498685956">
        <time>2022-12-20T12:13:16+00:00</time>
        <ele>1795.0</ele>
      </trkpt>
      <trkpt lat="44.65669132769108" lon="5.797817995771766">
        <time>2022-12-20T12:13:39+00:00</time>
        <ele>1794.0</ele>
      </trkpt>
      <trkpt lat="44.6566522680223" lon="5.798038691282272">
        <time>2022-12-20T12:13:45+00:00</time>
        <ele>1790.0</ele>
      </trkpt>
      <trkpt lat="44.65668696910143" lon="5.79825452528894">
        <time>2022-12-20T12:13:53+00:00</time>
        <ele>1785.0</ele>
      </trkpt>
      <trkpt lat="44.65671521611512" lon="5.798283191397786">
        <time>2022-12-20T12:13:55+00:00</time>
        <ele>1785.0</ele>
      </trkpt>
      <trkpt lat="44.65680196881294" lon="5.798428449779749">
        <time>2022-12-20T12:14:03+00:00</time>
        <ele>1784.0</ele>
      </trkpt>
      <trkpt lat="44.65682887472212" lon="5.79847295768559">
        <time>2022-12-20T12:14:09+00:00</time>
        <ele>1784.0</ele>
      </trkpt>
      <trkpt lat="44.65681194327772" lon="5.798603463917971">
        <time>2022-12-20T12:14:13+00:00</time>
        <ele>1781.0</ele>
      </trkpt>
      <trkpt lat="44.65690833516419" lon="5.798836061730981">
        <time>2022-12-20T12:14:22+00:00</time>
        <ele>1779.0</ele>
      </trkpt>
      <trkpt lat="44.65691135264933" lon="5.798837905749679">
        <time>2022-12-20T12:14:33+00:00</time>
        <ele>1779.0</ele>
      </trkpt>
      <trkpt lat="44.656913951039314" lon="5.79883941449225">
        <time>2022-12-20T12:14:35+00:00</time>
        <ele>1779.0</ele>
      </trkpt>
      <trkpt lat="44.65702283196151" lon="5.798808485269547">
        <time>2022-12-20T12:14:44+00:00</time>
        <ele>1780.0</ele>
      </trkpt>
      <trkpt lat="44.657052336260676" lon="5.798786859959364">
        <time>2022-12-20T12:14:46+00:00</time>
        <ele>1780.0</ele>
      </trkpt>
      <trkpt lat="44.657104052603245" lon="5.7988091558218">
        <time>2022-12-20T12:14:51+00:00</time>
        <ele>1780.0</ele>
      </trkpt>
      <trkpt lat="44.65710489079356" lon="5.798919377848506">
        <time>2022-12-20T12:14:55+00:00</time>
        <ele>1777.0</ele>
      </trkpt>
      <trkpt lat="44.657097179442644" lon="5.798994563519955">
        <time>2022-12-20T12:15:07+00:00</time>
        <ele>1775.0</ele>
      </trkpt>
      <trkpt lat="44.65717404149473" lon="5.798978386446834">
        <time>2022-12-20T12:23:23+00:00</time>
        <ele>1777.0</ele>
      </trkpt>
      <trkpt lat="44.657182674854994" lon="5.799021804705262">
        <time>2022-12-20T12:23:58+00:00</time>
        <ele>1776.0</ele>
      </trkpt>
      <trkpt lat="44.65716817416251" lon="5.799128590151668">
        <time>2022-12-20T12:24:24+00:00</time>
        <ele>1774.0</ele>
      </trkpt>
      <trkpt lat="44.65721804648638" lon="5.799258928745985">
        <time>2022-12-20T12:24:40+00:00</time>
        <ele>1773.0</ele>
      </trkpt>
      <trkpt lat="44.657235983759165" lon="5.799292623996735">
        <time>2022-12-20T12:24:43+00:00</time>
        <ele>1773.0</ele>
      </trkpt>
      <trkpt lat="44.65724176727235" lon="5.799443498253822">
        <time>2022-12-20T12:24:59+00:00</time>
        <ele>1773.0</ele>
      </trkpt>
      <trkpt lat="44.65733489021659" lon="5.799541315063834">
        <time>2022-12-20T12:25:13+00:00</time>
        <ele>1776.0</ele>
      </trkpt>
      <trkpt lat="44.65737344697118" lon="5.799586242064834">
        <time>2022-12-20T12:25:18+00:00</time>
        <ele>1777.0</ele>
      </trkpt>
      <trkpt lat="44.65745894238353" lon="5.799785144627094">
        <time>2022-12-20T12:25:33+00:00</time>
        <ele>1778.0</ele>
      </trkpt>
      <trkpt lat="44.657462714239955" lon="5.799799645319581">
        <time>2022-12-20T12:25:34+00:00</time>
        <ele>1778.0</ele>
      </trkpt>
      <trkpt lat="44.65747386217117" lon="5.799965942278504">
        <time>2022-12-20T12:25:49+00:00</time>
        <ele>1777.0</ele>
      </trkpt>
      <trkpt lat="44.657475454732776" lon="5.800013216212392">
        <time>2022-12-20T12:25:52+00:00</time>
        <ele>1777.0</ele>
      </trkpt>
      <trkpt lat="44.65741988271475" lon="5.800170795992017">
        <time>2022-12-20T12:26:05+00:00</time>
        <ele>1773.0</ele>
      </trkpt>
      <trkpt lat="44.65753957629204" lon="5.800296775996685">
        <time>2022-12-20T12:26:22+00:00</time>
        <ele>1776.0</ele>
      </trkpt>
      <trkpt lat="44.65761191211641" lon="5.800407584756613">
        <time>2022-12-20T12:26:34+00:00</time>
        <ele>1777.0</ele>
      </trkpt>
      <trkpt lat="44.65763051994145" lon="5.800417810678482">
        <time>2022-12-20T12:26:36+00:00</time>
        <ele>1778.0</ele>
      </trkpt>
      <trkpt lat="44.657701682299376" lon="5.800509173423052">
        <time>2022-12-20T12:26:50+00:00</time>
        <ele>1780.0</ele>
      </trkpt>
      <trkpt lat="44.65776085853577" lon="5.80063171684742">
        <time>2022-12-20T12:27:06+00:00</time>
        <ele>1782.0</ele>
      </trkpt>
      <trkpt lat="44.65777267701924" lon="5.800825254991651">
        <time>2022-12-20T12:27:21+00:00</time>
        <ele>1785.0</ele>
      </trkpt>
      <trkpt lat="44.65782699175179" lon="5.800923323258758">
        <time>2022-12-20T12:27:35+00:00</time>
        <ele>1787.0</ele>
      </trkpt>
      <trkpt lat="44.65791315771639" lon="5.800909409299493">
        <time>2022-12-20T12:27:49+00:00</time>
        <ele>1788.0</ele>
      </trkpt>
      <trkpt lat="44.65818230062723" lon="5.801017703488469">
        <time>2022-12-20T12:27:58+00:00</time>
        <ele>1779.0</ele>
      </trkpt>
      <trkpt lat="44.65821700170636" lon="5.801052488386631">
        <time>2022-12-20T12:28:04+00:00</time>
        <ele>1778.0</ele>
      </trkpt>
      <trkpt lat="44.65828145854175" lon="5.801120214164257">
        <time>2022-12-20T12:28:13+00:00</time>
        <ele>1775.0</ele>
      </trkpt>
      <trkpt lat="44.65827458538115" lon="5.801124237477779">
        <time>2022-12-20T12:28:14+00:00</time>
        <ele>1775.0</ele>
      </trkpt>
      <trkpt lat="44.65815983712673" lon="5.801222557201982">
        <time>2022-12-20T12:28:19+00:00</time>
        <ele>1775.0</ele>
      </trkpt>
      <trkpt lat="44.65801072306931" lon="5.801468230783939">
        <time>2022-12-20T12:28:26+00:00</time>
        <ele>1775.0</ele>
      </trkpt>
      <trkpt lat="44.658016338944435" lon="5.801481558009982">
        <time>2022-12-20T12:28:28+00:00</time>
        <ele>1774.0</ele>
      </trkpt>
      <trkpt lat="44.65802279300988" lon="5.801557581871748">
        <time>2022-12-20T12:28:31+00:00</time>
        <ele>1772.0</ele>
      </trkpt>
      <trkpt lat="44.658033438026905" lon="5.801733685657382">
        <time>2022-12-20T12:28:35+00:00</time>
        <ele>1767.0</ele>
      </trkpt>
      <trkpt lat="44.65802505612373" lon="5.801896713674069">
        <time>2022-12-20T12:28:41+00:00</time>
        <ele>1762.0</ele>
      </trkpt>
      <trkpt lat="44.65805372223258" lon="5.801900653168559">
        <time>2022-12-20T12:28:50+00:00</time>
        <ele>1761.0</ele>
      </trkpt>
      <trkpt lat="44.658106779679656" lon="5.801865868270397">
        <time>2022-12-20T12:28:53+00:00</time>
        <ele>1761.0</ele>
      </trkpt>
      <trkpt lat="44.658275339752436" lon="5.801757490262389">
        <time>2022-12-20T12:29:01+00:00</time>
        <ele>1760.0</ele>
      </trkpt>
      <trkpt lat="44.658287074416876" lon="5.801762770861387">
        <time>2022-12-20T12:29:02+00:00</time>
        <ele>1759.0</ele>
      </trkpt>
      <trkpt lat="44.65834641829133" lon="5.801804680377245">
        <time>2022-12-20T12:29:13+00:00</time>
        <ele>1756.0</ele>
      </trkpt>
      <trkpt lat="44.658342227339745" lon="5.801879782229662">
        <time>2022-12-20T12:29:16+00:00</time>
        <ele>1754.0</ele>
      </trkpt>
      <trkpt lat="44.65834013186395" lon="5.802084635943174">
        <time>2022-12-20T12:29:21+00:00</time>
        <ele>1749.0</ele>
      </trkpt>
      <trkpt lat="44.65834314934909" lon="5.802266858518124">
        <time>2022-12-20T12:29:27+00:00</time>
        <ele>1745.0</ele>
      </trkpt>
      <trkpt lat="44.65835228562355" lon="5.802248502150178">
        <time>2022-12-20T12:29:30+00:00</time>
        <ele>1745.0</ele>
      </trkpt>
      <trkpt lat="44.65835873968899" lon="5.802214806899428">
        <time>2022-12-20T12:29:32+00:00</time>
        <ele>1745.0</ele>
      </trkpt>
      <trkpt lat="44.658419424667954" lon="5.80213082022965">
        <time>2022-12-20T12:29:50+00:00</time>
        <ele>1745.0</ele>
      </trkpt>
      <trkpt lat="44.65842202305794" lon="5.802171807736158">
        <time>2022-12-20T12:29:57+00:00</time>
        <ele>1744.0</ele>
      </trkpt>
      <trkpt lat="44.658427219837904" lon="5.802221260964871">
        <time>2022-12-20T12:30:00+00:00</time>
        <ele>1743.0</ele>
      </trkpt>
      <trkpt lat="44.658439541235566" lon="5.802328968420625">
        <time>2022-12-20T12:30:04+00:00</time>
        <ele>1740.0</ele>
      </trkpt>
      <trkpt lat="44.65844314545393" lon="5.802433239296079">
        <time>2022-12-20T12:30:12+00:00</time>
        <ele>1738.0</ele>
      </trkpt>
      <trkpt lat="44.658511374145746" lon="5.802358891814947">
        <time>2022-12-20T12:30:17+00:00</time>
        <ele>1737.0</ele>
      </trkpt>
      <trkpt lat="44.65858496725559" lon="5.80231262370944">
        <time>2022-12-20T12:30:25+00:00</time>
        <ele>1736.0</ele>
      </trkpt>
      <trkpt lat="44.658607514575124" lon="5.802353527396917">
        <time>2022-12-20T12:30:31+00:00</time>
        <ele>1734.0</ele>
      </trkpt>
      <trkpt lat="44.6586587280035" lon="5.802476573735476">
        <time>2022-12-20T12:30:40+00:00</time>
        <ele>1730.0</ele>
      </trkpt>
      <trkpt lat="44.65867540799081" lon="5.802600961178541">
        <time>2022-12-20T12:30:47+00:00</time>
        <ele>1728.0</ele>
      </trkpt>
      <trkpt lat="44.65878730639815" lon="5.802932884544134">
        <time>2022-12-20T12:30:55+00:00</time>
        <ele>1721.0</ele>
      </trkpt>
      <trkpt lat="44.65877062641084" lon="5.803026929497719">
        <time>2022-12-20T12:30:58+00:00</time>
        <ele>1720.0</ele>
      </trkpt>
      <trkpt lat="44.65876702219248" lon="5.803088955581188">
        <time>2022-12-20T12:31:04+00:00</time>
        <ele>1719.0</ele>
      </trkpt>
      <trkpt lat="44.658746821805835" lon="5.803224490955472">
        <time>2022-12-20T12:31:08+00:00</time>
        <ele>1716.0</ele>
      </trkpt>
      <trkpt lat="44.65870357118547" lon="5.803515091538429">
        <time>2022-12-20T12:31:16+00:00</time>
        <ele>1708.0</ele>
      </trkpt>
      <trkpt lat="44.65869879350066" lon="5.803542165085673">
        <time>2022-12-20T12:31:18+00:00</time>
        <ele>1707.0</ele>
      </trkpt>
      <trkpt lat="44.65871639549732" lon="5.803612070158124">
        <time>2022-12-20T12:31:21+00:00</time>
        <ele>1704.0</ele>
      </trkpt>
      <trkpt lat="44.65869971551001" lon="5.803693290799856">
        <time>2022-12-20T12:31:29+00:00</time>
        <ele>1702.0</ele>
      </trkpt>
      <trkpt lat="44.65861698612571" lon="5.803827233612537">
        <time>2022-12-20T12:31:36+00:00</time>
        <ele>1701.0</ele>
      </trkpt>
      <trkpt lat="44.65862260200083" lon="5.803856737911701">
        <time>2022-12-20T12:31:40+00:00</time>
        <ele>1700.0</ele>
      </trkpt>
      <trkpt lat="44.65850533917546" lon="5.804041223600507">
        <time>2022-12-20T12:31:48+00:00</time>
        <ele>1697.0</ele>
      </trkpt>
      <trkpt lat="44.658386735245585" lon="5.804210873320699">
        <time>2022-12-20T12:31:54+00:00</time>
        <ele>1696.0</ele>
      </trkpt>
      <trkpt lat="44.658386735245585" lon="5.804228559136391">
        <time>2022-12-20T12:32:01+00:00</time>
        <ele>1696.0</ele>
      </trkpt>
      <trkpt lat="44.65838807635009" lon="5.804219841957092">
        <time>2022-12-20T12:32:27+00:00</time>
        <ele>1696.0</ele>
      </trkpt>
      <trkpt lat="44.65842814184725" lon="5.804212801158428">
        <time>2022-12-20T12:32:46+00:00</time>
        <ele>1695.0</ele>
      </trkpt>
      <trkpt lat="44.65845940634608" lon="5.804242892190814">
        <time>2022-12-20T12:32:49+00:00</time>
        <ele>1693.0</ele>
      </trkpt>
      <trkpt lat="44.65843694284558" lon="5.804348839446902">
        <time>2022-12-20T12:32:54+00:00</time>
        <ele>1692.0</ele>
      </trkpt>
      <trkpt lat="44.65839486569166" lon="5.804392090067267">
        <time>2022-12-20T12:32:58+00:00</time>
        <ele>1693.0</ele>
      </trkpt>
      <trkpt lat="44.658347591757774" lon="5.804433077573776">
        <time>2022-12-20T12:33:12+00:00</time>
        <ele>1694.0</ele>
      </trkpt>
      <trkpt lat="44.65837332420051" lon="5.804481357336044">
        <time>2022-12-20T12:33:23+00:00</time>
        <ele>1693.0</ele>
      </trkpt>
      <trkpt lat="44.658404253423214" lon="5.804548831656575">
        <time>2022-12-20T12:33:27+00:00</time>
        <ele>1691.0</ele>
      </trkpt>
      <trkpt lat="44.65853014960885" lon="5.804648492485285">
        <time>2022-12-20T12:33:37+00:00</time>
        <ele>1685.0</ele>
      </trkpt>
      <trkpt lat="44.65854238718748" lon="5.80466391518712">
        <time>2022-12-20T12:33:42+00:00</time>
        <ele>1684.0</ele>
      </trkpt>
      <trkpt lat="44.658618830144405" lon="5.80478847026825">
        <time>2022-12-20T12:33:46+00:00</time>
        <ele>1679.0</ele>
      </trkpt>
      <trkpt lat="44.658639281988144" lon="5.804802551865578">
        <time>2022-12-20T12:33:56+00:00</time>
        <ele>1678.0</ele>
      </trkpt>
      <trkpt lat="44.65869317762554" lon="5.804683528840542">
        <time>2022-12-20T12:34:09+00:00</time>
        <ele>1679.0</ele>
      </trkpt>
      <trkpt lat="44.65873206965625" lon="5.804637679830194">
        <time>2022-12-20T12:34:27+00:00</time>
        <ele>1679.0</ele>
      </trkpt>
      <trkpt lat="44.65874061919749" lon="5.804683528840542">
        <time>2022-12-20T12:34:31+00:00</time>
        <ele>1678.0</ele>
      </trkpt>
      <trkpt lat="44.65875377878547" lon="5.804732982069254">
        <time>2022-12-20T12:34:36+00:00</time>
        <ele>1678.0</ele>
      </trkpt>
      <trkpt lat="44.65883902274072" lon="5.804855860769749">
        <time>2022-12-20T12:34:52+00:00</time>
        <ele>1676.0</ele>
      </trkpt>
      <trkpt lat="44.6589179802686" lon="5.804841443896294">
        <time>2022-12-20T12:35:06+00:00</time>
        <ele>1678.0</ele>
      </trkpt>
      <trkpt lat="44.6589280385524" lon="5.804841360077262">
        <time>2022-12-20T12:35:07+00:00</time>
        <ele>1679.0</ele>
      </trkpt>
      <trkpt lat="44.65897615067661" lon="5.804849155247212">
        <time>2022-12-20T12:35:11+00:00</time>
        <ele>1680.0</ele>
      </trkpt>
      <trkpt lat="44.659054186195135" lon="5.804946050047875">
        <time>2022-12-20T12:35:25+00:00</time>
        <ele>1681.0</ele>
      </trkpt>
      <trkpt lat="44.65920925140381" lon="5.804953007027507">
        <time>2022-12-20T12:35:39+00:00</time>
        <ele>1683.0</ele>
      </trkpt>
      <trkpt lat="44.65926582925022" lon="5.804953342303634">
        <time>2022-12-20T12:35:44+00:00</time>
        <ele>1684.0</ele>
      </trkpt>
      <trkpt lat="44.65942483395338" lon="5.804970692843199">
        <time>2022-12-20T12:35:59+00:00</time>
        <ele>1684.0</ele>
      </trkpt>
      <trkpt lat="44.659567745402455" lon="5.805002376437187">
        <time>2022-12-20T12:36:12+00:00</time>
        <ele>1684.0</ele>
      </trkpt>
      <trkpt lat="44.659722475335" lon="5.805055014789105">
        <time>2022-12-20T12:36:25+00:00</time>
        <ele>1684.0</ele>
      </trkpt>
      <trkpt lat="44.65977754443884" lon="5.805073538795114">
        <time>2022-12-20T12:36:30+00:00</time>
        <ele>1684.0</ele>
      </trkpt>
      <trkpt lat="44.65991182252765" lon="5.805114023387432">
        <time>2022-12-20T12:36:43+00:00</time>
        <ele>1684.0</ele>
      </trkpt>
      <trkpt lat="44.65997292660177" lon="5.805124249309301">
        <time>2022-12-20T12:36:49+00:00</time>
        <ele>1684.0</ele>
      </trkpt>
      <trkpt lat="44.66012220829725" lon="5.805184347555041">
        <time>2022-12-20T12:37:03+00:00</time>
        <ele>1684.0</ele>
      </trkpt>
      <trkpt lat="44.660217175260186" lon="5.805266909301281">
        <time>2022-12-20T12:37:16+00:00</time>
        <ele>1683.0</ele>
      </trkpt>
      <trkpt lat="44.66034533455968" lon="5.805288534611464">
        <time>2022-12-20T12:37:34+00:00</time>
        <ele>1684.0</ele>
      </trkpt>
      <trkpt lat="44.66035262681544" lon="5.805282751098275">
        <time>2022-12-20T12:37:35+00:00</time>
        <ele>1684.0</ele>
      </trkpt>
      <trkpt lat="44.6604011580348" lon="5.805288618430495">
        <time>2022-12-20T12:37:40+00:00</time>
        <ele>1684.0</ele>
      </trkpt>
      <trkpt lat="44.660532334819436" lon="5.805365815758705">
        <time>2022-12-20T12:37:55+00:00</time>
        <ele>1684.0</ele>
      </trkpt>
      <trkpt lat="44.66065278276801" lon="5.805452149361372">
        <time>2022-12-20T12:38:09+00:00</time>
        <ele>1684.0</ele>
      </trkpt>
      <trkpt lat="44.660787312313914" lon="5.805486682802439">
        <time>2022-12-20T12:38:23+00:00</time>
        <ele>1686.0</ele>
      </trkpt>
      <trkpt lat="44.66083123348653" lon="5.805514426901937">
        <time>2022-12-20T12:38:29+00:00</time>
        <ele>1686.0</ele>
      </trkpt>
      <trkpt lat="44.660956878215075" lon="5.805593300610781">
        <time>2022-12-20T12:38:42+00:00</time>
        <ele>1687.0</ele>
      </trkpt>
      <trkpt lat="44.661077661439776" lon="5.805689273402095">
        <time>2022-12-20T12:38:55+00:00</time>
        <ele>1687.0</ele>
      </trkpt>
      <trkpt lat="44.661170868203044" lon="5.805736798793078">
        <time>2022-12-20T12:39:05+00:00</time>
        <ele>1687.0</ele>
      </trkpt>
      <trkpt lat="44.66128997504711" lon="5.805809302255511">
        <time>2022-12-20T12:39:18+00:00</time>
        <ele>1688.0</ele>
      </trkpt>
      <trkpt lat="44.66137094423175" lon="5.805840818211436">
        <time>2022-12-20T12:39:27+00:00</time>
        <ele>1689.0</ele>
      </trkpt>
      <trkpt lat="44.66139022260904" lon="5.805852133780718">
        <time>2022-12-20T12:39:29+00:00</time>
        <ele>1689.0</ele>
      </trkpt>
      <trkpt lat="44.66152927838266" lon="5.805867472663522">
        <time>2022-12-20T12:39:43+00:00</time>
        <ele>1691.0</ele>
      </trkpt>
      <trkpt lat="44.66157152317464" lon="5.80583612434566">
        <time>2022-12-20T12:41:43+00:00</time>
        <ele>1692.0</ele>
      </trkpt>
      <trkpt lat="44.661667831242085" lon="5.805818689987063">
        <time>2022-12-20T12:42:07+00:00</time>
        <ele>1693.0</ele>
      </trkpt>
      <trkpt lat="44.66179481707513" lon="5.805758256465197">
        <time>2022-12-20T12:42:27+00:00</time>
        <ele>1696.0</ele>
      </trkpt>
      <trkpt lat="44.66184929944575" lon="5.805767811834812">
        <time>2022-12-20T12:42:43+00:00</time>
        <ele>1696.0</ele>
      </trkpt>
      <trkpt lat="44.66185047291219" lon="5.805787341669202">
        <time>2022-12-20T12:43:16+00:00</time>
        <ele>1696.0</ele>
      </trkpt>
      <trkpt lat="44.66184703633189" lon="5.805759262293577">
        <time>2022-12-20T12:43:32+00:00</time>
        <ele>1696.0</ele>
      </trkpt>
      <trkpt lat="44.661936638876796" lon="5.805779127404094">
        <time>2022-12-20T12:43:56+00:00</time>
        <ele>1697.0</ele>
      </trkpt>
      <trkpt lat="44.66192808933556" lon="5.805689608678222">
        <time>2022-12-20T12:44:13+00:00</time>
        <ele>1700.0</ele>
      </trkpt>
      <trkpt lat="44.66188550926745" lon="5.805547451600432">
        <time>2022-12-20T12:44:30+00:00</time>
        <ele>1705.0</ele>
      </trkpt>
      <trkpt lat="44.661944936960936" lon="5.805553151294589">
        <time>2022-12-20T12:44:46+00:00</time>
        <ele>1706.0</ele>
      </trkpt>
      <trkpt lat="44.66196522116661" lon="5.805528424680233">
        <time>2022-12-20T12:45:05+00:00</time>
        <ele>1708.0</ele>
      </trkpt>
      <trkpt lat="44.66198181733489" lon="5.805450221523643">
        <time>2022-12-20T12:45:26+00:00</time>
        <ele>1711.0</ele>
      </trkpt>
      <trkpt lat="44.66196974739432" lon="5.805395068600774">
        <time>2022-12-20T12:45:45+00:00</time>
        <ele>1713.0</ele>
      </trkpt>
      <trkpt lat="44.661954157054424" lon="5.805328097194433">
        <time>2022-12-20T12:46:03+00:00</time>
        <ele>1715.0</ele>
      </trkpt>
      <trkpt lat="44.66200813651085" lon="5.805282667279244">
        <time>2022-12-20T12:46:19+00:00</time>
        <ele>1718.0</ele>
      </trkpt>
      <trkpt lat="44.66201517730951" lon="5.805211756378412">
        <time>2022-12-20T12:46:37+00:00</time>
        <ele>1721.0</ele>
      </trkpt>
      <trkpt lat="44.66191199608147" lon="5.805166661739349">
        <time>2022-12-20T12:46:57+00:00</time>
        <ele>1721.0</ele>
      </trkpt>
      <trkpt lat="44.66193839907646" lon="5.805059121921659">
        <time>2022-12-20T12:48:02+00:00</time>
        <ele>1727.0</ele>
      </trkpt>
      <trkpt lat="44.66195583343506" lon="5.805020732805133">
        <time>2022-12-20T12:48:50+00:00</time>
        <ele>1729.0</ele>
      </trkpt>
      <trkpt lat="44.662008387967944" lon="5.804977146908641">
        <time>2022-12-20T12:49:10+00:00</time>
        <ele>1732.0</ele>
      </trkpt>
      <trkpt lat="44.66210545040667" lon="5.804907493293285">
        <time>2022-12-20T12:49:31+00:00</time>
        <ele>1738.0</ele>
      </trkpt>
      <trkpt lat="44.66216655448079" lon="5.804885197430849">
        <time>2022-12-20T12:50:15+00:00</time>
        <ele>1740.0</ele>
      </trkpt>
      <trkpt lat="44.66223285533488" lon="5.804838007315993">
        <time>2022-12-20T12:50:30+00:00</time>
        <ele>1744.0</ele>
      </trkpt>
      <trkpt lat="44.66228147037327" lon="5.804786877706647">
        <time>2022-12-20T12:50:49+00:00</time>
        <ele>1748.0</ele>
      </trkpt>
      <trkpt lat="44.662337210029364" lon="5.8048842754215">
        <time>2022-12-20T12:51:06+00:00</time>
        <ele>1744.0</ele>
      </trkpt>
      <trkpt lat="44.66242438182235" lon="5.804845215752721">
        <time>2022-12-20T12:51:29+00:00</time>
        <ele>1750.0</ele>
      </trkpt>
      <trkpt lat="44.66249839402735" lon="5.804906487464905">
        <time>2022-12-20T12:51:46+00:00</time>
        <ele>1749.0</ele>
      </trkpt>
      <trkpt lat="44.66255757026374" lon="5.804921323433518">
        <time>2022-12-20T12:52:09+00:00</time>
        <ele>1750.0</ele>
      </trkpt>
      <trkpt lat="44.662590427324176" lon="5.804871618747711">
        <time>2022-12-20T12:52:38+00:00</time>
        <ele>1753.0</ele>
      </trkpt>
      <trkpt lat="44.66260811313987" lon="5.804913276806474">
        <time>2022-12-20T12:53:09+00:00</time>
        <ele>1751.0</ele>
      </trkpt>
      <trkpt lat="44.662676928564906" lon="5.804879330098629">
        <time>2022-12-20T12:53:27+00:00</time>
        <ele>1755.0</ele>
      </trkpt>
      <trkpt lat="44.662730656564236" lon="5.804785452783108">
        <time>2022-12-20T12:53:46+00:00</time>
        <ele>1762.0</ele>
      </trkpt>
      <trkpt lat="44.66277818195522" lon="5.804712027311325">
        <time>2022-12-20T12:54:03+00:00</time>
        <ele>1767.0</ele>
      </trkpt>
      <trkpt lat="44.662817073985934" lon="5.804716050624847">
        <time>2022-12-20T12:54:21+00:00</time>
        <ele>1768.0</ele>
      </trkpt>
      <trkpt lat="44.6628759149462" lon="5.804791068658233">
        <time>2022-12-20T12:54:42+00:00</time>
        <ele>1766.0</ele>
      </trkpt>
      <trkpt lat="44.6629723906517" lon="5.804857034236193">
        <time>2022-12-20T12:55:00+00:00</time>
        <ele>1768.0</ele>
      </trkpt>
      <trkpt lat="44.66305227018893" lon="5.804967507719994">
        <time>2022-12-20T12:55:18+00:00</time>
        <ele>1768.0</ele>
      </trkpt>
      <trkpt lat="44.66310113668442" lon="5.804988043382764">
        <time>2022-12-20T12:55:29+00:00</time>
        <ele>1769.0</ele>
      </trkpt>
      <trkpt lat="44.663151763379574" lon="5.805024588480592">
        <time>2022-12-20T12:55:40+00:00</time>
        <ele>1768.0</ele>
      </trkpt>
      <trkpt lat="44.663215884938836" lon="5.805065324530006">
        <time>2022-12-20T12:55:51+00:00</time>
        <ele>1768.0</ele>
      </trkpt>
      <trkpt lat="44.66323373839259" lon="5.805059038102627">
        <time>2022-12-20T12:56:12+00:00</time>
        <ele>1769.0</ele>
      </trkpt>
      <trkpt lat="44.66326240450144" lon="5.804901961237192">
        <time>2022-12-20T12:56:29+00:00</time>
        <ele>1778.0</ele>
      </trkpt>
      <trkpt lat="44.663266595453024" lon="5.804828619584441">
        <time>2022-12-20T12:56:48+00:00</time>
        <ele>1782.0</ele>
      </trkpt>
      <trkpt lat="44.66325695626438" lon="5.804823422804475">
        <time>2022-12-20T12:57:20+00:00</time>
        <ele>1782.0</ele>
      </trkpt>
      <trkpt lat="44.66327506117523" lon="5.804750919342041">
        <time>2022-12-20T12:58:06+00:00</time>
        <ele>1786.0</ele>
      </trkpt>
      <trkpt lat="44.66334362514317" lon="5.804591495543718">
        <time>2022-12-20T12:58:26+00:00</time>
        <ele>1792.0</ele>
      </trkpt>
      <trkpt lat="44.66338503174484" lon="5.804494684562087">
        <time>2022-12-20T12:58:43+00:00</time>
        <ele>1796.0</ele>
      </trkpt>
      <trkpt lat="44.66340774670243" lon="5.804476663470268">
        <time>2022-12-20T12:58:48+00:00</time>
        <ele>1796.0</ele>
      </trkpt>
      <trkpt lat="44.663472874090075" lon="5.804354874417186">
        <time>2022-12-20T12:59:07+00:00</time>
        <ele>1798.0</ele>
      </trkpt>
      <trkpt lat="44.66348201036453" lon="5.804214980453253">
        <time>2022-12-20T12:59:24+00:00</time>
        <ele>1803.0</ele>
      </trkpt>
      <trkpt lat="44.66345753520727" lon="5.804202491417527">
        <time>2022-12-20T12:59:30+00:00</time>
        <ele>1805.0</ele>
      </trkpt>
      <trkpt lat="44.66331873089075" lon="5.804241634905338">
        <time>2022-12-20T12:59:51+00:00</time>
        <ele>1805.0</ele>
      </trkpt>
      <trkpt lat="44.663263158872724" lon="5.804253537207842">
        <time>2022-12-20T13:00:07+00:00</time>
        <ele>1806.0</ele>
      </trkpt>
      <trkpt lat="44.663263745605946" lon="5.804166616871953">
        <time>2022-12-20T13:00:27+00:00</time>
        <ele>1809.0</ele>
      </trkpt>
      <trkpt lat="44.66332065872848" lon="5.804059328511357">
        <time>2022-12-20T13:00:43+00:00</time>
        <ele>1813.0</ele>
      </trkpt>
      <trkpt lat="44.66334077529609" lon="5.803986825048924">
        <time>2022-12-20T13:00:56+00:00</time>
        <ele>1816.0</ele>
      </trkpt>
      <trkpt lat="44.66331529431045" lon="5.803973665460944">
        <time>2022-12-20T13:01:16+00:00</time>
        <ele>1817.0</ele>
      </trkpt>
      <trkpt lat="44.6633111871779" lon="5.803952710703015">
        <time>2022-12-20T13:01:37+00:00</time>
        <ele>1818.0</ele>
      </trkpt>
      <trkpt lat="44.663361394777894" lon="5.803789095953107">
        <time>2022-12-20T13:01:57+00:00</time>
        <ele>1823.0</ele>
      </trkpt>
      <trkpt lat="44.66344244778156" lon="5.803692452609539">
        <time>2022-12-20T13:02:13+00:00</time>
        <ele>1825.0</ele>
      </trkpt>
      <trkpt lat="44.66345208697021" lon="5.803580470383167">
        <time>2022-12-20T13:02:31+00:00</time>
        <ele>1829.0</ele>
      </trkpt>
      <trkpt lat="44.66347714886069" lon="5.803471338003874">
        <time>2022-12-20T13:02:50+00:00</time>
        <ele>1832.0</ele>
      </trkpt>
      <trkpt lat="44.66347371228039" lon="5.803399169817567">
        <time>2022-12-20T13:03:10+00:00</time>
        <ele>1834.0</ele>
      </trkpt>
      <trkpt lat="44.66342878527939" lon="5.80323806963861">
        <time>2022-12-20T13:03:28+00:00</time>
        <ele>1841.0</ele>
      </trkpt>
      <trkpt lat="44.66342467814684" lon="5.803111754357815">
        <time>2022-12-20T13:03:45+00:00</time>
        <ele>1845.0</ele>
      </trkpt>
      <trkpt lat="44.66345309279859" lon="5.802983175963163">
        <time>2022-12-20T13:04:02+00:00</time>
        <ele>1847.0</ele>
      </trkpt>
      <trkpt lat="44.663430377840996" lon="5.802959455177188">
        <time>2022-12-20T13:04:21+00:00</time>
        <ele>1849.0</ele>
      </trkpt>
      <trkpt lat="44.66338989324868" lon="5.802901955321431">
        <time>2022-12-20T13:04:42+00:00</time>
        <ele>1852.0</ele>
      </trkpt>
      <trkpt lat="44.66338628903031" lon="5.802795169875026">
        <time>2022-12-20T13:04:55+00:00</time>
        <ele>1856.0</ele>
      </trkpt>
      <trkpt lat="44.66339039616287" lon="5.802731635048986">
        <time>2022-12-20T13:05:09+00:00</time>
        <ele>1857.0</ele>
      </trkpt>
      <trkpt lat="44.663418056443334" lon="5.802646558731794">
        <time>2022-12-20T13:05:23+00:00</time>
        <ele>1859.0</ele>
      </trkpt>
      <trkpt lat="44.663420571014285" lon="5.802629962563515">
        <time>2022-12-20T13:06:12+00:00</time>
        <ele>1859.0</ele>
      </trkpt>
      <trkpt lat="44.66343984939158" lon="5.802509430795908">
        <time>2022-12-20T13:06:44+00:00</time>
        <ele>1863.0</ele>
      </trkpt>
      <trkpt lat="44.663439597934484" lon="5.802377499639988">
        <time>2022-12-20T13:07:02+00:00</time>
        <ele>1869.0</ele>
      </trkpt>
      <trkpt lat="44.663444040343165" lon="5.802303487434983">
        <time>2022-12-20T13:07:16+00:00</time>
        <ele>1873.0</ele>
      </trkpt>
      <trkpt lat="44.663455775007606" lon="5.802196031436324">
        <time>2022-12-20T13:07:32+00:00</time>
        <ele>1877.0</ele>
      </trkpt>
      <trkpt lat="44.66345543973148" lon="5.802099891006947">
        <time>2022-12-20T13:07:44+00:00</time>
        <ele>1881.0</ele>
      </trkpt>
      <trkpt lat="44.66353012248874" lon="5.80215085297823">
        <time>2022-12-20T13:08:05+00:00</time>
        <ele>1876.0</ele>
      </trkpt>
      <trkpt lat="44.66354445554316" lon="5.802136771380901">
        <time>2022-12-20T13:08:24+00:00</time>
        <ele>1876.0</ele>
      </trkpt>
      <trkpt lat="44.66358116827905" lon="5.80213375389576">
        <time>2022-12-20T13:08:47+00:00</time>
        <ele>1875.0</ele>
      </trkpt>
      <trkpt lat="44.663580833002925" lon="5.802093353122473">
        <time>2022-12-20T13:09:17+00:00</time>
        <ele>1877.0</ele>
      </trkpt>
      <trkpt lat="44.663536408916116" lon="5.802005510777235">
        <time>2022-12-20T13:09:32+00:00</time>
        <ele>1881.0</ele>
      </trkpt>
      <trkpt lat="44.663506569340825" lon="5.801881877705455">
        <time>2022-12-20T13:09:48+00:00</time>
        <ele>1887.0</ele>
      </trkpt>
      <trkpt lat="44.66345300897956" lon="5.801752461120486">
        <time>2022-12-20T13:10:10+00:00</time>
        <ele>1894.0</ele>
      </trkpt>
      <trkpt lat="44.663445465266705" lon="5.801687082275748">
        <time>2022-12-20T13:10:31+00:00</time>
        <ele>1897.0</ele>
      </trkpt>
      <trkpt lat="44.663430294021964" lon="5.801556073129177">
        <time>2022-12-20T13:10:49+00:00</time>
        <ele>1903.0</ele>
      </trkpt>
      <trkpt lat="44.66341872699559" lon="5.801530256867409">
        <time>2022-12-20T13:11:01+00:00</time>
        <ele>1905.0</ele>
      </trkpt>
      <trkpt lat="44.66341721825302" lon="5.801539644598961">
        <time>2022-12-20T13:11:28+00:00</time>
        <ele>1905.0</ele>
      </trkpt>
      <trkpt lat="44.66338846832514" lon="5.801417184993625">
        <time>2022-12-20T13:11:45+00:00</time>
        <ele>1910.0</ele>
      </trkpt>
      <trkpt lat="44.66337455436587" lon="5.801328923553228">
        <time>2022-12-20T13:11:57+00:00</time>
        <ele>1913.0</ele>
      </trkpt>
      <trkpt lat="44.66341260820627" lon="5.801306627690792">
        <time>2022-12-20T13:12:16+00:00</time>
        <ele>1912.0</ele>
      </trkpt>
      <trkpt lat="44.66344613581896" lon="5.801345268264413">
        <time>2022-12-20T13:12:42+00:00</time>
        <ele>1910.0</ele>
      </trkpt>
      <trkpt lat="44.6635353192687" lon="5.801398325711489">
        <time>2022-12-20T13:13:00+00:00</time>
        <ele>1906.0</ele>
      </trkpt>
      <trkpt lat="44.66358267702162" lon="5.801381981000304">
        <time>2022-12-20T13:13:16+00:00</time>
        <ele>1905.0</ele>
      </trkpt>
      <trkpt lat="44.66359223239124" lon="5.801296820864081">
        <time>2022-12-20T13:13:28+00:00</time>
        <ele>1908.0</ele>
      </trkpt>
      <trkpt lat="44.6635976806283" lon="5.801203530281782">
        <time>2022-12-20T13:13:47+00:00</time>
        <ele>1910.0</ele>
      </trkpt>
      <trkpt lat="44.66355954296887" lon="5.801061037927866">
        <time>2022-12-20T13:14:03+00:00</time>
        <ele>1917.0</ele>
      </trkpt>
      <trkpt lat="44.66358401812613" lon="5.800956431776285">
        <time>2022-12-20T13:14:18+00:00</time>
        <ele>1921.0</ele>
      </trkpt>
      <trkpt lat="44.663676051422954" lon="5.800845706835389">
        <time>2022-12-20T13:14:41+00:00</time>
        <ele>1922.0</ele>
      </trkpt>
      <trkpt lat="44.66370513662696" lon="5.800799941644073">
        <time>2022-12-20T13:14:56+00:00</time>
        <ele>1923.0</ele>
      </trkpt>
      <trkpt lat="44.6636806614697" lon="5.800774712115526">
        <time>2022-12-20T13:15:16+00:00</time>
        <ele>1925.0</ele>
      </trkpt>
      <trkpt lat="44.663646379485726" lon="5.800631968304515">
        <time>2022-12-20T13:15:36+00:00</time>
        <ele>1932.0</ele>
      </trkpt>
      <trkpt lat="44.6635802462697" lon="5.800443459302187">
        <time>2022-12-20T13:15:54+00:00</time>
        <ele>1943.0</ele>
      </trkpt>
      <trkpt lat="44.663749393075705" lon="5.800332985818386">
        <time>2022-12-20T13:16:14+00:00</time>
        <ele>1939.0</ele>
      </trkpt>
      <trkpt lat="44.66384846717119" lon="5.800303062424064">
        <time>2022-12-20T13:16:33+00:00</time>
        <ele>1935.0</ele>
      </trkpt>
      <trkpt lat="44.66389490291476" lon="5.800271797925234">
        <time>2022-12-20T13:16:54+00:00</time>
        <ele>1935.0</ele>
      </trkpt>
      <trkpt lat="44.66388652101159" lon="5.800172723829746">
        <time>2022-12-20T13:17:19+00:00</time>
        <ele>1940.0</ele>
      </trkpt>
      <trkpt lat="44.663876462727785" lon="5.80006686039269">
        <time>2022-12-20T13:17:36+00:00</time>
        <ele>1945.0</ele>
      </trkpt>
      <trkpt lat="44.66387621127069" lon="5.79998966306448">
        <time>2022-12-20T13:17:47+00:00</time>
        <ele>1947.0</ele>
      </trkpt>
      <trkpt lat="44.66391384601593" lon="5.799893690273166">
        <time>2022-12-20T13:18:06+00:00</time>
        <ele>1948.0</ele>
      </trkpt>
      <trkpt lat="44.663887610659" lon="5.799755472689867">
        <time>2022-12-20T13:18:22+00:00</time>
        <ele>1953.0</ele>
      </trkpt>
      <trkpt lat="44.66388350352645" lon="5.799664696678519">
        <time>2022-12-20T13:18:42+00:00</time>
        <ele>1956.0</ele>
      </trkpt>
      <trkpt lat="44.66396019794047" lon="5.799727477133274">
        <time>2022-12-20T13:18:58+00:00</time>
        <ele>1950.0</ele>
      </trkpt>
      <trkpt lat="44.6639777161181" lon="5.799778439104557">
        <time>2022-12-20T13:19:21+00:00</time>
        <ele>1947.0</ele>
      </trkpt>
      <trkpt lat="44.66404963284731" lon="5.799755891785026">
        <time>2022-12-20T13:19:40+00:00</time>
        <ele>1945.0</ele>
      </trkpt>
      <trkpt lat="44.664127081632614" lon="5.799738457426429">
        <time>2022-12-20T13:20:00+00:00</time>
        <ele>1946.0</ele>
      </trkpt>
      <trkpt lat="44.664201429113746" lon="5.799597976729274">
        <time>2022-12-20T13:20:16+00:00</time>
        <ele>1952.0</ele>
      </trkpt>
      <trkpt lat="44.664299581199884" lon="5.799418017268181">
        <time>2022-12-20T13:20:34+00:00</time>
        <ele>1960.0</ele>
      </trkpt>
      <trkpt lat="44.66435465030372" lon="5.799318440258503">
        <time>2022-12-20T13:20:49+00:00</time>
        <ele>1964.0</ele>
      </trkpt>
      <trkpt lat="44.66442598029971" lon="5.799240237101913">
        <time>2022-12-20T13:21:07+00:00</time>
        <ele>1967.0</ele>
      </trkpt>
      <trkpt lat="44.66446009464562" lon="5.799194388091564">
        <time>2022-12-20T13:21:23+00:00</time>
        <ele>1968.0</ele>
      </trkpt>
      <trkpt lat="44.664489179849625" lon="5.799071677029133">
        <time>2022-12-20T13:22:11+00:00</time>
        <ele>1973.0</ele>
      </trkpt>
      <trkpt lat="44.66449035331607" lon="5.799006968736649">
        <time>2022-12-20T13:22:22+00:00</time>
        <ele>1976.0</ele>
      </trkpt>
      <trkpt lat="44.66454944573343" lon="5.798850562423468">
        <time>2022-12-20T13:24:59+00:00</time>
        <ele>1983.0</ele>
      </trkpt>
      <trkpt lat="44.66463854536414" lon="5.798727683722973">
        <time>2022-12-20T13:25:19+00:00</time>
        <ele>1987.0</ele>
      </trkpt>
      <trkpt lat="44.66467031277716" lon="5.798740591853857">
        <time>2022-12-20T13:25:37+00:00</time>
        <ele>1985.0</ele>
      </trkpt>
      <trkpt lat="44.66472404077649" lon="5.798724666237831">
        <time>2022-12-20T13:25:56+00:00</time>
        <ele>1983.0</ele>
      </trkpt>
      <trkpt lat="44.664804842323065" lon="5.798664903268218">
        <time>2022-12-20T13:26:15+00:00</time>
        <ele>1984.0</ele>
      </trkpt>
      <trkpt lat="44.66484666801989" lon="5.798657527193427">
        <time>2022-12-20T13:26:24+00:00</time>
        <ele>1984.0</ele>
      </trkpt>
      <trkpt lat="44.66487214900553" lon="5.798762300983071">
        <time>2022-12-20T13:26:46+00:00</time>
        <ele>1978.0</ele>
      </trkpt>
      <trkpt lat="44.66493643820286" lon="5.798814352601767">
        <time>2022-12-20T13:27:07+00:00</time>
        <ele>1974.0</ele>
      </trkpt>
      <trkpt lat="44.66501288115978" lon="5.798776801675558">
        <time>2022-12-20T13:27:30+00:00</time>
        <ele>1976.0</ele>
      </trkpt>
      <trkpt lat="44.66504322364926" lon="5.798784429207444">
        <time>2022-12-20T13:27:52+00:00</time>
        <ele>1975.0</ele>
      </trkpt>
      <trkpt lat="44.66512159444392" lon="5.798750817775726">
        <time>2022-12-20T13:28:12+00:00</time>
        <ele>1977.0</ele>
      </trkpt>
      <trkpt lat="44.66517205350101" lon="5.798675883561373">
        <time>2022-12-20T13:28:25+00:00</time>
        <ele>1981.0</ele>
      </trkpt>
      <trkpt lat="44.6652122028172" lon="5.798635566607118">
        <time>2022-12-20T13:28:45+00:00</time>
        <ele>1983.0</ele>
      </trkpt>
      <trkpt lat="44.66521999798715" lon="5.798669094219804">
        <time>2022-12-20T13:28:56+00:00</time>
        <ele>1981.0</ele>
      </trkpt>
      <trkpt lat="44.665311025455594" lon="5.798706309869885">
        <time>2022-12-20T13:29:21+00:00</time>
        <ele>1979.0</ele>
      </trkpt>
      <trkpt lat="44.66534664854407" lon="5.798648977652192">
        <time>2022-12-20T13:29:40+00:00</time>
        <ele>1982.0</ele>
      </trkpt>
      <trkpt lat="44.66543834656477" lon="5.798720307648182">
        <time>2022-12-20T13:30:01+00:00</time>
        <ele>1977.0</ele>
      </trkpt>
      <trkpt lat="44.6655092574656" lon="5.798723660409451">
        <time>2022-12-20T13:30:20+00:00</time>
        <ele>1977.0</ele>
      </trkpt>
      <trkpt lat="44.6655594650656" lon="5.798699855804443">
        <time>2022-12-20T13:30:41+00:00</time>
        <ele>1978.0</ele>
      </trkpt>
      <trkpt lat="44.66562735848129" lon="5.798669597133994">
        <time>2022-12-20T13:31:00+00:00</time>
        <ele>1979.0</ele>
      </trkpt>
      <trkpt lat="44.665682930499315" lon="5.798698179423809">
        <time>2022-12-20T13:31:12+00:00</time>
        <ele>1978.0</ele>
      </trkpt>
      <trkpt lat="44.66570623219013" lon="5.798721564933658">
        <time>2022-12-20T13:31:36+00:00</time>
        <ele>1978.0</ele>
      </trkpt>
      <trkpt lat="44.66577345505357" lon="5.798852071166039">
        <time>2022-12-20T13:32:59+00:00</time>
        <ele>1976.0</ele>
      </trkpt>
      <trkpt lat="44.66585895046592" lon="5.798910576850176">
        <time>2022-12-20T13:33:16+00:00</time>
        <ele>1979.0</ele>
      </trkpt>
      <trkpt lat="44.665893567726016" lon="5.798814855515957">
        <time>2022-12-20T13:33:33+00:00</time>
        <ele>1982.0</ele>
      </trkpt>
      <trkpt lat="44.665922317653894" lon="5.798761630430818">
        <time>2022-12-20T13:33:55+00:00</time>
        <ele>1984.0</ele>
      </trkpt>
      <trkpt lat="44.66597051359713" lon="5.79869088716805">
        <time>2022-12-20T13:34:15+00:00</time>
        <ele>1984.0</ele>
      </trkpt>
      <trkpt lat="44.665978979319334" lon="5.798689043149352">
        <time>2022-12-20T13:34:42+00:00</time>
        <ele>1984.0</ele>
      </trkpt>
      <trkpt lat="44.66600085608661" lon="5.798546550795436">
        <time>2022-12-20T13:43:22+00:00</time>
        <ele>1979.0</ele>
      </trkpt>
      <trkpt lat="44.66598182916641" lon="5.798471197485924">
        <time>2022-12-20T13:43:24+00:00</time>
        <ele>1977.0</ele>
      </trkpt>
      <trkpt lat="44.66597537510097" lon="5.798385785892606">
        <time>2022-12-20T13:43:27+00:00</time>
        <ele>1973.0</ele>
      </trkpt>
      <trkpt lat="44.66597110033035" lon="5.798352928832173">
        <time>2022-12-20T13:44:07+00:00</time>
        <ele>1972.0</ele>
      </trkpt>
      <trkpt lat="44.66593874618411" lon="5.798297859728336">
        <time>2022-12-20T13:44:20+00:00</time>
        <ele>1969.0</ele>
      </trkpt>
      <trkpt lat="44.66591267846525" lon="5.798262571915984">
        <time>2022-12-20T13:44:27+00:00</time>
        <ele>1969.0</ele>
      </trkpt>
      <trkpt lat="44.665938494727015" lon="5.798104405403137">
        <time>2022-12-20T13:44:33+00:00</time>
        <ele>1961.0</ele>
      </trkpt>
      <trkpt lat="44.66594570316374" lon="5.798031985759735">
        <time>2022-12-20T13:44:36+00:00</time>
        <ele>1958.0</ele>
      </trkpt>
      <trkpt lat="44.665942937135696" lon="5.797956548631191">
        <time>2022-12-20T13:44:41+00:00</time>
        <ele>1954.0</ele>
      </trkpt>
      <trkpt lat="44.6659392490983" lon="5.797876166179776">
        <time>2022-12-20T13:44:44+00:00</time>
        <ele>1950.0</ele>
      </trkpt>
      <trkpt lat="44.66594411060214" lon="5.797788491472602">
        <time>2022-12-20T13:44:47+00:00</time>
        <ele>1946.0</ele>
      </trkpt>
      <trkpt lat="44.66593774035573" lon="5.797750186175108">
        <time>2022-12-20T13:44:49+00:00</time>
        <ele>1944.0</ele>
      </trkpt>
      <trkpt lat="44.665919383987784" lon="5.797651950269938">
        <time>2022-12-20T13:44:53+00:00</time>
        <ele>1941.0</ele>
      </trkpt>
      <trkpt lat="44.66589163988829" lon="5.797570310533047">
        <time>2022-12-20T13:44:56+00:00</time>
        <ele>1938.0</ele>
      </trkpt>
      <trkpt lat="44.66587764210999" lon="5.797484060749412">
        <time>2022-12-20T13:44:59+00:00</time>
        <ele>1935.0</ele>
      </trkpt>
      <trkpt lat="44.665863644331694" lon="5.797389512881637">
        <time>2022-12-20T13:45:02+00:00</time>
        <ele>1932.0</ele>
      </trkpt>
      <trkpt lat="44.6658684220165" lon="5.797306196764112">
        <time>2022-12-20T13:45:05+00:00</time>
        <ele>1928.0</ele>
      </trkpt>
      <trkpt lat="44.66589926742017" lon="5.797230591997504">
        <time>2022-12-20T13:45:08+00:00</time>
        <ele>1923.0</ele>
      </trkpt>
      <trkpt lat="44.66596154496074" lon="5.797134367749095">
        <time>2022-12-20T13:45:11+00:00</time>
        <ele>1917.0</ele>
      </trkpt>
      <trkpt lat="44.66599004343152" lon="5.797053398564458">
        <time>2022-12-20T13:45:14+00:00</time>
        <ele>1913.0</ele>
      </trkpt>
      <trkpt lat="44.666013177484274" lon="5.796992797404528">
        <time>2022-12-20T13:45:16+00:00</time>
        <ele>1910.0</ele>
      </trkpt>
      <trkpt lat="44.66607319191098" lon="5.796861872076988">
        <time>2022-12-20T13:45:19+00:00</time>
        <ele>1903.0</ele>
      </trkpt>
      <trkpt lat="44.66609247028828" lon="5.796769922599196">
        <time>2022-12-20T13:45:21+00:00</time>
        <ele>1899.0</ele>
      </trkpt>
      <trkpt lat="44.66612038202584" lon="5.796648468822241">
        <time>2022-12-20T13:45:23+00:00</time>
        <ele>1894.0</ele>
      </trkpt>
      <trkpt lat="44.666199423372746" lon="5.796477058902383">
        <time>2022-12-20T13:45:26+00:00</time>
        <ele>1885.0</ele>
      </trkpt>
      <trkpt lat="44.66623370535672" lon="5.796358874067664">
        <time>2022-12-20T13:45:29+00:00</time>
        <ele>1879.0</ele>
      </trkpt>
      <trkpt lat="44.666239488869905" lon="5.796302799135447">
        <time>2022-12-20T13:46:04+00:00</time>
        <ele>1876.0</ele>
      </trkpt>
      <trkpt lat="44.66622993350029" lon="5.796206658706069">
        <time>2022-12-20T13:46:15+00:00</time>
        <ele>1872.0</ele>
      </trkpt>
      <trkpt lat="44.66623739339411" lon="5.796175478026271">
        <time>2022-12-20T13:46:16+00:00</time>
        <ele>1871.0</ele>
      </trkpt>
      <trkpt lat="44.66625885106623" lon="5.796065172180533">
        <time>2022-12-20T13:46:22+00:00</time>
        <ele>1864.0</ele>
      </trkpt>
      <trkpt lat="44.66626815497875" lon="5.796028040349484">
        <time>2022-12-20T13:46:26+00:00</time>
        <ele>1862.0</ele>
      </trkpt>
      <trkpt lat="44.66628718189895" lon="5.79601664096117">
        <time>2022-12-20T13:46:28+00:00</time>
        <ele>1861.0</ele>
      </trkpt>
      <trkpt lat="44.66635951772332" lon="5.795907005667687">
        <time>2022-12-20T13:46:33+00:00</time>
        <ele>1854.0</ele>
      </trkpt>
      <trkpt lat="44.66641056351364" lon="5.795843722298741">
        <time>2022-12-20T13:46:40+00:00</time>
        <ele>1849.0</ele>
      </trkpt>
      <trkpt lat="44.666420705616474" lon="5.795758897438645">
        <time>2022-12-20T13:46:54+00:00</time>
        <ele>1845.0</ele>
      </trkpt>
      <trkpt lat="44.66643512248993" lon="5.79567750915885">
        <time>2022-12-20T13:46:59+00:00</time>
        <ele>1842.0</ele>
      </trkpt>
      <trkpt lat="44.666420286521316" lon="5.795629899948835">
        <time>2022-12-20T13:47:05+00:00</time>
        <ele>1841.0</ele>
      </trkpt>
      <trkpt lat="44.66641274280846" lon="5.795513307675719">
        <time>2022-12-20T13:47:09+00:00</time>
        <ele>1838.0</ele>
      </trkpt>
      <trkpt lat="44.666387094184756" lon="5.795261515304446">
        <time>2022-12-20T13:47:17+00:00</time>
        <ele>1831.0</ele>
      </trkpt>
      <trkpt lat="44.66644627042115" lon="5.795197729021311">
        <time>2022-12-20T13:47:22+00:00</time>
        <ele>1825.0</ele>
      </trkpt>
      <trkpt lat="44.666454484686255" lon="5.795135786756873">
        <time>2022-12-20T13:47:23+00:00</time>
        <ele>1823.0</ele>
      </trkpt>
      <trkpt lat="44.66646244749427" lon="5.794928250834346">
        <time>2022-12-20T13:47:27+00:00</time>
        <ele>1816.0</ele>
      </trkpt>
      <trkpt lat="44.6664902754128" lon="5.794729348272085">
        <time>2022-12-20T13:47:31+00:00</time>
        <ele>1808.0</ele>
      </trkpt>
      <trkpt lat="44.666504776105285" lon="5.794550227001309">
        <time>2022-12-20T13:47:34+00:00</time>
        <ele>1800.0</ele>
      </trkpt>
      <trkpt lat="44.66651877388358" lon="5.794455427676439">
        <time>2022-12-20T13:47:36+00:00</time>
        <ele>1796.0</ele>
      </trkpt>
      <trkpt lat="44.666522378101945" lon="5.794352078810334">
        <time>2022-12-20T13:47:40+00:00</time>
        <ele>1793.0</ele>
      </trkpt>
      <trkpt lat="44.66643671505153" lon="5.794179830700159">
        <time>2022-12-20T13:47:45+00:00</time>
        <ele>1791.0</ele>
      </trkpt>
      <trkpt lat="44.666427159681916" lon="5.793997189030051">
        <time>2022-12-20T13:47:49+00:00</time>
        <ele>1785.0</ele>
      </trkpt>
      <trkpt lat="44.66646387241781" lon="5.793993081897497">
        <time>2022-12-20T13:47:50+00:00</time>
        <ele>1784.0</ele>
      </trkpt>
      <trkpt lat="44.66658180579543" lon="5.793907754123211">
        <time>2022-12-20T13:47:53+00:00</time>
        <ele>1777.0</ele>
      </trkpt>
      <trkpt lat="44.66668775305152" lon="5.793898534029722">
        <time>2022-12-20T13:47:56+00:00</time>
        <ele>1773.0</ele>
      </trkpt>
      <trkpt lat="44.66677391901612" lon="5.79384908080101">
        <time>2022-12-20T13:47:58+00:00</time>
        <ele>1768.0</ele>
      </trkpt>
      <trkpt lat="44.66686310246587" lon="5.793747743591666">
        <time>2022-12-20T13:48:01+00:00</time>
        <ele>1762.0</ele>
      </trkpt>
      <trkpt lat="44.66691289097071" lon="5.793769704177976">
        <time>2022-12-20T13:48:03+00:00</time>
        <ele>1761.0</ele>
      </trkpt>
      <trkpt lat="44.666970977559686" lon="5.793790072202683">
        <time>2022-12-20T13:48:05+00:00</time>
        <ele>1760.0</ele>
      </trkpt>
      <trkpt lat="44.667024202644825" lon="5.793744390830398">
        <time>2022-12-20T13:48:07+00:00</time>
        <ele>1757.0</ele>
      </trkpt>
      <trkpt lat="44.66710911132395" lon="5.793674569576979">
        <time>2022-12-20T13:48:10+00:00</time>
        <ele>1753.0</ele>
      </trkpt>
      <trkpt lat="44.66715445742011" lon="5.793713461607695">
        <time>2022-12-20T13:48:13+00:00</time>
        <ele>1752.0</ele>
      </trkpt>
      <trkpt lat="44.66717993840575" lon="5.793744307011366">
        <time>2022-12-20T13:48:16+00:00</time>
        <ele>1751.0</ele>
      </trkpt>
      <trkpt lat="44.66719343326986" lon="5.793767105787993">
        <time>2022-12-20T13:48:19+00:00</time>
        <ele>1751.0</ele>
      </trkpt>
      <trkpt lat="44.66725847683847" lon="5.793739948421717">
        <time>2022-12-20T13:49:07+00:00</time>
        <ele>1748.0</ele>
      </trkpt>
      <trkpt lat="44.667360903695226" lon="5.793673815205693">
        <time>2022-12-20T13:49:11+00:00</time>
        <ele>1742.0</ele>
      </trkpt>
      <trkpt lat="44.667632477357984" lon="5.793478600680828">
        <time>2022-12-20T13:49:20+00:00</time>
        <ele>1727.0</ele>
      </trkpt>
      <trkpt lat="44.66770498082042" lon="5.79341665841639">
        <time>2022-12-20T13:49:24+00:00</time>
        <ele>1724.0</ele>
      </trkpt>
      <trkpt lat="44.66780229471624" lon="5.79332185909152">
        <time>2022-12-20T13:49:30+00:00</time>
        <ele>1720.0</ele>
      </trkpt>
      <trkpt lat="44.66782576404512" lon="5.793309453874826">
        <time>2022-12-20T13:49:35+00:00</time>
        <ele>1719.0</ele>
      </trkpt>
      <trkpt lat="44.6678352355957" lon="5.793303335085511">
        <time>2022-12-20T13:49:38+00:00</time>
        <ele>1719.0</ele>
      </trkpt>
      <trkpt lat="44.66785887256265" lon="5.793271902948618">
        <time>2022-12-20T13:49:46+00:00</time>
        <ele>1717.0</ele>
      </trkpt>
      <trkpt lat="44.66787069104612" lon="5.793259749189019">
        <time>2022-12-20T13:49:52+00:00</time>
        <ele>1717.0</ele>
      </trkpt>
      <trkpt lat="44.66790111735463" lon="5.79320996068418">
        <time>2022-12-20T13:49:54+00:00</time>
        <ele>1715.0</ele>
      </trkpt>
      <trkpt lat="44.66812298633158" lon="5.792947858572006">
        <time>2022-12-20T13:50:00+00:00</time>
        <ele>1704.0</ele>
      </trkpt>
      <trkpt lat="44.66816095635295" lon="5.79292556270957">
        <time>2022-12-20T13:50:03+00:00</time>
        <ele>1703.0</ele>
      </trkpt>
      <trkpt lat="44.668234968557954" lon="5.79284886829555">
        <time>2022-12-20T13:50:07+00:00</time>
        <ele>1700.0</ele>
      </trkpt>
      <trkpt lat="44.66825399547815" lon="5.792726157233119">
        <time>2022-12-20T13:50:11+00:00</time>
        <ele>1696.0</ele>
      </trkpt>
      <trkpt lat="44.668250642716885" lon="5.792705370113254">
        <time>2022-12-20T13:50:13+00:00</time>
        <ele>1695.0</ele>
      </trkpt>
      <trkpt lat="44.66829699464142" lon="5.792628759518266">
        <time>2022-12-20T13:50:19+00:00</time>
        <ele>1692.0</ele>
      </trkpt>
      <trkpt lat="44.6683135908097" lon="5.79264803789556">
        <time>2022-12-20T13:50:24+00:00</time>
        <ele>1693.0</ele>
      </trkpt>
      <trkpt lat="44.66831400990486" lon="5.792648205533624">
        <time>2022-12-20T13:50:25+00:00</time>
        <ele>1693.0</ele>
      </trkpt>
      <trkpt lat="44.668352734297514" lon="5.792669495567679">
        <time>2022-12-20T13:50:40+00:00</time>
        <ele>1693.0</ele>
      </trkpt>
      <trkpt lat="44.6683759521693" lon="5.792566817253828">
        <time>2022-12-20T13:50:44+00:00</time>
        <ele>1689.0</ele>
      </trkpt>
      <trkpt lat="44.66836078092456" lon="5.79249020665884">
        <time>2022-12-20T13:50:46+00:00</time>
        <ele>1687.0</ele>
      </trkpt>
      <trkpt lat="44.668482234701514" lon="5.792325083166361">
        <time>2022-12-20T13:50:53+00:00</time>
        <ele>1681.0</ele>
      </trkpt>
      <trkpt lat="44.668489107862115" lon="5.792311923578382">
        <time>2022-12-20T13:50:54+00:00</time>
        <ele>1681.0</ele>
      </trkpt>
      <trkpt lat="44.668498914688826" lon="5.792264901101589">
        <time>2022-12-20T13:50:56+00:00</time>
        <ele>1680.0</ele>
      </trkpt>
      <trkpt lat="44.66857007704675" lon="5.792042193934321">
        <time>2022-12-20T13:51:00+00:00</time>
        <ele>1671.0</ele>
      </trkpt>
      <trkpt lat="44.66859539039433" lon="5.791916633024812">
        <time>2022-12-20T13:51:03+00:00</time>
        <ele>1666.0</ele>
      </trkpt>
      <trkpt lat="44.6686505433172" lon="5.791784198954701">
        <time>2022-12-20T13:51:07+00:00</time>
        <ele>1662.0</ele>
      </trkpt>
      <trkpt lat="44.668677700683475" lon="5.791713455691934">
        <time>2022-12-20T13:51:11+00:00</time>
        <ele>1661.0</ele>
      </trkpt>
      <trkpt lat="44.66856521554291" lon="5.791460406035185">
        <time>2022-12-20T13:51:17+00:00</time>
        <ele>1653.0</ele>
      </trkpt>
      <trkpt lat="44.66859622858465" lon="5.791404498741031">
        <time>2022-12-20T13:51:19+00:00</time>
        <ele>1651.0</ele>
      </trkpt>
      <trkpt lat="44.668619027361274" lon="5.791411036625505">
        <time>2022-12-20T13:51:24+00:00</time>
        <ele>1651.0</ele>
      </trkpt>
      <trkpt lat="44.66861676424742" lon="5.79137222841382">
        <time>2022-12-20T13:51:31+00:00</time>
        <ele>1650.0</ele>
      </trkpt>
      <trkpt lat="44.66858994215727" lon="5.791228814050555">
        <time>2022-12-20T13:51:36+00:00</time>
        <ele>1648.0</ele>
      </trkpt>
      <trkpt lat="44.66865641064942" lon="5.791066121309996">
        <time>2022-12-20T13:51:44+00:00</time>
        <ele>1644.0</ele>
      </trkpt>
      <trkpt lat="44.6686986554414" lon="5.791007364168763">
        <time>2022-12-20T13:52:01+00:00</time>
        <ele>1643.0</ele>
      </trkpt>
      <trkpt lat="44.66865121386945" lon="5.790969980880618">
        <time>2022-12-20T13:52:15+00:00</time>
        <ele>1642.0</ele>
      </trkpt>
      <trkpt lat="44.66859572567046" lon="5.790909798815846">
        <time>2022-12-20T13:52:29+00:00</time>
        <ele>1641.0</ele>
      </trkpt>
      <trkpt lat="44.66859522275627" lon="5.790809886530042">
        <time>2022-12-20T13:52:36+00:00</time>
        <ele>1639.0</ele>
      </trkpt>
      <trkpt lat="44.66859589330852" lon="5.7907360419631">
        <time>2022-12-20T13:52:41+00:00</time>
        <ele>1638.0</ele>
      </trkpt>
      <trkpt lat="44.66861190274358" lon="5.790647780522704">
        <time>2022-12-20T13:52:48+00:00</time>
        <ele>1635.0</ele>
      </trkpt>
      <trkpt lat="44.668616177514195" lon="5.790491122752428">
        <time>2022-12-20T13:53:03+00:00</time>
        <ele>1633.0</ele>
      </trkpt>
      <trkpt lat="44.66861978173256" lon="5.790433622896671">
        <time>2022-12-20T13:53:07+00:00</time>
        <ele>1632.0</ele>
      </trkpt>
      <trkpt lat="44.66863193549216" lon="5.790412919595838">
        <time>2022-12-20T13:53:09+00:00</time>
        <ele>1632.0</ele>
      </trkpt>
      <trkpt lat="44.66860368847847" lon="5.790282329544425">
        <time>2022-12-20T13:53:25+00:00</time>
        <ele>1630.0</ele>
      </trkpt>
      <trkpt lat="44.66858759522438" lon="5.790137993171811">
        <time>2022-12-20T13:53:39+00:00</time>
        <ele>1629.0</ele>
      </trkpt>
      <trkpt lat="44.668575106188655" lon="5.790050737559795">
        <time>2022-12-20T13:53:46+00:00</time>
        <ele>1628.0</ele>
      </trkpt>
      <trkpt lat="44.66863595880568" lon="5.789917716756463">
        <time>2022-12-20T13:53:59+00:00</time>
        <ele>1624.0</ele>
      </trkpt>
      <trkpt lat="44.668613662943244" lon="5.789770362898707">
        <time>2022-12-20T13:54:33+00:00</time>
        <ele>1621.0</ele>
      </trkpt>
      <trkpt lat="44.668611818924546" lon="5.789772709831595">
        <time>2022-12-20T13:54:40+00:00</time>
        <ele>1621.0</ele>
      </trkpt>
      <trkpt lat="44.668567311018705" lon="5.789741110056639">
        <time>2022-12-20T13:55:05+00:00</time>
        <ele>1622.0</ele>
      </trkpt>
      <trkpt lat="44.668495981022716" lon="5.7896947581321">
        <time>2022-12-20T13:55:31+00:00</time>
        <ele>1624.0</ele>
      </trkpt>
      <trkpt lat="44.668464129790664" lon="5.789644634351134">
        <time>2022-12-20T13:55:34+00:00</time>
        <ele>1624.0</ele>
      </trkpt>
      <trkpt lat="44.66837653890252" lon="5.789477247744799">
        <time>2022-12-20T13:55:45+00:00</time>
        <ele>1626.0</ele>
      </trkpt>
      <trkpt lat="44.66841911897063" lon="5.789478505030274">
        <time>2022-12-20T13:55:52+00:00</time>
        <ele>1622.0</ele>
      </trkpt>
      <trkpt lat="44.66849908232689" lon="5.789385046809912">
        <time>2022-12-20T13:55:58+00:00</time>
        <ele>1617.0</ele>
      </trkpt>
      <trkpt lat="44.66842180117965" lon="5.789055805653334">
        <time>2022-12-20T13:56:07+00:00</time>
        <ele>1615.0</ele>
      </trkpt>
      <trkpt lat="44.66844384558499" lon="5.788955893367529">
        <time>2022-12-20T13:56:15+00:00</time>
        <ele>1613.0</ele>
      </trkpt>
      <trkpt lat="44.668440241366625" lon="5.788887497037649">
        <time>2022-12-20T13:56:18+00:00</time>
        <ele>1613.0</ele>
      </trkpt>
      <trkpt lat="44.66845415532589" lon="5.788683900609613">
        <time>2022-12-20T13:56:22+00:00</time>
        <ele>1612.0</ele>
      </trkpt>
      <trkpt lat="44.66850402764976" lon="5.788511652499437">
        <time>2022-12-20T13:56:25+00:00</time>
        <ele>1609.0</ele>
      </trkpt>
      <trkpt lat="44.66850436292589" lon="5.788452727720141">
        <time>2022-12-20T13:56:27+00:00</time>
        <ele>1608.0</ele>
      </trkpt>
      <trkpt lat="44.66863646171987" lon="5.788330184295774">
        <time>2022-12-20T13:56:33+00:00</time>
        <ele>1600.0</ele>
      </trkpt>
      <trkpt lat="44.668649369850755" lon="5.788198001682758">
        <time>2022-12-20T13:56:36+00:00</time>
        <ele>1598.0</ele>
      </trkpt>
      <trkpt lat="44.66868666931987" lon="5.788065148517489">
        <time>2022-12-20T13:56:41+00:00</time>
        <ele>1595.0</ele>
      </trkpt>
      <trkpt lat="44.668743666261435" lon="5.787812350317836">
        <time>2022-12-20T13:56:45+00:00</time>
        <ele>1589.0</ele>
      </trkpt>
      <trkpt lat="44.668775936588645" lon="5.78761612996459">
        <time>2022-12-20T13:56:49+00:00</time>
        <ele>1586.0</ele>
      </trkpt>
      <trkpt lat="44.66891448944807" lon="5.787435080856085">
        <time>2022-12-20T13:56:56+00:00</time>
        <ele>1580.0</ele>
      </trkpt>
      <trkpt lat="44.6689198538661" lon="5.787418400868774">
        <time>2022-12-20T13:56:59+00:00</time>
        <ele>1580.0</ele>
      </trkpt>
      <trkpt lat="44.66898581944406" lon="5.787267275154591">
        <time>2022-12-20T13:57:07+00:00</time>
        <ele>1577.0</ele>
      </trkpt>
      <trkpt lat="44.66900677420199" lon="5.787260318174958">
        <time>2022-12-20T13:57:12+00:00</time>
        <ele>1577.0</ele>
      </trkpt>
      <trkpt lat="44.66903317719698" lon="5.787193598225713">
        <time>2022-12-20T13:57:28+00:00</time>
        <ele>1575.0</ele>
      </trkpt>
      <trkpt lat="44.66904792934656" lon="5.78714800067246">
        <time>2022-12-20T13:57:35+00:00</time>
        <ele>1575.0</ele>
      </trkpt>
      <trkpt lat="44.669054467231035" lon="5.787097876891494">
        <time>2022-12-20T13:57:38+00:00</time>
        <ele>1574.0</ele>
      </trkpt>
      <trkpt lat="44.6690942812711" lon="5.786948259919882">
        <time>2022-12-20T13:57:51+00:00</time>
        <ele>1571.0</ele>
      </trkpt>
      <trkpt lat="44.669109201058745" lon="5.786914899945259">
        <time>2022-12-20T13:57:54+00:00</time>
        <ele>1570.0</ele>
      </trkpt>
      <trkpt lat="44.669119510799646" lon="5.786872236058116">
        <time>2022-12-20T13:57:57+00:00</time>
        <ele>1569.0</ele>
      </trkpt>
      <trkpt lat="44.66915714554489" lon="5.786780705675483">
        <time>2022-12-20T13:58:06+00:00</time>
        <ele>1566.0</ele>
      </trkpt>
      <trkpt lat="44.669161923229694" lon="5.786737287417054">
        <time>2022-12-20T13:58:09+00:00</time>
        <ele>1565.0</ele>
      </trkpt>
      <trkpt lat="44.669204419478774" lon="5.786616671830416">
        <time>2022-12-20T13:58:22+00:00</time>
        <ele>1561.0</ele>
      </trkpt>
      <trkpt lat="44.669252783060074" lon="5.786392958834767">
        <time>2022-12-20T13:58:41+00:00</time>
        <ele>1557.0</ele>
      </trkpt>
      <trkpt lat="44.66930483467877" lon="5.786243425682187">
        <time>2022-12-20T13:58:52+00:00</time>
        <ele>1553.0</ele>
      </trkpt>
      <trkpt lat="44.669352946802974" lon="5.786115014925599">
        <time>2022-12-20T13:59:09+00:00</time>
        <ele>1550.0</ele>
      </trkpt>
      <trkpt lat="44.66937532648444" lon="5.786018287763">
        <time>2022-12-20T13:59:15+00:00</time>
        <ele>1548.0</ele>
      </trkpt>
      <trkpt lat="44.669335931539536" lon="5.785809243097901">
        <time>2022-12-20T13:59:30+00:00</time>
        <ele>1546.0</ele>
      </trkpt>
      <trkpt lat="44.66931162402034" lon="5.785715198144317">
        <time>2022-12-20T13:59:37+00:00</time>
        <ele>1545.0</ele>
      </trkpt>
      <trkpt lat="44.6692980453372" lon="5.785691225901246">
        <time>2022-12-20T13:59:39+00:00</time>
        <ele>1545.0</ele>
      </trkpt>
      <trkpt lat="44.669308019801974" lon="5.785559294745326">
        <time>2022-12-20T13:59:54+00:00</time>
        <ele>1543.0</ele>
      </trkpt>
      <trkpt lat="44.66935462318361" lon="5.78556633554399">
        <time>2022-12-20T14:00:09+00:00</time>
        <ele>1542.0</ele>
      </trkpt>
      <trkpt lat="44.66940365731716" lon="5.785522414371371">
        <time>2022-12-20T14:00:22+00:00</time>
        <ele>1540.0</ele>
      </trkpt>
      <trkpt lat="44.66940273530781" lon="5.785424765199423">
        <time>2022-12-20T14:00:28+00:00</time>
        <ele>1538.0</ele>
      </trkpt>
      <trkpt lat="44.6694275457412" lon="5.785317560657859">
        <time>2022-12-20T14:00:36+00:00</time>
        <ele>1536.0</ele>
      </trkpt>
      <trkpt lat="44.66942888684571" lon="5.785286128520966">
        <time>2022-12-20T14:00:38+00:00</time>
        <ele>1536.0</ele>
      </trkpt>
      <trkpt lat="44.66946794651449" lon="5.785266347229481">
        <time>2022-12-20T14:00:52+00:00</time>
        <ele>1535.0</ele>
      </trkpt>
      <trkpt lat="44.66947163455188" lon="5.785260396078229">
        <time>2022-12-20T14:01:23+00:00</time>
        <ele>1535.0</ele>
      </trkpt>
      <trkpt lat="44.6695467364043" lon="5.785261988639832">
        <time>2022-12-20T14:01:40+00:00</time>
        <ele>1534.0</ele>
      </trkpt>
      <trkpt lat="44.669550424441695" lon="5.785237262025476">
        <time>2022-12-20T14:01:54+00:00</time>
        <ele>1534.0</ele>
      </trkpt>
      <trkpt lat="44.66954195871949" lon="5.785203482955694">
        <time>2022-12-20T14:01:56+00:00</time>
        <ele>1533.0</ele>
      </trkpt>
      <trkpt lat="44.669540114700794" lon="5.785073395818472">
        <time>2022-12-20T14:02:04+00:00</time>
        <ele>1531.0</ele>
      </trkpt>
      <trkpt lat="44.66957129538059" lon="5.784971555694938">
        <time>2022-12-20T14:02:14+00:00</time>
        <ele>1528.0</ele>
      </trkpt>
      <trkpt lat="44.66961462981999" lon="5.784854292869568">
        <time>2022-12-20T14:02:24+00:00</time>
        <ele>1527.0</ele>
      </trkpt>
      <trkpt lat="44.66964396648109" lon="5.784773826599121">
        <time>2022-12-20T14:02:33+00:00</time>
        <ele>1526.0</ele>
      </trkpt>
      <trkpt lat="44.66965276747942" lon="5.784706268459559">
        <time>2022-12-20T14:02:39+00:00</time>
        <ele>1524.0</ele>
      </trkpt>
      <trkpt lat="44.6696712076664" lon="5.784580707550049">
        <time>2022-12-20T14:02:49+00:00</time>
        <ele>1522.0</ele>
      </trkpt>
      <trkpt lat="44.66969056986272" lon="5.784531589597464">
        <time>2022-12-20T14:02:52+00:00</time>
        <ele>1522.0</ele>
      </trkpt>
      <trkpt lat="44.66972954571247" lon="5.784397479146719">
        <time>2022-12-20T14:03:03+00:00</time>
        <ele>1519.0</ele>
      </trkpt>
      <trkpt lat="44.669749243184924" lon="5.784262530505657">
        <time>2022-12-20T14:03:12+00:00</time>
        <ele>1517.0</ele>
      </trkpt>
      <trkpt lat="44.66978184878826" lon="5.784230176359415">
        <time>2022-12-20T14:03:16+00:00</time>
        <ele>1516.0</ele>
      </trkpt>
      <trkpt lat="44.669851837679744" lon="5.784115009009838">
        <time>2022-12-20T14:03:30+00:00</time>
        <ele>1514.0</ele>
      </trkpt>
      <trkpt lat="44.6698834374547" lon="5.784014342352748">
        <time>2022-12-20T14:03:38+00:00</time>
        <ele>1513.0</ele>
      </trkpt>
      <trkpt lat="44.669893495738506" lon="5.783811751753092">
        <time>2022-12-20T14:03:55+00:00</time>
        <ele>1511.0</ele>
      </trkpt>
      <trkpt lat="44.669909588992596" lon="5.783697254955769">
        <time>2022-12-20T14:04:16+00:00</time>
        <ele>1511.0</ele>
      </trkpt>
      <trkpt lat="44.66991067864001" lon="5.783688873052597">
        <time>2022-12-20T14:04:41+00:00</time>
        <ele>1511.0</ele>
      </trkpt>
      <trkpt lat="44.669913025572896" lon="5.783679066225886">
        <time>2022-12-20T14:04:42+00:00</time>
        <ele>1511.0</ele>
      </trkpt>
      <trkpt lat="44.66992928646505" lon="5.783586613833904">
        <time>2022-12-20T14:04:46+00:00</time>
        <ele>1511.0</ele>
      </trkpt>
      <trkpt lat="44.66993666253984" lon="5.783548476174474">
        <time>2022-12-20T14:04:47+00:00</time>
        <ele>1510.0</ele>
      </trkpt>
      <trkpt lat="44.66994294896722" lon="5.783508075401187">
        <time>2022-12-20T14:04:48+00:00</time>
        <ele>1510.0</ele>
      </trkpt>
      <trkpt lat="44.669946637004614" lon="5.783468093723059">
        <time>2022-12-20T14:04:49+00:00</time>
        <ele>1510.0</ele>
      </trkpt>
      <trkpt lat="44.66996407136321" lon="5.783389220014215">
        <time>2022-12-20T14:04:51+00:00</time>
        <ele>1510.0</ele>
      </trkpt>
      <trkpt lat="44.66998443938792" lon="5.783342784270644">
        <time>2022-12-20T14:04:52+00:00</time>
        <ele>1509.0</ele>
      </trkpt>
      <trkpt lat="44.6699975989759" lon="5.783287882804871">
        <time>2022-12-20T14:04:53+00:00</time>
        <ele>1508.0</ele>
      </trkpt>
      <trkpt lat="44.66999818570912" lon="5.783230550587177">
        <time>2022-12-20T14:04:54+00:00</time>
        <ele>1508.0</ele>
      </trkpt>
      <trkpt lat="44.67000321485102" lon="5.783175565302372">
        <time>2022-12-20T14:04:55+00:00</time>
        <ele>1508.0</ele>
      </trkpt>
      <trkpt lat="44.670022912323475" lon="5.783118484541774">
        <time>2022-12-20T14:04:56+00:00</time>
        <ele>1507.0</ele>
      </trkpt>
      <trkpt lat="44.670026348903775" lon="5.783054111525416">
        <time>2022-12-20T14:04:57+00:00</time>
        <ele>1506.0</ele>
      </trkpt>
      <trkpt lat="44.670017547905445" lon="5.782986553385854">
        <time>2022-12-20T14:04:58+00:00</time>
        <ele>1505.0</ele>
      </trkpt>
      <trkpt lat="44.67000564560294" lon="5.782913127914071">
        <time>2022-12-20T14:04:59+00:00</time>
        <ele>1505.0</ele>
      </trkpt>
      <trkpt lat="44.670071778818965" lon="5.782643314450979">
        <time>2022-12-20T14:05:03+00:00</time>
        <ele>1499.0</ele>
      </trkpt>
      <trkpt lat="44.67014151625335" lon="5.782314660027623">
        <time>2022-12-20T14:05:08+00:00</time>
        <ele>1493.0</ele>
      </trkpt>
      <trkpt lat="44.67023463919759" lon="5.782134868204594">
        <time>2022-12-20T14:05:11+00:00</time>
        <ele>1488.0</ele>
      </trkpt>
      <trkpt lat="44.670291217043996" lon="5.781996063888073">
        <time>2022-12-20T14:05:13+00:00</time>
        <ele>1485.0</ele>
      </trkpt>
      <trkpt lat="44.67039205133915" lon="5.781608987599611">
        <time>2022-12-20T14:05:18+00:00</time>
        <ele>1478.0</ele>
      </trkpt>
      <trkpt lat="44.67039305716753" lon="5.781594989821315">
        <time>2022-12-20T14:05:22+00:00</time>
        <ele>1478.0</ele>
      </trkpt>
      <trkpt lat="44.67040118761361" lon="5.781592978164554">
        <time>2022-12-20T14:05:23+00:00</time>
        <ele>1478.0</ele>
      </trkpt>
      <trkpt lat="44.67041459865868" lon="5.781591217964888">
        <time>2022-12-20T14:05:26+00:00</time>
        <ele>1477.0</ele>
      </trkpt>
      <trkpt lat="44.670423651114106" lon="5.781557690352202">
        <time>2022-12-20T14:05:38+00:00</time>
        <ele>1477.0</ele>
      </trkpt>
      <trkpt lat="44.67056790366769" lon="5.78112225048244">
        <time>2022-12-20T14:05:48+00:00</time>
        <ele>1468.0</ele>
      </trkpt>
      <trkpt lat="44.670631270855665" lon="5.781017476692796">
        <time>2022-12-20T14:05:50+00:00</time>
        <ele>1466.0</ele>
      </trkpt>
      <trkpt lat="44.6706641279161" lon="5.780907170847058">
        <time>2022-12-20T14:05:52+00:00</time>
        <ele>1464.0</ele>
      </trkpt>
      <trkpt lat="44.67064258642495" lon="5.780565859749913">
        <time>2022-12-20T14:05:59+00:00</time>
        <ele>1459.0</ele>
      </trkpt>
      <trkpt lat="44.67065499164164" lon="5.780519507825375">
        <time>2022-12-20T14:06:00+00:00</time>
        <ele>1459.0</ele>
      </trkpt>
      <trkpt lat="44.67077476903796" lon="5.780089348554611">
        <time>2022-12-20T14:06:06+00:00</time>
        <ele>1452.0</ele>
      </trkpt>
      <trkpt lat="44.6707936283201" lon="5.780008882284164">
        <time>2022-12-20T14:06:07+00:00</time>
        <ele>1451.0</ele>
      </trkpt>
      <trkpt lat="44.67078482732177" lon="5.779601354151964">
        <time>2022-12-20T14:06:12+00:00</time>
        <ele>1445.0</ele>
      </trkpt>
      <trkpt lat="44.67080854810774" lon="5.779387867078185">
        <time>2022-12-20T14:06:15+00:00</time>
        <ele>1441.0</ele>
      </trkpt>
      <trkpt lat="44.670755323022604" lon="5.77930798754096">
        <time>2022-12-20T14:06:17+00:00</time>
        <ele>1441.0</ele>
      </trkpt>
      <trkpt lat="44.670711401849985" lon="5.779107240960002">
        <time>2022-12-20T14:06:20+00:00</time>
        <ele>1437.0</ele>
      </trkpt>
      <trkpt lat="44.67069991864264" lon="5.77896541915834">
        <time>2022-12-20T14:06:22+00:00</time>
        <ele>1435.0</ele>
      </trkpt>
      <trkpt lat="44.67059254646301" lon="5.778709519654512">
        <time>2022-12-20T14:06:26+00:00</time>
        <ele>1432.0</ele>
      </trkpt>
      <trkpt lat="44.6705481223762" lon="5.778550347313285">
        <time>2022-12-20T14:06:29+00:00</time>
        <ele>1431.0</ele>
      </trkpt>
      <trkpt lat="44.67053823173046" lon="5.778448255732656">
        <time>2022-12-20T14:06:33+00:00</time>
        <ele>1429.0</ele>
      </trkpt>
      <trkpt lat="44.670511577278376" lon="5.778314396739006">
        <time>2022-12-20T14:06:41+00:00</time>
        <ele>1427.0</ele>
      </trkpt>
      <trkpt lat="44.670437313616276" lon="5.778132760897279">
        <time>2022-12-20T14:06:49+00:00</time>
        <ele>1424.0</ele>
      </trkpt>
      <trkpt lat="44.670351818203926" lon="5.77802924439311">
        <time>2022-12-20T14:06:52+00:00</time>
        <ele>1423.0</ele>
      </trkpt>
      <trkpt lat="44.67037612572312" lon="5.77779564075172">
        <time>2022-12-20T14:06:57+00:00</time>
        <ele>1418.0</ele>
      </trkpt>
      <trkpt lat="44.67040319927037" lon="5.777619704604149">
        <time>2022-12-20T14:07:03+00:00</time>
        <ele>1415.0</ele>
      </trkpt>
      <trkpt lat="44.67041065916419" lon="5.777613250538707">
        <time>2022-12-20T14:07:04+00:00</time>
        <ele>1415.0</ele>
      </trkpt>
      <trkpt lat="44.67048768885434" lon="5.777543596923351">
        <time>2022-12-20T14:07:09+00:00</time>
        <ele>1413.0</ele>
      </trkpt>
      <trkpt lat="44.670518366619945" lon="5.777524402365089">
        <time>2022-12-20T14:07:17+00:00</time>
        <ele>1412.0</ele>
      </trkpt>
      <trkpt lat="44.67052415013313" lon="5.777487857267261">
        <time>2022-12-20T14:07:24+00:00</time>
        <ele>1411.0</ele>
      </trkpt>
      <trkpt lat="44.67046086676419" lon="5.777319213375449">
        <time>2022-12-20T14:07:28+00:00</time>
        <ele>1408.0</ele>
      </trkpt>
      <trkpt lat="44.6703583560884" lon="5.777121987193823">
        <time>2022-12-20T14:07:31+00:00</time>
        <ele>1406.0</ele>
      </trkpt>
      <trkpt lat="44.67033203691244" lon="5.776907578110695">
        <time>2022-12-20T14:07:34+00:00</time>
        <ele>1403.0</ele>
      </trkpt>
      <trkpt lat="44.670310663059354" lon="5.776768354699016">
        <time>2022-12-20T14:07:36+00:00</time>
        <ele>1401.0</ele>
      </trkpt>
      <trkpt lat="44.670326421037316" lon="5.776560651138425">
        <time>2022-12-20T14:07:39+00:00</time>
        <ele>1398.0</ele>
      </trkpt>
      <trkpt lat="44.67041845433414" lon="5.776325538754463">
        <time>2022-12-20T14:07:44+00:00</time>
        <ele>1393.0</ele>
      </trkpt>
      <trkpt lat="44.67047469690442" lon="5.776302153244615">
        <time>2022-12-20T14:07:46+00:00</time>
        <ele>1392.0</ele>
      </trkpt>
      <trkpt lat="44.67050302773714" lon="5.776261165738106">
        <time>2022-12-20T14:07:47+00:00</time>
        <ele>1391.0</ele>
      </trkpt>
      <trkpt lat="44.670527167618275" lon="5.776189332827926">
        <time>2022-12-20T14:07:48+00:00</time>
        <ele>1390.0</ele>
      </trkpt>
      <trkpt lat="44.67055574990809" lon="5.776116829365492">
        <time>2022-12-20T14:07:49+00:00</time>
        <ele>1388.0</ele>
      </trkpt>
      <trkpt lat="44.670585840940475" lon="5.776077266782522">
        <time>2022-12-20T14:07:50+00:00</time>
        <ele>1387.0</ele>
      </trkpt>
      <trkpt lat="44.670606795698404" lon="5.776052540168166">
        <time>2022-12-20T14:07:51+00:00</time>
        <ele>1386.0</ele>
      </trkpt>
      <trkpt lat="44.670623391866684" lon="5.776020186021924">
        <time>2022-12-20T14:07:52+00:00</time>
        <ele>1385.0</ele>
      </trkpt>
      <trkpt lat="44.67063940130174" lon="5.775980204343796">
        <time>2022-12-20T14:07:53+00:00</time>
        <ele>1384.0</ele>
      </trkpt>
      <trkpt lat="44.67065155506134" lon="5.775938211008906">
        <time>2022-12-20T14:07:54+00:00</time>
        <ele>1383.0</ele>
      </trkpt>
      <trkpt lat="44.67066421173513" lon="5.775899235159159">
        <time>2022-12-20T14:07:55+00:00</time>
        <ele>1382.0</ele>
      </trkpt>
      <trkpt lat="44.67067318037152" lon="5.775869060307741">
        <time>2022-12-20T14:07:56+00:00</time>
        <ele>1381.0</ele>
      </trkpt>
      <trkpt lat="44.67075314372778" lon="5.775818768888712">
        <time>2022-12-20T14:09:10+00:00</time>
        <ele>1380.0</ele>
      </trkpt>
      <trkpt lat="44.67077569104731" lon="5.775796389207244">
        <time>2022-12-20T14:10:17+00:00</time>
        <ele>1379.0</ele>
      </trkpt>
      <trkpt lat="44.670782228931785" lon="5.775775602087379">
        <time>2022-12-20T14:10:18+00:00</time>
        <ele>1379.0</ele>
      </trkpt>
      <trkpt lat="44.670788180083036" lon="5.775759005919099">
        <time>2022-12-20T14:10:19+00:00</time>
        <ele>1379.0</ele>
      </trkpt>
      <trkpt lat="44.6707970649004" lon="5.775731597095728">
        <time>2022-12-20T14:10:21+00:00</time>
        <ele>1379.0</ele>
      </trkpt>
      <trkpt lat="44.67083998024464" lon="5.775558678433299">
        <time>2022-12-20T14:10:33+00:00</time>
        <ele>1379.0</ele>
      </trkpt>
      <trkpt lat="44.670833023265004" lon="5.775547865778208">
        <time>2022-12-20T14:10:34+00:00</time>
        <ele>1379.0</ele>
      </trkpt>
      <trkpt lat="44.67075892724097" lon="5.775503776967526">
        <time>2022-12-20T14:10:48+00:00</time>
        <ele>1378.0</ele>
      </trkpt>
      <trkpt lat="44.67071852646768" lon="5.775409480556846">
        <time>2022-12-20T14:10:57+00:00</time>
        <ele>1377.0</ele>
      </trkpt>
      <trkpt lat="44.670654237270355" lon="5.775187443941832">
        <time>2022-12-20T14:11:12+00:00</time>
        <ele>1375.0</ele>
      </trkpt>
      <trkpt lat="44.67062364332378" lon="5.774872284382582">
        <time>2022-12-20T14:11:30+00:00</time>
        <ele>1372.0</ele>
      </trkpt>
      <trkpt lat="44.67057662084699" lon="5.774696515873075">
        <time>2022-12-20T14:11:42+00:00</time>
        <ele>1370.0</ele>
      </trkpt>
      <trkpt lat="44.6705602761358" lon="5.774435754865408">
        <time>2022-12-20T14:12:00+00:00</time>
        <ele>1367.0</ele>
      </trkpt>
      <trkpt lat="44.670517360791564" lon="5.774319833144546">
        <time>2022-12-20T14:12:08+00:00</time>
        <ele>1366.0</ele>
      </trkpt>
      <trkpt lat="44.670456759631634" lon="5.774064771831036">
        <time>2022-12-20T14:12:23+00:00</time>
        <ele>1363.0</ele>
      </trkpt>
      <trkpt lat="44.6704410854727" lon="5.773885399103165">
        <time>2022-12-20T14:12:34+00:00</time>
        <ele>1361.0</ele>
      </trkpt>
      <trkpt lat="44.67038962058723" lon="5.773649532347918">
        <time>2022-12-20T14:12:52+00:00</time>
        <ele>1359.0</ele>
      </trkpt>
      <trkpt lat="44.670320972800255" lon="5.773516846820712">
        <time>2022-12-20T14:13:03+00:00</time>
        <ele>1357.0</ele>
      </trkpt>
      <trkpt lat="44.670287277549505" lon="5.773304114118218">
        <time>2022-12-20T14:13:16+00:00</time>
        <ele>1355.0</ele>
      </trkpt>
      <trkpt lat="44.67027973383665" lon="5.77298509888351">
        <time>2022-12-20T14:13:34+00:00</time>
        <ele>1352.0</ele>
      </trkpt>
      <trkpt lat="44.670278476551175" lon="5.772801116108894">
        <time>2022-12-20T14:13:44+00:00</time>
        <ele>1350.0</ele>
      </trkpt>
      <trkpt lat="44.670268753543496" lon="5.772634651511908">
        <time>2022-12-20T14:13:52+00:00</time>
        <ele>1348.0</ele>
      </trkpt>
      <trkpt lat="44.6702497266233" lon="5.772419152781367">
        <time>2022-12-20T14:14:04+00:00</time>
        <ele>1345.0</ele>
      </trkpt>
      <trkpt lat="44.670202201232314" lon="5.77223458327353">
        <time>2022-12-20T14:14:18+00:00</time>
        <ele>1343.0</ele>
      </trkpt>
      <trkpt lat="44.670202201232314" lon="5.771978599950671">
        <time>2022-12-20T14:14:37+00:00</time>
        <ele>1339.0</ele>
      </trkpt>
      <trkpt lat="44.6702270116657" lon="5.771671654656529">
        <time>2022-12-20T14:14:52+00:00</time>
        <ele>1335.0</ele>
      </trkpt>
      <trkpt lat="44.670285349711776" lon="5.771475685760379">
        <time>2022-12-20T14:15:05+00:00</time>
        <ele>1332.0</ele>
      </trkpt>
      <trkpt lat="44.6703895367682" lon="5.771211739629507">
        <time>2022-12-20T14:15:24+00:00</time>
        <ele>1329.0</ele>
      </trkpt>
      <trkpt lat="44.67043991200626" lon="5.77085031196475">
        <time>2022-12-20T14:15:45+00:00</time>
        <ele>1325.0</ele>
      </trkpt>
      <trkpt lat="44.67048215679824" lon="5.770668173208833">
        <time>2022-12-20T14:15:55+00:00</time>
        <ele>1322.0</ele>
      </trkpt>
      <trkpt lat="44.670476876199245" lon="5.77045451849699">
        <time>2022-12-20T14:16:07+00:00</time>
        <ele>1319.0</ele>
      </trkpt>
      <trkpt lat="44.67048676684499" lon="5.770248658955097">
        <time>2022-12-20T14:16:20+00:00</time>
        <ele>1316.0</ele>
      </trkpt>
      <trkpt lat="44.670534376055" lon="5.769969709217548">
        <time>2022-12-20T14:16:35+00:00</time>
        <ele>1312.0</ele>
      </trkpt>
      <trkpt lat="44.670537896454334" lon="5.769874155521393">
        <time>2022-12-20T14:16:40+00:00</time>
        <ele>1310.0</ele>
      </trkpt>
      <trkpt lat="44.670534543693066" lon="5.76962823048234">
        <time>2022-12-20T14:16:54+00:00</time>
        <ele>1307.0</ele>
      </trkpt>
      <trkpt lat="44.67057393863797" lon="5.769434524700046">
        <time>2022-12-20T14:17:06+00:00</time>
        <ele>1307.0</ele>
      </trkpt>
      <trkpt lat="44.67058223672211" lon="5.769396889954805">
        <time>2022-12-20T14:17:08+00:00</time>
        <ele>1306.0</ele>
      </trkpt>
      <trkpt lat="44.67061257921159" lon="5.76912104152143">
        <time>2022-12-20T14:17:24+00:00</time>
        <ele>1304.0</ele>
      </trkpt>
      <trkpt lat="44.67064124532044" lon="5.768881151452661">
        <time>2022-12-20T14:17:36+00:00</time>
        <ele>1302.0</ele>
      </trkpt>
      <trkpt lat="44.67063051648438" lon="5.768503630533814">
        <time>2022-12-20T14:17:57+00:00</time>
        <ele>1296.0</ele>
      </trkpt>
      <trkpt lat="44.67058818787336" lon="5.768263908103108">
        <time>2022-12-20T14:18:10+00:00</time>
        <ele>1292.0</ele>
      </trkpt>
      <trkpt lat="44.67057595029473" lon="5.767952017486095">
        <time>2022-12-20T14:18:30+00:00</time>
        <ele>1288.0</ele>
      </trkpt>
      <trkpt lat="44.67051459476352" lon="5.767710283398628">
        <time>2022-12-20T14:18:47+00:00</time>
        <ele>1285.0</ele>
      </trkpt>
      <trkpt lat="44.67045986093581" lon="5.767384059727192">
        <time>2022-12-20T14:19:06+00:00</time>
        <ele>1281.0</ele>
      </trkpt>
      <trkpt lat="44.67042272910476" lon="5.767341898754239">
        <time>2022-12-20T14:19:10+00:00</time>
        <ele>1280.0</ele>
      </trkpt>
      <trkpt lat="44.67033287510276" lon="5.767152467742562">
        <time>2022-12-20T14:19:22+00:00</time>
        <ele>1278.0</ele>
      </trkpt>
      <trkpt lat="44.67031585983932" lon="5.76707124710083">
        <time>2022-12-20T14:19:26+00:00</time>
        <ele>1277.0</ele>
      </trkpt>
      <trkpt lat="44.67018183320761" lon="5.766873434185982">
        <time>2022-12-20T14:19:42+00:00</time>
        <ele>1276.0</ele>
      </trkpt>
      <trkpt lat="44.6701598726213" lon="5.766823478043079">
        <time>2022-12-20T14:19:46+00:00</time>
        <ele>1276.0</ele>
      </trkpt>
      <trkpt lat="44.67011746019125" lon="5.766685176640749">
        <time>2022-12-20T14:19:54+00:00</time>
        <ele>1275.0</ele>
      </trkpt>
      <trkpt lat="44.67012567445636" lon="5.766593730077148">
        <time>2022-12-20T14:19:59+00:00</time>
        <ele>1273.0</ele>
      </trkpt>
      <trkpt lat="44.6701770555228" lon="5.766436150297523">
        <time>2022-12-20T14:20:08+00:00</time>
        <ele>1271.0</ele>
      </trkpt>
      <trkpt lat="44.670228604227304" lon="5.76633338816464">
        <time>2022-12-20T14:20:15+00:00</time>
        <ele>1270.0</ele>
      </trkpt>
      <trkpt lat="44.67029767110944" lon="5.766193829476833">
        <time>2022-12-20T14:20:24+00:00</time>
        <ele>1269.0</ele>
      </trkpt>
      <trkpt lat="44.670291719958186" lon="5.766066089272499">
        <time>2022-12-20T14:20:31+00:00</time>
        <ele>1268.0</ele>
      </trkpt>
      <trkpt lat="44.67026607133448" lon="5.765817984938622">
        <time>2022-12-20T14:20:44+00:00</time>
        <ele>1265.0</ele>
      </trkpt>
      <trkpt lat="44.67024930752814" lon="5.765692172572017">
        <time>2022-12-20T14:20:50+00:00</time>
        <ele>1264.0</ele>
      </trkpt>
      <trkpt lat="44.67024905607104" lon="5.765512967482209">
        <time>2022-12-20T14:21:00+00:00</time>
        <ele>1263.0</ele>
      </trkpt>
      <trkpt lat="44.67028400860727" lon="5.765332505106926">
        <time>2022-12-20T14:21:11+00:00</time>
        <ele>1261.0</ele>
      </trkpt>
      <trkpt lat="44.670396242290735" lon="5.765181379392743">
        <time>2022-12-20T14:21:25+00:00</time>
        <ele>1262.0</ele>
      </trkpt>
      <trkpt lat="44.67047813348472" lon="5.764987757429481">
        <time>2022-12-20T14:21:39+00:00</time>
        <ele>1261.0</ele>
      </trkpt>
      <trkpt lat="44.670513002201915" lon="5.76488415710628">
        <time>2022-12-20T14:21:46+00:00</time>
        <ele>1261.0</ele>
      </trkpt>
      <trkpt lat="44.67052691616118" lon="5.76484845019877">
        <time>2022-12-20T14:21:48+00:00</time>
        <ele>1261.0</ele>
      </trkpt>
      <trkpt lat="44.6705674007535" lon="5.764779048040509">
        <time>2022-12-20T14:21:53+00:00</time>
        <ele>1261.0</ele>
      </trkpt>
      <trkpt lat="44.670629762113094" lon="5.764516275376082">
        <time>2022-12-20T14:22:10+00:00</time>
        <ele>1258.0</ele>
      </trkpt>
      <trkpt lat="44.67074819840491" lon="5.764190135523677">
        <time>2022-12-20T14:22:29+00:00</time>
        <ele>1256.0</ele>
      </trkpt>
      <trkpt lat="44.670814499258995" lon="5.763941947370768">
        <time>2022-12-20T14:22:45+00:00</time>
        <ele>1255.0</ele>
      </trkpt>
      <trkpt lat="44.67089110985398" lon="5.763884279876947">
        <time>2022-12-20T14:22:56+00:00</time>
        <ele>1254.0</ele>
      </trkpt>
      <trkpt lat="44.67089991085231" lon="5.763880340382457">
        <time>2022-12-20T14:22:57+00:00</time>
        <ele>1254.0</ele>
      </trkpt>
      <trkpt lat="44.67104625888169" lon="5.763784954324365">
        <time>2022-12-20T14:23:14+00:00</time>
        <ele>1253.0</ele>
      </trkpt>
      <trkpt lat="44.671220099553466" lon="5.763641791418195">
        <time>2022-12-20T14:23:29+00:00</time>
        <ele>1252.0</ele>
      </trkpt>
      <trkpt lat="44.67145588248968" lon="5.763393770903349">
        <time>2022-12-20T14:23:46+00:00</time>
        <ele>1249.0</ele>
      </trkpt>
      <trkpt lat="44.67146644368768" lon="5.763373570516706">
        <time>2022-12-20T14:23:47+00:00</time>
        <ele>1249.0</ele>
      </trkpt>
      <trkpt lat="44.671647157520056" lon="5.763199562206864">
        <time>2022-12-20T14:24:03+00:00</time>
        <ele>1247.0</ele>
      </trkpt>
      <trkpt lat="44.67181446030736" lon="5.763035360723734">
        <time>2022-12-20T14:24:23+00:00</time>
        <ele>1245.0</ele>
      </trkpt>
      <trkpt lat="44.672018978744745" lon="5.762851042672992">
        <time>2022-12-20T14:24:43+00:00</time>
        <ele>1243.0</ele>
      </trkpt>
      <trkpt lat="44.672216791659594" lon="5.762700168415904">
        <time>2022-12-20T14:25:03+00:00</time>
        <ele>1241.0</ele>
      </trkpt>
      <trkpt lat="44.67247260734439" lon="5.762467654421926">
        <time>2022-12-20T14:25:24+00:00</time>
        <ele>1237.0</ele>
      </trkpt>
      <trkpt lat="44.67254737392068" lon="5.762396156787872">
        <time>2022-12-20T14:25:34+00:00</time>
        <ele>1236.0</ele>
      </trkpt>
      <trkpt lat="44.67256933450699" lon="5.762385595589876">
        <time>2022-12-20T14:25:37+00:00</time>
        <ele>1236.0</ele>
      </trkpt>
      <trkpt lat="44.67269598506391" lon="5.762260872870684">
        <time>2022-12-20T14:25:48+00:00</time>
        <ele>1234.0</ele>
      </trkpt>
      <trkpt lat="44.67275080271065" lon="5.762182418256998">
        <time>2022-12-20T14:25:53+00:00</time>
        <ele>1233.0</ele>
      </trkpt>
      <trkpt lat="44.672790449112654" lon="5.762044787406921">
        <time>2022-12-20T14:25:59+00:00</time>
        <ele>1231.0</ele>
      </trkpt>
      <trkpt lat="44.67277519404888" lon="5.761926015838981">
        <time>2022-12-20T14:26:05+00:00</time>
        <ele>1229.0</ele>
      </trkpt>
      <trkpt lat="44.67269506305456" lon="5.761764077469707">
        <time>2022-12-20T14:26:22+00:00</time>
        <ele>1228.0</ele>
      </trkpt>
      <trkpt lat="44.67268324457109" lon="5.761754103004932">
        <time>2022-12-20T14:26:23+00:00</time>
        <ele>1227.0</ele>
      </trkpt>
      <trkpt lat="44.672647286206484" lon="5.761701799929142">
        <time>2022-12-20T14:26:26+00:00</time>
        <ele>1227.0</ele>
      </trkpt>
      <trkpt lat="44.67258987016976" lon="5.761570958420634">
        <time>2022-12-20T14:26:34+00:00</time>
        <ele>1226.0</ele>
      </trkpt>
      <trkpt lat="44.67254050076008" lon="5.76149987988174">
        <time>2022-12-20T14:26:40+00:00</time>
        <ele>1225.0</ele>
      </trkpt>
      <trkpt lat="44.67240538448095" lon="5.761377420276403">
        <time>2022-12-20T14:26:56+00:00</time>
        <ele>1223.0</ele>
      </trkpt>
      <trkpt lat="44.672337574884295" lon="5.761280776932836">
        <time>2022-12-20T14:27:07+00:00</time>
        <ele>1222.0</ele>
      </trkpt>
    </trkseg>
  </trk>
</gpx>
